<?xml version="1.0" encoding="UTF-8" standalone="no" ?>
<gpx xmlns="http://www.topografix.com/GPX/1/1" xmlns:xsi="http://www.w3.org/2001/XMLSchema-instance" xsi:schemaLocation="http://www.topografix.com/GPX/1/1 http://www.topografix.com/GPX/1/1/gpx.xsd" version="1.1" creator="VisuGPX - https://www.visugpx.com">
  <metadata>
    <name>Lacs d'Ayous</name>
    <desc><![CDATA[Le circuit des lacs en Ossau. Incontournable. Plus d'infos et de photos sur:
&lt;http://www.o2rando.com/lacs-d-ayous-2083m-64&gt;]]></desc>
  </metadata>
  <trk>
    <name><![CDATA[www.ibpindex.com 36538454709723]]></name>
    <desc><![CDATA[www.ibpindex.com 36538454709723]]></desc>
    <trkseg>
      <trkpt lat="42.86834" lon="-0.44721">
        <ele>1412.1</ele>
        <time>2012-08-17T08:15:00Z</time>
      </trkpt>
      <trkpt lat="42.86864" lon="-0.44802">
        <ele>1412.1</ele>
        <time>2012-08-17T08:15:06Z</time>
      </trkpt>
      <trkpt lat="42.86869" lon="-0.44812">
        <ele>1412.1</ele>
        <time>2012-08-17T08:15:16Z</time>
      </trkpt>
      <trkpt lat="42.86874" lon="-0.44817">
        <ele>1412.1</ele>
        <time>2012-08-17T08:15:35Z</time>
      </trkpt>
      <trkpt lat="42.86874" lon="-0.44817">
        <ele>1412.1</ele>
        <time>2012-08-17T08:15:35Z</time>
      </trkpt>
      <trkpt lat="42.8687" lon="-0.44828">
        <ele>1412.1</ele>
        <time>2012-08-17T08:17:16Z</time>
      </trkpt>
      <trkpt lat="42.86869" lon="-0.44829">
        <ele>1412.1</ele>
        <time>2012-08-17T08:17:17Z</time>
      </trkpt>
      <trkpt lat="42.86859" lon="-0.44845">
        <ele>1412.5</ele>
        <time>2012-08-17T08:17:31Z</time>
      </trkpt>
      <trkpt lat="42.86855" lon="-0.44856">
        <ele>1412.8</ele>
        <time>2012-08-17T08:17:37Z</time>
      </trkpt>
      <trkpt lat="42.8685" lon="-0.44865">
        <ele>1412</ele>
        <time>2012-08-17T08:17:43Z</time>
      </trkpt>
      <trkpt lat="42.86845" lon="-0.44873">
        <ele>1411.8</ele>
        <time>2012-08-17T08:17:48Z</time>
      </trkpt>
      <trkpt lat="42.86839" lon="-0.44883">
        <ele>1412.1</ele>
        <time>2012-08-17T08:17:54Z</time>
      </trkpt>
      <trkpt lat="42.86835" lon="-0.44893">
        <ele>1412.1</ele>
        <time>2012-08-17T08:18:00Z</time>
      </trkpt>
      <trkpt lat="42.86832" lon="-0.44904">
        <ele>1411.2</ele>
        <time>2012-08-17T08:18:06Z</time>
      </trkpt>
      <trkpt lat="42.86829" lon="-0.44914">
        <ele>1411.6</ele>
        <time>2012-08-17T08:18:14Z</time>
      </trkpt>
      <trkpt lat="42.86828" lon="-0.44925">
        <ele>1411.5</ele>
        <time>2012-08-17T08:18:20Z</time>
      </trkpt>
      <trkpt lat="42.86828" lon="-0.44927">
        <ele>1411.3</ele>
        <time>2012-08-17T08:18:21Z</time>
      </trkpt>
      <trkpt lat="42.86824" lon="-0.44947">
        <ele>1413.8</ele>
        <time>2012-08-17T08:18:33Z</time>
      </trkpt>
      <trkpt lat="42.86817" lon="-0.44954">
        <ele>1413.6</ele>
        <time>2012-08-17T08:19:13Z</time>
      </trkpt>
      <trkpt lat="42.86811" lon="-0.44963">
        <ele>1414.3</ele>
        <time>2012-08-17T08:19:19Z</time>
      </trkpt>
      <trkpt lat="42.86807" lon="-0.44972">
        <ele>1414.9</ele>
        <time>2012-08-17T08:19:26Z</time>
      </trkpt>
      <trkpt lat="42.86806" lon="-0.44974">
        <ele>1415.2</ele>
        <time>2012-08-17T08:19:27Z</time>
      </trkpt>
      <trkpt lat="42.86794" lon="-0.44987">
        <ele>1414.7</ele>
        <time>2012-08-17T08:19:38Z</time>
      </trkpt>
      <trkpt lat="42.86787" lon="-0.44995">
        <ele>1415</ele>
        <time>2012-08-17T08:19:44Z</time>
      </trkpt>
      <trkpt lat="42.86781" lon="-0.45002">
        <ele>1414.6</ele>
        <time>2012-08-17T08:19:50Z</time>
      </trkpt>
      <trkpt lat="42.86774" lon="-0.45009">
        <ele>1413.9</ele>
        <time>2012-08-17T08:19:56Z</time>
      </trkpt>
      <trkpt lat="42.86768" lon="-0.45016">
        <ele>1413.7</ele>
        <time>2012-08-17T08:20:02Z</time>
      </trkpt>
      <trkpt lat="42.86761" lon="-0.45021">
        <ele>1414</ele>
        <time>2012-08-17T08:20:07Z</time>
      </trkpt>
      <trkpt lat="42.86753" lon="-0.45027">
        <ele>1413.1</ele>
        <time>2012-08-17T08:20:13Z</time>
      </trkpt>
      <trkpt lat="42.86745" lon="-0.45032">
        <ele>1414.2</ele>
        <time>2012-08-17T08:20:22Z</time>
      </trkpt>
      <trkpt lat="42.86737" lon="-0.45034">
        <ele>1415.7</ele>
        <time>2012-08-17T08:20:29Z</time>
      </trkpt>
      <trkpt lat="42.86736" lon="-0.45034">
        <ele>1415.6</ele>
        <time>2012-08-17T08:20:30Z</time>
      </trkpt>
      <trkpt lat="42.8672" lon="-0.45029">
        <ele>1416.7</ele>
        <time>2012-08-17T08:20:42Z</time>
      </trkpt>
      <trkpt lat="42.86712" lon="-0.45027">
        <ele>1416.2</ele>
        <time>2012-08-17T08:20:50Z</time>
      </trkpt>
      <trkpt lat="42.86704" lon="-0.45027">
        <ele>1415.4</ele>
        <time>2012-08-17T08:20:56Z</time>
      </trkpt>
      <trkpt lat="42.86696" lon="-0.45026">
        <ele>1415.8</ele>
        <time>2012-08-17T08:21:03Z</time>
      </trkpt>
      <trkpt lat="42.86687" lon="-0.45025">
        <ele>1417.2</ele>
        <time>2012-08-17T08:21:10Z</time>
      </trkpt>
      <trkpt lat="42.86679" lon="-0.45022">
        <ele>1417.5</ele>
        <time>2012-08-17T08:21:17Z</time>
      </trkpt>
      <trkpt lat="42.8667" lon="-0.45018">
        <ele>1417.5</ele>
        <time>2012-08-17T08:21:25Z</time>
      </trkpt>
      <trkpt lat="42.86662" lon="-0.45014">
        <ele>1418</ele>
        <time>2012-08-17T08:21:31Z</time>
      </trkpt>
      <trkpt lat="42.86661" lon="-0.45014">
        <ele>1417.9</ele>
        <time>2012-08-17T08:21:32Z</time>
      </trkpt>
      <trkpt lat="42.86646" lon="-0.45008">
        <ele>1418.1</ele>
        <time>2012-08-17T08:21:42Z</time>
      </trkpt>
      <trkpt lat="42.86638" lon="-0.45007">
        <ele>1418.6</ele>
        <time>2012-08-17T08:21:48Z</time>
      </trkpt>
      <trkpt lat="42.86629" lon="-0.45008">
        <ele>1418.9</ele>
        <time>2012-08-17T08:21:53Z</time>
      </trkpt>
      <trkpt lat="42.8662" lon="-0.45011">
        <ele>1418</ele>
        <time>2012-08-17T08:21:59Z</time>
      </trkpt>
      <trkpt lat="42.86612" lon="-0.45015">
        <ele>1418</ele>
        <time>2012-08-17T08:22:04Z</time>
      </trkpt>
      <trkpt lat="42.86605" lon="-0.45022">
        <ele>1417</ele>
        <time>2012-08-17T08:22:10Z</time>
      </trkpt>
      <trkpt lat="42.86599" lon="-0.45031">
        <ele>1416.9</ele>
        <time>2012-08-17T08:22:17Z</time>
      </trkpt>
      <trkpt lat="42.86592" lon="-0.45038">
        <ele>1417.6</ele>
        <time>2012-08-17T08:22:24Z</time>
      </trkpt>
      <trkpt lat="42.86586" lon="-0.45046">
        <ele>1417.4</ele>
        <time>2012-08-17T08:22:33Z</time>
      </trkpt>
      <trkpt lat="42.86584" lon="-0.45047">
        <ele>1417.2</ele>
        <time>2012-08-17T08:22:34Z</time>
      </trkpt>
      <trkpt lat="42.8657" lon="-0.4505">
        <ele>1415.5</ele>
        <time>2012-08-17T08:22:44Z</time>
      </trkpt>
      <trkpt lat="42.86562" lon="-0.45051">
        <ele>1415.5</ele>
        <time>2012-08-17T08:22:50Z</time>
      </trkpt>
      <trkpt lat="42.86554" lon="-0.45047">
        <ele>1415.6</ele>
        <time>2012-08-17T08:23:07Z</time>
      </trkpt>
      <trkpt lat="42.86545" lon="-0.45046">
        <ele>1415</ele>
        <time>2012-08-17T08:23:14Z</time>
      </trkpt>
      <trkpt lat="42.86538" lon="-0.45043">
        <ele>1414.1</ele>
        <time>2012-08-17T08:23:20Z</time>
      </trkpt>
      <trkpt lat="42.86529" lon="-0.45039">
        <ele>1414.1</ele>
        <time>2012-08-17T08:23:26Z</time>
      </trkpt>
      <trkpt lat="42.86522" lon="-0.45036">
        <ele>1413.8</ele>
        <time>2012-08-17T08:23:32Z</time>
      </trkpt>
      <trkpt lat="42.86514" lon="-0.45034">
        <ele>1414.4</ele>
        <time>2012-08-17T08:23:40Z</time>
      </trkpt>
      <trkpt lat="42.86513" lon="-0.45034">
        <ele>1414.7</ele>
        <time>2012-08-17T08:23:41Z</time>
      </trkpt>
      <trkpt lat="42.86498" lon="-0.45028">
        <ele>1414.6</ele>
        <time>2012-08-17T08:23:55Z</time>
      </trkpt>
      <trkpt lat="42.86491" lon="-0.45021">
        <ele>1413.8</ele>
        <time>2012-08-17T08:24:02Z</time>
      </trkpt>
      <trkpt lat="42.86484" lon="-0.45015">
        <ele>1414.4</ele>
        <time>2012-08-17T08:24:09Z</time>
      </trkpt>
      <trkpt lat="42.86477" lon="-0.45007">
        <ele>1413.8</ele>
        <time>2012-08-17T08:24:16Z</time>
      </trkpt>
      <trkpt lat="42.86471" lon="-0.45015">
        <ele>1416.9</ele>
        <time>2012-08-17T08:24:42Z</time>
      </trkpt>
      <trkpt lat="42.86471" lon="-0.45016">
        <ele>1417.1</ele>
        <time>2012-08-17T08:24:43Z</time>
      </trkpt>
      <trkpt lat="42.86464" lon="-0.45035">
        <ele>1419.8</ele>
        <time>2012-08-17T08:24:57Z</time>
      </trkpt>
      <trkpt lat="42.86459" lon="-0.45043">
        <ele>1420.7</ele>
        <time>2012-08-17T08:25:03Z</time>
      </trkpt>
      <trkpt lat="42.86454" lon="-0.45051">
        <ele>1420.7</ele>
        <time>2012-08-17T08:25:08Z</time>
      </trkpt>
      <trkpt lat="42.86448" lon="-0.45059">
        <ele>1420.7</ele>
        <time>2012-08-17T08:25:14Z</time>
      </trkpt>
      <trkpt lat="42.86445" lon="-0.45069">
        <ele>1422.1</ele>
        <time>2012-08-17T08:25:21Z</time>
      </trkpt>
      <trkpt lat="42.86441" lon="-0.45079">
        <ele>1424.7</ele>
        <time>2012-08-17T08:25:29Z</time>
      </trkpt>
      <trkpt lat="42.86439" lon="-0.45091">
        <ele>1426.1</ele>
        <time>2012-08-17T08:25:36Z</time>
      </trkpt>
      <trkpt lat="42.86436" lon="-0.45101">
        <ele>1425.7</ele>
        <time>2012-08-17T08:25:42Z</time>
      </trkpt>
      <trkpt lat="42.8643" lon="-0.45109">
        <ele>1426.3</ele>
        <time>2012-08-17T08:25:46Z</time>
      </trkpt>
      <trkpt lat="42.86429" lon="-0.45111">
        <ele>1426.5</ele>
        <time>2012-08-17T08:25:47Z</time>
      </trkpt>
      <trkpt lat="42.86422" lon="-0.45129">
        <ele>1425.5</ele>
        <time>2012-08-17T08:25:56Z</time>
      </trkpt>
      <trkpt lat="42.86418" lon="-0.45139">
        <ele>1426.9</ele>
        <time>2012-08-17T08:26:03Z</time>
      </trkpt>
      <trkpt lat="42.86412" lon="-0.45148">
        <ele>1427.3</ele>
        <time>2012-08-17T08:26:10Z</time>
      </trkpt>
      <trkpt lat="42.86406" lon="-0.45154">
        <ele>1427.6</ele>
        <time>2012-08-17T08:26:16Z</time>
      </trkpt>
      <trkpt lat="42.86399" lon="-0.45159">
        <ele>1427</ele>
        <time>2012-08-17T08:26:20Z</time>
      </trkpt>
      <trkpt lat="42.86393" lon="-0.45166">
        <ele>1426.5</ele>
        <time>2012-08-17T08:26:24Z</time>
      </trkpt>
      <trkpt lat="42.86386" lon="-0.45171">
        <ele>1426.4</ele>
        <time>2012-08-17T08:26:28Z</time>
      </trkpt>
      <trkpt lat="42.8638" lon="-0.45181">
        <ele>1426.4</ele>
        <time>2012-08-17T08:26:33Z</time>
      </trkpt>
      <trkpt lat="42.86374" lon="-0.45188">
        <ele>1426.7</ele>
        <time>2012-08-17T08:26:38Z</time>
      </trkpt>
      <trkpt lat="42.86368" lon="-0.45194">
        <ele>1427</ele>
        <time>2012-08-17T08:26:43Z</time>
      </trkpt>
      <trkpt lat="42.8636" lon="-0.45199">
        <ele>1427.2</ele>
        <time>2012-08-17T08:26:48Z</time>
      </trkpt>
      <trkpt lat="42.86358" lon="-0.45199">
        <ele>1427.2</ele>
        <time>2012-08-17T08:26:49Z</time>
      </trkpt>
      <trkpt lat="42.86343" lon="-0.45205">
        <ele>1426.8</ele>
        <time>2012-08-17T08:26:59Z</time>
      </trkpt>
      <trkpt lat="42.86336" lon="-0.45206">
        <ele>1426.6</ele>
        <time>2012-08-17T08:27:03Z</time>
      </trkpt>
      <trkpt lat="42.86328" lon="-0.45207">
        <ele>1426.7</ele>
        <time>2012-08-17T08:27:07Z</time>
      </trkpt>
      <trkpt lat="42.86321" lon="-0.45207">
        <ele>1427.2</ele>
        <time>2012-08-17T08:27:11Z</time>
      </trkpt>
      <trkpt lat="42.86313" lon="-0.45208">
        <ele>1427.2</ele>
        <time>2012-08-17T08:27:15Z</time>
      </trkpt>
      <trkpt lat="42.86305" lon="-0.45209">
        <ele>1427.3</ele>
        <time>2012-08-17T08:27:20Z</time>
      </trkpt>
      <trkpt lat="42.86297" lon="-0.45214">
        <ele>1427.3</ele>
        <time>2012-08-17T08:27:25Z</time>
      </trkpt>
      <trkpt lat="42.8629" lon="-0.4522">
        <ele>1427.9</ele>
        <time>2012-08-17T08:27:30Z</time>
      </trkpt>
      <trkpt lat="42.86283" lon="-0.45227">
        <ele>1427.8</ele>
        <time>2012-08-17T08:27:35Z</time>
      </trkpt>
      <trkpt lat="42.86278" lon="-0.45236">
        <ele>1427.1</ele>
        <time>2012-08-17T08:27:48Z</time>
      </trkpt>
      <trkpt lat="42.86272" lon="-0.45243">
        <ele>1427.4</ele>
        <time>2012-08-17T08:27:55Z</time>
      </trkpt>
      <trkpt lat="42.86271" lon="-0.45245">
        <ele>1427.2</ele>
        <time>2012-08-17T08:27:56Z</time>
      </trkpt>
      <trkpt lat="42.86262" lon="-0.45261">
        <ele>1426.9</ele>
        <time>2012-08-17T08:28:07Z</time>
      </trkpt>
      <trkpt lat="42.86257" lon="-0.4527">
        <ele>1426.9</ele>
        <time>2012-08-17T08:28:13Z</time>
      </trkpt>
      <trkpt lat="42.86254" lon="-0.45279">
        <ele>1426.9</ele>
        <time>2012-08-17T08:28:18Z</time>
      </trkpt>
      <trkpt lat="42.86249" lon="-0.45289">
        <ele>1428</ele>
        <time>2012-08-17T08:28:24Z</time>
      </trkpt>
      <trkpt lat="42.86243" lon="-0.45298">
        <ele>1427</ele>
        <time>2012-08-17T08:28:30Z</time>
      </trkpt>
      <trkpt lat="42.86237" lon="-0.45306">
        <ele>1427.4</ele>
        <time>2012-08-17T08:28:36Z</time>
      </trkpt>
      <trkpt lat="42.8623" lon="-0.45314">
        <ele>1427.2</ele>
        <time>2012-08-17T08:28:42Z</time>
      </trkpt>
      <trkpt lat="42.86223" lon="-0.45322">
        <ele>1427.3</ele>
        <time>2012-08-17T08:28:49Z</time>
      </trkpt>
      <trkpt lat="42.86217" lon="-0.4533">
        <ele>1427.7</ele>
        <time>2012-08-17T08:28:55Z</time>
      </trkpt>
      <trkpt lat="42.86212" lon="-0.45338">
        <ele>1427.9</ele>
        <time>2012-08-17T08:29:01Z</time>
      </trkpt>
      <trkpt lat="42.86212" lon="-0.45339">
        <ele>1427.6</ele>
        <time>2012-08-17T08:29:02Z</time>
      </trkpt>
      <trkpt lat="42.862" lon="-0.45355">
        <ele>1428.4</ele>
        <time>2012-08-17T08:29:16Z</time>
      </trkpt>
      <trkpt lat="42.86194" lon="-0.45362">
        <ele>1429.3</ele>
        <time>2012-08-17T08:29:23Z</time>
      </trkpt>
      <trkpt lat="42.86188" lon="-0.45368">
        <ele>1430.2</ele>
        <time>2012-08-17T08:29:28Z</time>
      </trkpt>
      <trkpt lat="42.86181" lon="-0.45373">
        <ele>1431.4</ele>
        <time>2012-08-17T08:29:32Z</time>
      </trkpt>
      <trkpt lat="42.86174" lon="-0.45378">
        <ele>1432.6</ele>
        <time>2012-08-17T08:29:36Z</time>
      </trkpt>
      <trkpt lat="42.86168" lon="-0.45384">
        <ele>1433.4</ele>
        <time>2012-08-17T08:29:41Z</time>
      </trkpt>
      <trkpt lat="42.86162" lon="-0.45392">
        <ele>1434.8</ele>
        <time>2012-08-17T08:29:47Z</time>
      </trkpt>
      <trkpt lat="42.86156" lon="-0.45399">
        <ele>1434.7</ele>
        <time>2012-08-17T08:29:53Z</time>
      </trkpt>
      <trkpt lat="42.8615" lon="-0.45405">
        <ele>1436.6</ele>
        <time>2012-08-17T08:29:58Z</time>
      </trkpt>
      <trkpt lat="42.86143" lon="-0.45412">
        <ele>1436.9</ele>
        <time>2012-08-17T08:30:03Z</time>
      </trkpt>
      <trkpt lat="42.86141" lon="-0.45413">
        <ele>1437.1</ele>
        <time>2012-08-17T08:30:04Z</time>
      </trkpt>
      <trkpt lat="42.86128" lon="-0.45419">
        <ele>1439.3</ele>
        <time>2012-08-17T08:30:14Z</time>
      </trkpt>
      <trkpt lat="42.86119" lon="-0.45421">
        <ele>1439.1</ele>
        <time>2012-08-17T08:30:21Z</time>
      </trkpt>
      <trkpt lat="42.86111" lon="-0.45423">
        <ele>1441</ele>
        <time>2012-08-17T08:30:28Z</time>
      </trkpt>
      <trkpt lat="42.86103" lon="-0.45425">
        <ele>1441.8</ele>
        <time>2012-08-17T08:30:34Z</time>
      </trkpt>
      <trkpt lat="42.86094" lon="-0.45427">
        <ele>1442.9</ele>
        <time>2012-08-17T08:30:41Z</time>
      </trkpt>
      <trkpt lat="42.86087" lon="-0.45427">
        <ele>1444.1</ele>
        <time>2012-08-17T08:30:46Z</time>
      </trkpt>
      <trkpt lat="42.86078" lon="-0.45428">
        <ele>1446.1</ele>
        <time>2012-08-17T08:30:52Z</time>
      </trkpt>
      <trkpt lat="42.86069" lon="-0.45429">
        <ele>1447</ele>
        <time>2012-08-17T08:30:58Z</time>
      </trkpt>
      <trkpt lat="42.86062" lon="-0.45435">
        <ele>1448.7</ele>
        <time>2012-08-17T08:31:06Z</time>
      </trkpt>
      <trkpt lat="42.86061" lon="-0.45436">
        <ele>1448.9</ele>
        <time>2012-08-17T08:31:07Z</time>
      </trkpt>
      <trkpt lat="42.86046" lon="-0.45444">
        <ele>1451.2</ele>
        <time>2012-08-17T08:31:19Z</time>
      </trkpt>
      <trkpt lat="42.86038" lon="-0.45444">
        <ele>1452.6</ele>
        <time>2012-08-17T08:31:26Z</time>
      </trkpt>
      <trkpt lat="42.8603" lon="-0.45445">
        <ele>1453.8</ele>
        <time>2012-08-17T08:31:34Z</time>
      </trkpt>
      <trkpt lat="42.86022" lon="-0.45445">
        <ele>1455.1</ele>
        <time>2012-08-17T08:31:41Z</time>
      </trkpt>
      <trkpt lat="42.86014" lon="-0.45444">
        <ele>1456.2</ele>
        <time>2012-08-17T08:31:49Z</time>
      </trkpt>
      <trkpt lat="42.86006" lon="-0.45445">
        <ele>1457.1</ele>
        <time>2012-08-17T08:31:56Z</time>
      </trkpt>
      <trkpt lat="42.85998" lon="-0.45447">
        <ele>1457</ele>
        <time>2012-08-17T08:32:02Z</time>
      </trkpt>
      <trkpt lat="42.8599" lon="-0.45448">
        <ele>1458.1</ele>
        <time>2012-08-17T08:32:09Z</time>
      </trkpt>
      <trkpt lat="42.85988" lon="-0.45449">
        <ele>1458.3</ele>
        <time>2012-08-17T08:32:10Z</time>
      </trkpt>
      <trkpt lat="42.85974" lon="-0.45452">
        <ele>1460.6</ele>
        <time>2012-08-17T08:32:21Z</time>
      </trkpt>
      <trkpt lat="42.85966" lon="-0.45455">
        <ele>1460.8</ele>
        <time>2012-08-17T08:32:27Z</time>
      </trkpt>
      <trkpt lat="42.85958" lon="-0.45458">
        <ele>1462.6</ele>
        <time>2012-08-17T08:32:34Z</time>
      </trkpt>
      <trkpt lat="42.8595" lon="-0.45459">
        <ele>1464.8</ele>
        <time>2012-08-17T08:32:42Z</time>
      </trkpt>
      <trkpt lat="42.85942" lon="-0.45457">
        <ele>1465.5</ele>
        <time>2012-08-17T08:32:48Z</time>
      </trkpt>
      <trkpt lat="42.85934" lon="-0.45456">
        <ele>1467</ele>
        <time>2012-08-17T08:32:54Z</time>
      </trkpt>
      <trkpt lat="42.85926" lon="-0.45454">
        <ele>1468.4</ele>
        <time>2012-08-17T08:33:01Z</time>
      </trkpt>
      <trkpt lat="42.85918" lon="-0.45453">
        <ele>1469.7</ele>
        <time>2012-08-17T08:33:10Z</time>
      </trkpt>
      <trkpt lat="42.8591" lon="-0.45452">
        <ele>1471.2</ele>
        <time>2012-08-17T08:33:16Z</time>
      </trkpt>
      <trkpt lat="42.85908" lon="-0.45452">
        <ele>1471.2</ele>
        <time>2012-08-17T08:33:17Z</time>
      </trkpt>
      <trkpt lat="42.85893" lon="-0.4545">
        <ele>1473</ele>
        <time>2012-08-17T08:33:31Z</time>
      </trkpt>
      <trkpt lat="42.85884" lon="-0.45448">
        <ele>1472.9</ele>
        <time>2012-08-17T08:33:39Z</time>
      </trkpt>
      <trkpt lat="42.85877" lon="-0.45442">
        <ele>1473.9</ele>
        <time>2012-08-17T08:33:48Z</time>
      </trkpt>
      <trkpt lat="42.85868" lon="-0.4544">
        <ele>1476.1</ele>
        <time>2012-08-17T08:33:57Z</time>
      </trkpt>
      <trkpt lat="42.8586" lon="-0.45436">
        <ele>1476.3</ele>
        <time>2012-08-17T08:34:07Z</time>
      </trkpt>
      <trkpt lat="42.85852" lon="-0.45435">
        <ele>1476.1</ele>
        <time>2012-08-17T08:34:13Z</time>
      </trkpt>
      <trkpt lat="42.85845" lon="-0.45438">
        <ele>1476.1</ele>
        <time>2012-08-17T08:34:23Z</time>
      </trkpt>
      <trkpt lat="42.85843" lon="-0.45439">
        <ele>1476.2</ele>
        <time>2012-08-17T08:34:24Z</time>
      </trkpt>
      <trkpt lat="42.8583" lon="-0.45447">
        <ele>1477.2</ele>
        <time>2012-08-17T08:34:41Z</time>
      </trkpt>
      <trkpt lat="42.85824" lon="-0.45456">
        <ele>1476.5</ele>
        <time>2012-08-17T08:34:49Z</time>
      </trkpt>
      <trkpt lat="42.85819" lon="-0.45464">
        <ele>1476.7</ele>
        <time>2012-08-17T08:34:54Z</time>
      </trkpt>
      <trkpt lat="42.85814" lon="-0.45472">
        <ele>1476.9</ele>
        <time>2012-08-17T08:34:59Z</time>
      </trkpt>
      <trkpt lat="42.85808" lon="-0.45479">
        <ele>1477.5</ele>
        <time>2012-08-17T08:35:04Z</time>
      </trkpt>
      <trkpt lat="42.85802" lon="-0.45486">
        <ele>1477.5</ele>
        <time>2012-08-17T08:35:10Z</time>
      </trkpt>
      <trkpt lat="42.85797" lon="-0.45496">
        <ele>1477.7</ele>
        <time>2012-08-17T08:35:17Z</time>
      </trkpt>
      <trkpt lat="42.85792" lon="-0.45505">
        <ele>1477.8</ele>
        <time>2012-08-17T08:35:23Z</time>
      </trkpt>
      <trkpt lat="42.85787" lon="-0.45512">
        <ele>1477.1</ele>
        <time>2012-08-17T08:35:29Z</time>
      </trkpt>
      <trkpt lat="42.85785" lon="-0.45513">
        <ele>1476.8</ele>
        <time>2012-08-17T08:35:30Z</time>
      </trkpt>
      <trkpt lat="42.85774" lon="-0.45528">
        <ele>1476.4</ele>
        <time>2012-08-17T08:35:39Z</time>
      </trkpt>
      <trkpt lat="42.85769" lon="-0.45536">
        <ele>1476.1</ele>
        <time>2012-08-17T08:35:46Z</time>
      </trkpt>
      <trkpt lat="42.85764" lon="-0.45544">
        <ele>1476.9</ele>
        <time>2012-08-17T08:35:53Z</time>
      </trkpt>
      <trkpt lat="42.85758" lon="-0.45551">
        <ele>1477.3</ele>
        <time>2012-08-17T08:36:01Z</time>
      </trkpt>
      <trkpt lat="42.85752" lon="-0.45558">
        <ele>1478.4</ele>
        <time>2012-08-17T08:36:08Z</time>
      </trkpt>
      <trkpt lat="42.85747" lon="-0.45568">
        <ele>1480.7</ele>
        <time>2012-08-17T08:36:21Z</time>
      </trkpt>
      <trkpt lat="42.85739" lon="-0.45569">
        <ele>1482.2</ele>
        <time>2012-08-17T08:36:29Z</time>
      </trkpt>
      <trkpt lat="42.85731" lon="-0.45566">
        <ele>1484.4</ele>
        <time>2012-08-17T08:36:37Z</time>
      </trkpt>
      <trkpt lat="42.85729" lon="-0.45565">
        <ele>1484.2</ele>
        <time>2012-08-17T08:36:38Z</time>
      </trkpt>
      <trkpt lat="42.85714" lon="-0.45574">
        <ele>1488</ele>
        <time>2012-08-17T08:36:55Z</time>
      </trkpt>
      <trkpt lat="42.85708" lon="-0.45582">
        <ele>1491.7</ele>
        <time>2012-08-17T08:37:08Z</time>
      </trkpt>
      <trkpt lat="42.857" lon="-0.45587">
        <ele>1493.4</ele>
        <time>2012-08-17T08:37:18Z</time>
      </trkpt>
      <trkpt lat="42.85694" lon="-0.45595">
        <ele>1495</ele>
        <time>2012-08-17T08:37:26Z</time>
      </trkpt>
      <trkpt lat="42.85686" lon="-0.45598">
        <ele>1496.6</ele>
        <time>2012-08-17T08:37:34Z</time>
      </trkpt>
      <trkpt lat="42.85677" lon="-0.45599">
        <ele>1499.9</ele>
        <time>2012-08-17T08:37:46Z</time>
      </trkpt>
      <trkpt lat="42.85677" lon="-0.45599">
        <ele>1500</ele>
        <time>2012-08-17T08:37:47Z</time>
      </trkpt>
      <trkpt lat="42.85662" lon="-0.456">
        <ele>1502.1</ele>
        <time>2012-08-17T08:37:57Z</time>
      </trkpt>
      <trkpt lat="42.85654" lon="-0.45602">
        <ele>1504</ele>
        <time>2012-08-17T08:38:03Z</time>
      </trkpt>
      <trkpt lat="42.85645" lon="-0.45601">
        <ele>1505.2</ele>
        <time>2012-08-17T08:38:10Z</time>
      </trkpt>
      <trkpt lat="42.85637" lon="-0.45603">
        <ele>1506.2</ele>
        <time>2012-08-17T08:38:16Z</time>
      </trkpt>
      <trkpt lat="42.85629" lon="-0.45605">
        <ele>1507.3</ele>
        <time>2012-08-17T08:38:23Z</time>
      </trkpt>
      <trkpt lat="42.8562" lon="-0.45605">
        <ele>1508.3</ele>
        <time>2012-08-17T08:38:30Z</time>
      </trkpt>
      <trkpt lat="42.85611" lon="-0.45608">
        <ele>1509.2</ele>
        <time>2012-08-17T08:38:35Z</time>
      </trkpt>
      <trkpt lat="42.85603" lon="-0.45608">
        <ele>1511</ele>
        <time>2012-08-17T08:38:44Z</time>
      </trkpt>
      <trkpt lat="42.85595" lon="-0.45613">
        <ele>1512.8</ele>
        <time>2012-08-17T08:38:57Z</time>
      </trkpt>
      <trkpt lat="42.85595" lon="-0.45614">
        <ele>1512.7</ele>
        <time>2012-08-17T08:38:58Z</time>
      </trkpt>
      <trkpt lat="42.8558" lon="-0.45622">
        <ele>1516.6</ele>
        <time>2012-08-17T08:39:14Z</time>
      </trkpt>
      <trkpt lat="42.85572" lon="-0.45628">
        <ele>1518.8</ele>
        <time>2012-08-17T08:39:22Z</time>
      </trkpt>
      <trkpt lat="42.85565" lon="-0.45635">
        <ele>1520</ele>
        <time>2012-08-17T08:39:29Z</time>
      </trkpt>
      <trkpt lat="42.85559" lon="-0.45644">
        <ele>1521.3</ele>
        <time>2012-08-17T08:39:36Z</time>
      </trkpt>
      <trkpt lat="42.85553" lon="-0.45652">
        <ele>1521.1</ele>
        <time>2012-08-17T08:39:44Z</time>
      </trkpt>
      <trkpt lat="42.85548" lon="-0.4566">
        <ele>1521.8</ele>
        <time>2012-08-17T08:39:51Z</time>
      </trkpt>
      <trkpt lat="42.85543" lon="-0.45668">
        <ele>1522.8</ele>
        <time>2012-08-17T08:39:57Z</time>
      </trkpt>
      <trkpt lat="42.85536" lon="-0.45675">
        <ele>1523.3</ele>
        <time>2012-08-17T08:40:03Z</time>
      </trkpt>
      <trkpt lat="42.85535" lon="-0.45675">
        <ele>1523.6</ele>
        <time>2012-08-17T08:40:04Z</time>
      </trkpt>
      <trkpt lat="42.85522" lon="-0.4569">
        <ele>1525.4</ele>
        <time>2012-08-17T08:40:18Z</time>
      </trkpt>
      <trkpt lat="42.85519" lon="-0.45699">
        <ele>1525.8</ele>
        <time>2012-08-17T08:40:24Z</time>
      </trkpt>
      <trkpt lat="42.85514" lon="-0.4571">
        <ele>1527.3</ele>
        <time>2012-08-17T08:40:32Z</time>
      </trkpt>
      <trkpt lat="42.85508" lon="-0.45718">
        <ele>1528.5</ele>
        <time>2012-08-17T08:40:39Z</time>
      </trkpt>
      <trkpt lat="42.85502" lon="-0.45726">
        <ele>1528.2</ele>
        <time>2012-08-17T08:40:46Z</time>
      </trkpt>
      <trkpt lat="42.85496" lon="-0.45731">
        <ele>1529.5</ele>
        <time>2012-08-17T08:40:50Z</time>
      </trkpt>
      <trkpt lat="42.85489" lon="-0.45736">
        <ele>1529.1</ele>
        <time>2012-08-17T08:40:54Z</time>
      </trkpt>
      <trkpt lat="42.85481" lon="-0.45741">
        <ele>1527.8</ele>
        <time>2012-08-17T08:40:59Z</time>
      </trkpt>
      <trkpt lat="42.85474" lon="-0.45747">
        <ele>1528.5</ele>
        <time>2012-08-17T08:41:04Z</time>
      </trkpt>
      <trkpt lat="42.85472" lon="-0.45748">
        <ele>1528.8</ele>
        <time>2012-08-17T08:41:05Z</time>
      </trkpt>
      <trkpt lat="42.8546" lon="-0.45756">
        <ele>1528.8</ele>
        <time>2012-08-17T08:41:16Z</time>
      </trkpt>
      <trkpt lat="42.8546" lon="-0.45768">
        <ele>1530.4</ele>
        <time>2012-08-17T08:41:29Z</time>
      </trkpt>
      <trkpt lat="42.85457" lon="-0.45779">
        <ele>1532.5</ele>
        <time>2012-08-17T08:41:40Z</time>
      </trkpt>
      <trkpt lat="42.85453" lon="-0.45789">
        <ele>1533.6</ele>
        <time>2012-08-17T08:41:50Z</time>
      </trkpt>
      <trkpt lat="42.85444" lon="-0.45789">
        <ele>1533.7</ele>
        <time>2012-08-17T08:44:21Z</time>
      </trkpt>
      <trkpt lat="42.85444" lon="-0.4579">
        <ele>1533.4</ele>
        <time>2012-08-17T08:44:22Z</time>
      </trkpt>
      <trkpt lat="42.85438" lon="-0.4581">
        <ele>1532.4</ele>
        <time>2012-08-17T08:44:37Z</time>
      </trkpt>
      <trkpt lat="42.85438" lon="-0.45822">
        <ele>1531</ele>
        <time>2012-08-17T08:44:44Z</time>
      </trkpt>
      <trkpt lat="42.85436" lon="-0.45831">
        <ele>1532.4</ele>
        <time>2012-08-17T08:44:50Z</time>
      </trkpt>
      <trkpt lat="42.85434" lon="-0.45841">
        <ele>1533</ele>
        <time>2012-08-17T08:44:54Z</time>
      </trkpt>
      <trkpt lat="42.85431" lon="-0.45852">
        <ele>1534.7</ele>
        <time>2012-08-17T08:45:00Z</time>
      </trkpt>
      <trkpt lat="42.85427" lon="-0.45861">
        <ele>1535.5</ele>
        <time>2012-08-17T08:45:06Z</time>
      </trkpt>
      <trkpt lat="42.85425" lon="-0.45873">
        <ele>1536.6</ele>
        <time>2012-08-17T08:45:13Z</time>
      </trkpt>
      <trkpt lat="42.85426" lon="-0.45884">
        <ele>1537.9</ele>
        <time>2012-08-17T08:45:23Z</time>
      </trkpt>
      <trkpt lat="42.85426" lon="-0.45885">
        <ele>1538</ele>
        <time>2012-08-17T08:45:24Z</time>
      </trkpt>
      <trkpt lat="42.85422" lon="-0.45907">
        <ele>1538.9</ele>
        <time>2012-08-17T08:45:44Z</time>
      </trkpt>
      <trkpt lat="42.85419" lon="-0.45916">
        <ele>1539.5</ele>
        <time>2012-08-17T08:45:50Z</time>
      </trkpt>
      <trkpt lat="42.85416" lon="-0.45927">
        <ele>1539.3</ele>
        <time>2012-08-17T08:45:55Z</time>
      </trkpt>
      <trkpt lat="42.8541" lon="-0.45935">
        <ele>1540</ele>
        <time>2012-08-17T08:46:00Z</time>
      </trkpt>
      <trkpt lat="42.85405" lon="-0.45945">
        <ele>1539.9</ele>
        <time>2012-08-17T08:46:05Z</time>
      </trkpt>
      <trkpt lat="42.854" lon="-0.45954">
        <ele>1539.4</ele>
        <time>2012-08-17T08:46:10Z</time>
      </trkpt>
      <trkpt lat="42.85395" lon="-0.45962">
        <ele>1540.7</ele>
        <time>2012-08-17T08:46:15Z</time>
      </trkpt>
      <trkpt lat="42.85391" lon="-0.45971">
        <ele>1543</ele>
        <time>2012-08-17T08:46:24Z</time>
      </trkpt>
      <trkpt lat="42.8539" lon="-0.45983">
        <ele>1545.4</ele>
        <time>2012-08-17T08:46:35Z</time>
      </trkpt>
      <trkpt lat="42.8539" lon="-0.45985">
        <ele>1545.9</ele>
        <time>2012-08-17T08:46:36Z</time>
      </trkpt>
      <trkpt lat="42.85389" lon="-0.46007">
        <ele>1552.3</ele>
        <time>2012-08-17T08:47:07Z</time>
      </trkpt>
      <trkpt lat="42.85392" lon="-0.46018">
        <ele>1553.9</ele>
        <time>2012-08-17T08:47:19Z</time>
      </trkpt>
      <trkpt lat="42.85392" lon="-0.46029">
        <ele>1555.8</ele>
        <time>2012-08-17T08:47:27Z</time>
      </trkpt>
      <trkpt lat="42.85389" lon="-0.46039">
        <ele>1557.9</ele>
        <time>2012-08-17T08:47:36Z</time>
      </trkpt>
      <trkpt lat="42.85386" lon="-0.4605">
        <ele>1559.4</ele>
        <time>2012-08-17T08:47:45Z</time>
      </trkpt>
      <trkpt lat="42.85386" lon="-0.46051">
        <ele>1559.7</ele>
        <time>2012-08-17T08:47:46Z</time>
      </trkpt>
      <trkpt lat="42.8539" lon="-0.46071">
        <ele>1562.6</ele>
        <time>2012-08-17T08:48:00Z</time>
      </trkpt>
      <trkpt lat="42.85391" lon="-0.46083">
        <ele>1563.4</ele>
        <time>2012-08-17T08:48:07Z</time>
      </trkpt>
      <trkpt lat="42.85391" lon="-0.46094">
        <ele>1565</ele>
        <time>2012-08-17T08:48:14Z</time>
      </trkpt>
      <trkpt lat="42.85389" lon="-0.46105">
        <ele>1565.6</ele>
        <time>2012-08-17T08:48:23Z</time>
      </trkpt>
      <trkpt lat="42.85387" lon="-0.46117">
        <ele>1568</ele>
        <time>2012-08-17T08:48:33Z</time>
      </trkpt>
      <trkpt lat="42.85386" lon="-0.46128">
        <ele>1569.6</ele>
        <time>2012-08-17T08:48:41Z</time>
      </trkpt>
      <trkpt lat="42.85388" lon="-0.4614">
        <ele>1570.8</ele>
        <time>2012-08-17T08:48:48Z</time>
      </trkpt>
      <trkpt lat="42.85388" lon="-0.46142">
        <ele>1570.9</ele>
        <time>2012-08-17T08:48:49Z</time>
      </trkpt>
      <trkpt lat="42.85389" lon="-0.46163">
        <ele>1571.6</ele>
        <time>2012-08-17T08:49:02Z</time>
      </trkpt>
      <trkpt lat="42.8539" lon="-0.46174">
        <ele>1572.5</ele>
        <time>2012-08-17T08:49:11Z</time>
      </trkpt>
      <trkpt lat="42.85387" lon="-0.46184">
        <ele>1573.9</ele>
        <time>2012-08-17T08:49:21Z</time>
      </trkpt>
      <trkpt lat="42.85391" lon="-0.46194">
        <ele>1576.1</ele>
        <time>2012-08-17T08:49:31Z</time>
      </trkpt>
      <trkpt lat="42.8539" lon="-0.46205">
        <ele>1577.3</ele>
        <time>2012-08-17T08:49:39Z</time>
      </trkpt>
      <trkpt lat="42.85387" lon="-0.46216">
        <ele>1579.3</ele>
        <time>2012-08-17T08:49:46Z</time>
      </trkpt>
      <trkpt lat="42.85385" lon="-0.46227">
        <ele>1580.6</ele>
        <time>2012-08-17T08:49:56Z</time>
      </trkpt>
      <trkpt lat="42.85384" lon="-0.46229">
        <ele>1580.7</ele>
        <time>2012-08-17T08:49:57Z</time>
      </trkpt>
      <trkpt lat="42.85381" lon="-0.46249">
        <ele>1583.9</ele>
        <time>2012-08-17T08:50:13Z</time>
      </trkpt>
      <trkpt lat="42.85375" lon="-0.46259">
        <ele>1584.6</ele>
        <time>2012-08-17T08:50:22Z</time>
      </trkpt>
      <trkpt lat="42.85369" lon="-0.46267">
        <ele>1585.7</ele>
        <time>2012-08-17T08:50:33Z</time>
      </trkpt>
      <trkpt lat="42.85367" lon="-0.46279">
        <ele>1587.9</ele>
        <time>2012-08-17T08:50:45Z</time>
      </trkpt>
      <trkpt lat="42.85364" lon="-0.46289">
        <ele>1589.6</ele>
        <time>2012-08-17T08:50:54Z</time>
      </trkpt>
      <trkpt lat="42.85364" lon="-0.46301">
        <ele>1591</ele>
        <time>2012-08-17T08:51:02Z</time>
      </trkpt>
      <trkpt lat="42.85364" lon="-0.46303">
        <ele>1591.4</ele>
        <time>2012-08-17T08:51:03Z</time>
      </trkpt>
      <trkpt lat="42.85361" lon="-0.46324">
        <ele>1594.1</ele>
        <time>2012-08-17T08:51:22Z</time>
      </trkpt>
      <trkpt lat="42.85359" lon="-0.46335">
        <ele>1594.8</ele>
        <time>2012-08-17T08:51:31Z</time>
      </trkpt>
      <trkpt lat="42.8536" lon="-0.46347">
        <ele>1597</ele>
        <time>2012-08-17T08:51:41Z</time>
      </trkpt>
      <trkpt lat="42.85362" lon="-0.46358">
        <ele>1599.2</ele>
        <time>2012-08-17T08:51:50Z</time>
      </trkpt>
      <trkpt lat="42.85361" lon="-0.46369">
        <ele>1601.3</ele>
        <time>2012-08-17T08:52:00Z</time>
      </trkpt>
      <trkpt lat="42.85359" lon="-0.4638">
        <ele>1601.8</ele>
        <time>2012-08-17T08:52:11Z</time>
      </trkpt>
      <trkpt lat="42.85359" lon="-0.46381">
        <ele>1601.8</ele>
        <time>2012-08-17T08:52:12Z</time>
      </trkpt>
      <trkpt lat="42.85346" lon="-0.46394">
        <ele>1602.9</ele>
        <time>2012-08-17T08:52:30Z</time>
      </trkpt>
      <trkpt lat="42.85341" lon="-0.46404">
        <ele>1602.4</ele>
        <time>2012-08-17T08:52:46Z</time>
      </trkpt>
      <trkpt lat="42.85347" lon="-0.46411">
        <ele>1602.6</ele>
        <time>2012-08-17T08:52:56Z</time>
      </trkpt>
      <trkpt lat="42.85349" lon="-0.46422">
        <ele>1605.7</ele>
        <time>2012-08-17T08:53:06Z</time>
      </trkpt>
      <trkpt lat="42.85351" lon="-0.46433">
        <ele>1606.9</ele>
        <time>2012-08-17T08:53:18Z</time>
      </trkpt>
      <trkpt lat="42.85351" lon="-0.46435">
        <ele>1606.9</ele>
        <time>2012-08-17T08:53:19Z</time>
      </trkpt>
      <trkpt lat="42.85347" lon="-0.46456">
        <ele>1610</ele>
        <time>2012-08-17T08:53:36Z</time>
      </trkpt>
      <trkpt lat="42.85343" lon="-0.46467">
        <ele>1612</ele>
        <time>2012-08-17T08:53:47Z</time>
      </trkpt>
      <trkpt lat="42.85341" lon="-0.46478">
        <ele>1613.5</ele>
        <time>2012-08-17T08:53:59Z</time>
      </trkpt>
      <trkpt lat="42.85341" lon="-0.4649">
        <ele>1613.4</ele>
        <time>2012-08-17T08:54:08Z</time>
      </trkpt>
      <trkpt lat="42.85338" lon="-0.46501">
        <ele>1614.3</ele>
        <time>2012-08-17T08:54:16Z</time>
      </trkpt>
      <trkpt lat="42.85336" lon="-0.46513">
        <ele>1615.9</ele>
        <time>2012-08-17T08:54:26Z</time>
      </trkpt>
      <trkpt lat="42.85335" lon="-0.46514">
        <ele>1616</ele>
        <time>2012-08-17T08:54:27Z</time>
      </trkpt>
      <trkpt lat="42.85332" lon="-0.46536">
        <ele>1618.4</ele>
        <time>2012-08-17T08:54:45Z</time>
      </trkpt>
      <trkpt lat="42.85328" lon="-0.46547">
        <ele>1620.8</ele>
        <time>2012-08-17T08:54:58Z</time>
      </trkpt>
      <trkpt lat="42.8533" lon="-0.46558">
        <ele>1623.7</ele>
        <time>2012-08-17T08:55:09Z</time>
      </trkpt>
      <trkpt lat="42.85329" lon="-0.4657">
        <ele>1623.5</ele>
        <time>2012-08-17T08:55:17Z</time>
      </trkpt>
      <trkpt lat="42.85329" lon="-0.46581">
        <ele>1625.2</ele>
        <time>2012-08-17T08:55:27Z</time>
      </trkpt>
      <trkpt lat="42.85329" lon="-0.46593">
        <ele>1626.8</ele>
        <time>2012-08-17T08:55:39Z</time>
      </trkpt>
      <trkpt lat="42.85328" lon="-0.46594">
        <ele>1627.4</ele>
        <time>2012-08-17T08:55:40Z</time>
      </trkpt>
      <trkpt lat="42.85326" lon="-0.46616">
        <ele>1630.4</ele>
        <time>2012-08-17T08:56:01Z</time>
      </trkpt>
      <trkpt lat="42.85324" lon="-0.46627">
        <ele>1631.5</ele>
        <time>2012-08-17T08:56:11Z</time>
      </trkpt>
      <trkpt lat="42.85323" lon="-0.46638">
        <ele>1632.5</ele>
        <time>2012-08-17T08:56:20Z</time>
      </trkpt>
      <trkpt lat="42.8532" lon="-0.46649">
        <ele>1634.8</ele>
        <time>2012-08-17T08:56:33Z</time>
      </trkpt>
      <trkpt lat="42.8532" lon="-0.46661">
        <ele>1635.8</ele>
        <time>2012-08-17T08:56:48Z</time>
      </trkpt>
      <trkpt lat="42.8532" lon="-0.46662">
        <ele>1635.8</ele>
        <time>2012-08-17T08:56:49Z</time>
      </trkpt>
      <trkpt lat="42.85331" lon="-0.46679">
        <ele>1645.7</ele>
        <time>2012-08-17T08:57:38Z</time>
      </trkpt>
      <trkpt lat="42.85335" lon="-0.4669">
        <ele>1647.4</ele>
        <time>2012-08-17T08:57:53Z</time>
      </trkpt>
      <trkpt lat="42.85335" lon="-0.4669">
        <ele>1647.6</ele>
        <time>2012-08-17T08:57:54Z</time>
      </trkpt>
      <trkpt lat="42.85347" lon="-0.46705">
        <ele>1651.6</ele>
        <time>2012-08-17T08:58:19Z</time>
      </trkpt>
      <trkpt lat="42.85351" lon="-0.46715">
        <ele>1654.2</ele>
        <time>2012-08-17T08:58:34Z</time>
      </trkpt>
      <trkpt lat="42.85358" lon="-0.46722">
        <ele>1657.8</ele>
        <time>2012-08-17T08:58:54Z</time>
      </trkpt>
      <trkpt lat="42.85366" lon="-0.46727">
        <ele>1661.5</ele>
        <time>2012-08-17T08:59:17Z</time>
      </trkpt>
      <trkpt lat="42.85367" lon="-0.46728">
        <ele>1661.7</ele>
        <time>2012-08-17T08:59:18Z</time>
      </trkpt>
      <trkpt lat="42.85383" lon="-0.46732">
        <ele>1665.2</ele>
        <time>2012-08-17T08:59:43Z</time>
      </trkpt>
      <trkpt lat="42.8539" lon="-0.46738">
        <ele>1667.7</ele>
        <time>2012-08-17T08:59:55Z</time>
      </trkpt>
      <trkpt lat="42.85395" lon="-0.46749">
        <ele>1668.8</ele>
        <time>2012-08-17T09:00:03Z</time>
      </trkpt>
      <trkpt lat="42.85399" lon="-0.4676">
        <ele>1671.4</ele>
        <time>2012-08-17T09:00:14Z</time>
      </trkpt>
      <trkpt lat="42.854" lon="-0.46771">
        <ele>1673.1</ele>
        <time>2012-08-17T09:00:24Z</time>
      </trkpt>
      <trkpt lat="42.854" lon="-0.46772">
        <ele>1673.1</ele>
        <time>2012-08-17T09:00:25Z</time>
      </trkpt>
      <trkpt lat="42.85407" lon="-0.46792">
        <ele>1675.2</ele>
        <time>2012-08-17T09:00:35Z</time>
      </trkpt>
      <trkpt lat="42.85412" lon="-0.468">
        <ele>1675.7</ele>
        <time>2012-08-17T09:00:42Z</time>
      </trkpt>
      <trkpt lat="42.85417" lon="-0.46809">
        <ele>1677.6</ele>
        <time>2012-08-17T09:00:51Z</time>
      </trkpt>
      <trkpt lat="42.8542" lon="-0.46819">
        <ele>1679</ele>
        <time>2012-08-17T09:04:26Z</time>
      </trkpt>
      <trkpt lat="42.85421" lon="-0.4682">
        <ele>1679</ele>
        <time>2012-08-17T09:04:27Z</time>
      </trkpt>
      <trkpt lat="42.8542" lon="-0.46841">
        <ele>1677.3</ele>
        <time>2012-08-17T09:04:41Z</time>
      </trkpt>
      <trkpt lat="42.85421" lon="-0.46852">
        <ele>1677.4</ele>
        <time>2012-08-17T09:04:49Z</time>
      </trkpt>
      <trkpt lat="42.85423" lon="-0.46863">
        <ele>1677.5</ele>
        <time>2012-08-17T09:04:56Z</time>
      </trkpt>
      <trkpt lat="42.85425" lon="-0.46874">
        <ele>1678.1</ele>
        <time>2012-08-17T09:05:03Z</time>
      </trkpt>
      <trkpt lat="42.85428" lon="-0.46884">
        <ele>1679.4</ele>
        <time>2012-08-17T09:05:10Z</time>
      </trkpt>
      <trkpt lat="42.85429" lon="-0.46895">
        <ele>1679.2</ele>
        <time>2012-08-17T09:05:16Z</time>
      </trkpt>
      <trkpt lat="42.85431" lon="-0.46907">
        <ele>1679.1</ele>
        <time>2012-08-17T09:05:23Z</time>
      </trkpt>
      <trkpt lat="42.8543" lon="-0.46918">
        <ele>1679.7</ele>
        <time>2012-08-17T09:05:31Z</time>
      </trkpt>
      <trkpt lat="42.85429" lon="-0.4692">
        <ele>1679.7</ele>
        <time>2012-08-17T09:05:32Z</time>
      </trkpt>
      <trkpt lat="42.85427" lon="-0.46942">
        <ele>1685.8</ele>
        <time>2012-08-17T09:06:02Z</time>
      </trkpt>
      <trkpt lat="42.85426" lon="-0.46954">
        <ele>1688</ele>
        <time>2012-08-17T09:06:15Z</time>
      </trkpt>
      <trkpt lat="42.85419" lon="-0.4696">
        <ele>1689.3</ele>
        <time>2012-08-17T09:06:26Z</time>
      </trkpt>
      <trkpt lat="42.85417" lon="-0.46972">
        <ele>1691.9</ele>
        <time>2012-08-17T09:06:38Z</time>
      </trkpt>
      <trkpt lat="42.85417" lon="-0.46973">
        <ele>1692</ele>
        <time>2012-08-17T09:06:39Z</time>
      </trkpt>
      <trkpt lat="42.85423" lon="-0.46993">
        <ele>1694.8</ele>
        <time>2012-08-17T09:06:56Z</time>
      </trkpt>
      <trkpt lat="42.85427" lon="-0.47003">
        <ele>1695.5</ele>
        <time>2012-08-17T09:07:07Z</time>
      </trkpt>
      <trkpt lat="42.85424" lon="-0.47014">
        <ele>1697.2</ele>
        <time>2012-08-17T09:07:18Z</time>
      </trkpt>
      <trkpt lat="42.85416" lon="-0.47018">
        <ele>1698.5</ele>
        <time>2012-08-17T09:07:27Z</time>
      </trkpt>
      <trkpt lat="42.85411" lon="-0.47028">
        <ele>1699.6</ele>
        <time>2012-08-17T09:07:36Z</time>
      </trkpt>
      <trkpt lat="42.85408" lon="-0.4704">
        <ele>1701.7</ele>
        <time>2012-08-17T09:07:48Z</time>
      </trkpt>
      <trkpt lat="42.85408" lon="-0.47041">
        <ele>1701.6</ele>
        <time>2012-08-17T09:07:49Z</time>
      </trkpt>
      <trkpt lat="42.85399" lon="-0.4706">
        <ele>1704</ele>
        <time>2012-08-17T09:08:12Z</time>
      </trkpt>
      <trkpt lat="42.85392" lon="-0.47067">
        <ele>1706.4</ele>
        <time>2012-08-17T09:08:26Z</time>
      </trkpt>
      <trkpt lat="42.85387" lon="-0.47077">
        <ele>1709.3</ele>
        <time>2012-08-17T09:08:38Z</time>
      </trkpt>
      <trkpt lat="42.85381" lon="-0.47085">
        <ele>1709.8</ele>
        <time>2012-08-17T09:08:51Z</time>
      </trkpt>
      <trkpt lat="42.8538" lon="-0.47085">
        <ele>1709.9</ele>
        <time>2012-08-17T09:08:52Z</time>
      </trkpt>
      <trkpt lat="42.8537" lon="-0.47101">
        <ele>1709.5</ele>
        <time>2012-08-17T09:09:08Z</time>
      </trkpt>
      <trkpt lat="42.85364" lon="-0.47108">
        <ele>1709.8</ele>
        <time>2012-08-17T09:09:14Z</time>
      </trkpt>
      <trkpt lat="42.85358" lon="-0.47116">
        <ele>1709.8</ele>
        <time>2012-08-17T09:09:20Z</time>
      </trkpt>
      <trkpt lat="42.85352" lon="-0.47123">
        <ele>1710.5</ele>
        <time>2012-08-17T09:09:27Z</time>
      </trkpt>
      <trkpt lat="42.85347" lon="-0.47132">
        <ele>1710.6</ele>
        <time>2012-08-17T09:09:34Z</time>
      </trkpt>
      <trkpt lat="42.85342" lon="-0.47141">
        <ele>1712</ele>
        <time>2012-08-17T09:09:42Z</time>
      </trkpt>
      <trkpt lat="42.85336" lon="-0.47149">
        <ele>1712.6</ele>
        <time>2012-08-17T09:09:48Z</time>
      </trkpt>
      <trkpt lat="42.85328" lon="-0.47154">
        <ele>1713.9</ele>
        <time>2012-08-17T09:10:04Z</time>
      </trkpt>
      <trkpt lat="42.85328" lon="-0.47154">
        <ele>1714</ele>
        <time>2012-08-17T09:10:05Z</time>
      </trkpt>
      <trkpt lat="42.85321" lon="-0.47175">
        <ele>1716.8</ele>
        <time>2012-08-17T09:10:30Z</time>
      </trkpt>
      <trkpt lat="42.8532" lon="-0.47187">
        <ele>1717.3</ele>
        <time>2012-08-17T09:10:43Z</time>
      </trkpt>
      <trkpt lat="42.85318" lon="-0.47199">
        <ele>1719.8</ele>
        <time>2012-08-17T09:10:56Z</time>
      </trkpt>
      <trkpt lat="42.85313" lon="-0.47208">
        <ele>1721.5</ele>
        <time>2012-08-17T09:11:08Z</time>
      </trkpt>
      <trkpt lat="42.85313" lon="-0.4721">
        <ele>1721.6</ele>
        <time>2012-08-17T09:11:09Z</time>
      </trkpt>
      <trkpt lat="42.85309" lon="-0.47231">
        <ele>1722.7</ele>
        <time>2012-08-17T09:11:41Z</time>
      </trkpt>
      <trkpt lat="42.85302" lon="-0.47239">
        <ele>1726</ele>
        <time>2012-08-17T09:11:59Z</time>
      </trkpt>
      <trkpt lat="42.85298" lon="-0.47249">
        <ele>1726.6</ele>
        <time>2012-08-17T09:12:10Z</time>
      </trkpt>
      <trkpt lat="42.85298" lon="-0.4725">
        <ele>1726.5</ele>
        <time>2012-08-17T09:12:11Z</time>
      </trkpt>
      <trkpt lat="42.85286" lon="-0.47265">
        <ele>1729.8</ele>
        <time>2012-08-17T09:12:35Z</time>
      </trkpt>
      <trkpt lat="42.8528" lon="-0.47273">
        <ele>1731</ele>
        <time>2012-08-17T09:12:50Z</time>
      </trkpt>
      <trkpt lat="42.85273" lon="-0.4728">
        <ele>1731.5</ele>
        <time>2012-08-17T09:13:01Z</time>
      </trkpt>
      <trkpt lat="42.85267" lon="-0.47288">
        <ele>1733.8</ele>
        <time>2012-08-17T09:13:11Z</time>
      </trkpt>
      <trkpt lat="42.85266" lon="-0.47288">
        <ele>1733.7</ele>
        <time>2012-08-17T09:13:12Z</time>
      </trkpt>
      <trkpt lat="42.85252" lon="-0.47302">
        <ele>1736.5</ele>
        <time>2012-08-17T09:13:33Z</time>
      </trkpt>
      <trkpt lat="42.85245" lon="-0.47308">
        <ele>1738.3</ele>
        <time>2012-08-17T09:13:44Z</time>
      </trkpt>
      <trkpt lat="42.85237" lon="-0.47312">
        <ele>1739.4</ele>
        <time>2012-08-17T09:13:54Z</time>
      </trkpt>
      <trkpt lat="42.85228" lon="-0.47313">
        <ele>1740.1</ele>
        <time>2012-08-17T09:14:03Z</time>
      </trkpt>
      <trkpt lat="42.8522" lon="-0.47316">
        <ele>1741.7</ele>
        <time>2012-08-17T09:14:13Z</time>
      </trkpt>
      <trkpt lat="42.85219" lon="-0.47316">
        <ele>1742.1</ele>
        <time>2012-08-17T09:14:14Z</time>
      </trkpt>
      <trkpt lat="42.85203" lon="-0.47315">
        <ele>1745.6</ele>
        <time>2012-08-17T09:14:43Z</time>
      </trkpt>
      <trkpt lat="42.85195" lon="-0.4731">
        <ele>1746</ele>
        <time>2012-08-17T09:14:55Z</time>
      </trkpt>
      <trkpt lat="42.85187" lon="-0.47306">
        <ele>1747.9</ele>
        <time>2012-08-17T09:15:06Z</time>
      </trkpt>
      <trkpt lat="42.85178" lon="-0.47304">
        <ele>1749.3</ele>
        <time>2012-08-17T09:15:15Z</time>
      </trkpt>
      <trkpt lat="42.85177" lon="-0.47304">
        <ele>1749.5</ele>
        <time>2012-08-17T09:15:16Z</time>
      </trkpt>
      <trkpt lat="42.85161" lon="-0.47303">
        <ele>1751.6</ele>
        <time>2012-08-17T09:15:30Z</time>
      </trkpt>
      <trkpt lat="42.85153" lon="-0.47306">
        <ele>1753.3</ele>
        <time>2012-08-17T09:15:37Z</time>
      </trkpt>
      <trkpt lat="42.85145" lon="-0.47308">
        <ele>1754.6</ele>
        <time>2012-08-17T09:16:06Z</time>
      </trkpt>
      <trkpt lat="42.85136" lon="-0.4731">
        <ele>1755.3</ele>
        <time>2012-08-17T09:16:14Z</time>
      </trkpt>
      <trkpt lat="42.85128" lon="-0.47315">
        <ele>1756.3</ele>
        <time>2012-08-17T09:16:23Z</time>
      </trkpt>
      <trkpt lat="42.85127" lon="-0.47316">
        <ele>1756.3</ele>
        <time>2012-08-17T09:16:24Z</time>
      </trkpt>
      <trkpt lat="42.85112" lon="-0.47325">
        <ele>1758.7</ele>
        <time>2012-08-17T09:16:42Z</time>
      </trkpt>
      <trkpt lat="42.85104" lon="-0.47328">
        <ele>1759.8</ele>
        <time>2012-08-17T09:16:52Z</time>
      </trkpt>
      <trkpt lat="42.85096" lon="-0.47331">
        <ele>1762.6</ele>
        <time>2012-08-17T09:17:05Z</time>
      </trkpt>
      <trkpt lat="42.85087" lon="-0.47336">
        <ele>1764.2</ele>
        <time>2012-08-17T09:17:16Z</time>
      </trkpt>
      <trkpt lat="42.85081" lon="-0.47343">
        <ele>1766.1</ele>
        <time>2012-08-17T09:17:27Z</time>
      </trkpt>
      <trkpt lat="42.8508" lon="-0.47344">
        <ele>1766.4</ele>
        <time>2012-08-17T09:17:28Z</time>
      </trkpt>
      <trkpt lat="42.8507" lon="-0.47363">
        <ele>1770.3</ele>
        <time>2012-08-17T09:17:58Z</time>
      </trkpt>
      <trkpt lat="42.85065" lon="-0.47372">
        <ele>1772.5</ele>
        <time>2012-08-17T09:18:08Z</time>
      </trkpt>
      <trkpt lat="42.85059" lon="-0.4738">
        <ele>1772.6</ele>
        <time>2012-08-17T09:18:17Z</time>
      </trkpt>
      <trkpt lat="42.85054" lon="-0.4739">
        <ele>1774.1</ele>
        <time>2012-08-17T09:18:29Z</time>
      </trkpt>
      <trkpt lat="42.85054" lon="-0.47391">
        <ele>1774.1</ele>
        <time>2012-08-17T09:18:30Z</time>
      </trkpt>
      <trkpt lat="42.85044" lon="-0.47408">
        <ele>1777</ele>
        <time>2012-08-17T09:18:52Z</time>
      </trkpt>
      <trkpt lat="42.8504" lon="-0.47419">
        <ele>1779.2</ele>
        <time>2012-08-17T09:19:03Z</time>
      </trkpt>
      <trkpt lat="42.85037" lon="-0.4743">
        <ele>1780.6</ele>
        <time>2012-08-17T09:19:48Z</time>
      </trkpt>
      <trkpt lat="42.85036" lon="-0.47431">
        <ele>1780.4</ele>
        <time>2012-08-17T09:19:49Z</time>
      </trkpt>
      <trkpt lat="42.85031" lon="-0.47451">
        <ele>1781.9</ele>
        <time>2012-08-17T09:20:09Z</time>
      </trkpt>
      <trkpt lat="42.85027" lon="-0.47462">
        <ele>1783.4</ele>
        <time>2012-08-17T09:20:19Z</time>
      </trkpt>
      <trkpt lat="42.85025" lon="-0.47473">
        <ele>1785.5</ele>
        <time>2012-08-17T09:20:28Z</time>
      </trkpt>
      <trkpt lat="42.85024" lon="-0.47484">
        <ele>1786.4</ele>
        <time>2012-08-17T09:20:39Z</time>
      </trkpt>
      <trkpt lat="42.85029" lon="-0.47493">
        <ele>1789.8</ele>
        <time>2012-08-17T09:21:00Z</time>
      </trkpt>
      <trkpt lat="42.8503" lon="-0.47494">
        <ele>1789.4</ele>
        <time>2012-08-17T09:21:01Z</time>
      </trkpt>
      <trkpt lat="42.85033" lon="-0.47517">
        <ele>1791.4</ele>
        <time>2012-08-17T09:21:21Z</time>
      </trkpt>
      <trkpt lat="42.85032" lon="-0.47529">
        <ele>1793.6</ele>
        <time>2012-08-17T09:21:32Z</time>
      </trkpt>
      <trkpt lat="42.85028" lon="-0.4754">
        <ele>1795.1</ele>
        <time>2012-08-17T09:21:42Z</time>
      </trkpt>
      <trkpt lat="42.8502" lon="-0.47545">
        <ele>1795.7</ele>
        <time>2012-08-17T09:22:01Z</time>
      </trkpt>
      <trkpt lat="42.85011" lon="-0.47544">
        <ele>1798.9</ele>
        <time>2012-08-17T09:22:14Z</time>
      </trkpt>
      <trkpt lat="42.85011" lon="-0.47544">
        <ele>1799</ele>
        <time>2012-08-17T09:22:15Z</time>
      </trkpt>
      <trkpt lat="42.84996" lon="-0.47553">
        <ele>1802</ele>
        <time>2012-08-17T09:22:36Z</time>
      </trkpt>
      <trkpt lat="42.8499" lon="-0.47561">
        <ele>1803</ele>
        <time>2012-08-17T09:22:46Z</time>
      </trkpt>
      <trkpt lat="42.84983" lon="-0.47568">
        <ele>1804.8</ele>
        <time>2012-08-17T09:22:57Z</time>
      </trkpt>
      <trkpt lat="42.84976" lon="-0.47575">
        <ele>1806.4</ele>
        <time>2012-08-17T09:23:07Z</time>
      </trkpt>
      <trkpt lat="42.84968" lon="-0.47581">
        <ele>1806.9</ele>
        <time>2012-08-17T09:23:16Z</time>
      </trkpt>
      <trkpt lat="42.84967" lon="-0.47582">
        <ele>1806.9</ele>
        <time>2012-08-17T09:23:17Z</time>
      </trkpt>
      <trkpt lat="42.84955" lon="-0.47595">
        <ele>1808.9</ele>
        <time>2012-08-17T09:23:35Z</time>
      </trkpt>
      <trkpt lat="42.8495" lon="-0.47604">
        <ele>1811.1</ele>
        <time>2012-08-17T09:23:47Z</time>
      </trkpt>
      <trkpt lat="42.84945" lon="-0.47612">
        <ele>1813.8</ele>
        <time>2012-08-17T09:23:56Z</time>
      </trkpt>
      <trkpt lat="42.84937" lon="-0.47618">
        <ele>1815.4</ele>
        <time>2012-08-17T09:24:06Z</time>
      </trkpt>
      <trkpt lat="42.84931" lon="-0.47626">
        <ele>1816</ele>
        <time>2012-08-17T09:24:14Z</time>
      </trkpt>
      <trkpt lat="42.84925" lon="-0.47635">
        <ele>1817.9</ele>
        <time>2012-08-17T09:24:23Z</time>
      </trkpt>
      <trkpt lat="42.84925" lon="-0.47635">
        <ele>1818</ele>
        <time>2012-08-17T09:24:24Z</time>
      </trkpt>
      <trkpt lat="42.84913" lon="-0.4765">
        <ele>1821.7</ele>
        <time>2012-08-17T09:24:42Z</time>
      </trkpt>
      <trkpt lat="42.84907" lon="-0.4766">
        <ele>1823.3</ele>
        <time>2012-08-17T09:24:54Z</time>
      </trkpt>
      <trkpt lat="42.84903" lon="-0.4767">
        <ele>1826.5</ele>
        <time>2012-08-17T09:25:08Z</time>
      </trkpt>
      <trkpt lat="42.84898" lon="-0.4768">
        <ele>1828.7</ele>
        <time>2012-08-17T09:25:22Z</time>
      </trkpt>
      <trkpt lat="42.84896" lon="-0.47692">
        <ele>1830.2</ele>
        <time>2012-08-17T09:25:34Z</time>
      </trkpt>
      <trkpt lat="42.84896" lon="-0.47693">
        <ele>1830.2</ele>
        <time>2012-08-17T09:25:35Z</time>
      </trkpt>
      <trkpt lat="42.84891" lon="-0.47714">
        <ele>1830.4</ele>
        <time>2012-08-17T09:25:50Z</time>
      </trkpt>
      <trkpt lat="42.84891" lon="-0.47726">
        <ele>1832.5</ele>
        <time>2012-08-17T09:26:04Z</time>
      </trkpt>
      <trkpt lat="42.84892" lon="-0.47738">
        <ele>1832.5</ele>
        <time>2012-08-17T09:26:14Z</time>
      </trkpt>
      <trkpt lat="42.84895" lon="-0.47749">
        <ele>1833.7</ele>
        <time>2012-08-17T09:26:26Z</time>
      </trkpt>
      <trkpt lat="42.849" lon="-0.47759">
        <ele>1834.7</ele>
        <time>2012-08-17T09:27:08Z</time>
      </trkpt>
      <trkpt lat="42.84901" lon="-0.4776">
        <ele>1834.8</ele>
        <time>2012-08-17T09:27:09Z</time>
      </trkpt>
      <trkpt lat="42.84909" lon="-0.47778">
        <ele>1836.1</ele>
        <time>2012-08-17T09:27:25Z</time>
      </trkpt>
      <trkpt lat="42.84913" lon="-0.47789">
        <ele>1837.7</ele>
        <time>2012-08-17T09:28:26Z</time>
      </trkpt>
      <trkpt lat="42.84914" lon="-0.47789">
        <ele>1837.6</ele>
        <time>2012-08-17T09:28:27Z</time>
      </trkpt>
      <trkpt lat="42.84926" lon="-0.47803">
        <ele>1837.1</ele>
        <time>2012-08-17T09:28:58Z</time>
      </trkpt>
      <trkpt lat="42.84931" lon="-0.47811">
        <ele>1836.7</ele>
        <time>2012-08-17T09:29:04Z</time>
      </trkpt>
      <trkpt lat="42.84936" lon="-0.4782">
        <ele>1837.3</ele>
        <time>2012-08-17T09:29:11Z</time>
      </trkpt>
      <trkpt lat="42.8494" lon="-0.4783">
        <ele>1837.8</ele>
        <time>2012-08-17T09:29:18Z</time>
      </trkpt>
      <trkpt lat="42.84945" lon="-0.47839">
        <ele>1837.9</ele>
        <time>2012-08-17T09:29:26Z</time>
      </trkpt>
      <trkpt lat="42.84951" lon="-0.47848">
        <ele>1837.9</ele>
        <time>2012-08-17T09:29:33Z</time>
      </trkpt>
      <trkpt lat="42.84952" lon="-0.4785">
        <ele>1838</ele>
        <time>2012-08-17T09:29:34Z</time>
      </trkpt>
      <trkpt lat="42.84961" lon="-0.47865">
        <ele>1838.1</ele>
        <time>2012-08-17T09:29:46Z</time>
      </trkpt>
      <trkpt lat="42.84968" lon="-0.47873">
        <ele>1839.2</ele>
        <time>2012-08-17T09:29:54Z</time>
      </trkpt>
      <trkpt lat="42.84974" lon="-0.47882">
        <ele>1839.2</ele>
        <time>2012-08-17T09:30:01Z</time>
      </trkpt>
      <trkpt lat="42.8498" lon="-0.47891">
        <ele>1840.1</ele>
        <time>2012-08-17T09:30:09Z</time>
      </trkpt>
      <trkpt lat="42.84987" lon="-0.47896">
        <ele>1840.4</ele>
        <time>2012-08-17T09:30:17Z</time>
      </trkpt>
      <trkpt lat="42.84994" lon="-0.479">
        <ele>1840.9</ele>
        <time>2012-08-17T09:30:25Z</time>
      </trkpt>
      <trkpt lat="42.85001" lon="-0.47907">
        <ele>1840.2</ele>
        <time>2012-08-17T09:30:33Z</time>
      </trkpt>
      <trkpt lat="42.85005" lon="-0.47917">
        <ele>1840.1</ele>
        <time>2012-08-17T09:30:41Z</time>
      </trkpt>
      <trkpt lat="42.85005" lon="-0.47918">
        <ele>1840.1</ele>
        <time>2012-08-17T09:30:42Z</time>
      </trkpt>
      <trkpt lat="42.85011" lon="-0.47938">
        <ele>1842.5</ele>
        <time>2012-08-17T09:30:55Z</time>
      </trkpt>
      <trkpt lat="42.85009" lon="-0.47949">
        <ele>1844.2</ele>
        <time>2012-08-17T09:31:04Z</time>
      </trkpt>
      <trkpt lat="42.85007" lon="-0.4796">
        <ele>1846</ele>
        <time>2012-08-17T09:31:26Z</time>
      </trkpt>
      <trkpt lat="42.85007" lon="-0.47972">
        <ele>1847.9</ele>
        <time>2012-08-17T09:31:37Z</time>
      </trkpt>
      <trkpt lat="42.85" lon="-0.4798">
        <ele>1849.7</ele>
        <time>2012-08-17T09:31:51Z</time>
      </trkpt>
      <trkpt lat="42.85" lon="-0.47981">
        <ele>1849.9</ele>
        <time>2012-08-17T09:31:52Z</time>
      </trkpt>
      <trkpt lat="42.85005" lon="-0.48001">
        <ele>1857.7</ele>
        <time>2012-08-17T09:32:29Z</time>
      </trkpt>
      <trkpt lat="42.85007" lon="-0.48013">
        <ele>1861.1</ele>
        <time>2012-08-17T09:32:45Z</time>
      </trkpt>
      <trkpt lat="42.85006" lon="-0.48024">
        <ele>1864.3</ele>
        <time>2012-08-17T09:33:08Z</time>
      </trkpt>
      <trkpt lat="42.85007" lon="-0.48025">
        <ele>1864.4</ele>
        <time>2012-08-17T09:33:09Z</time>
      </trkpt>
      <trkpt lat="42.85023" lon="-0.48021">
        <ele>1871.6</ele>
        <time>2012-08-17T09:33:53Z</time>
      </trkpt>
      <trkpt lat="42.85024" lon="-0.48033">
        <ele>1876.2</ele>
        <time>2012-08-17T09:34:19Z</time>
      </trkpt>
      <trkpt lat="42.85023" lon="-0.48034">
        <ele>1876.2</ele>
        <time>2012-08-17T09:34:20Z</time>
      </trkpt>
      <trkpt lat="42.85017" lon="-0.4805">
        <ele>1880.1</ele>
        <time>2012-08-17T09:34:49Z</time>
      </trkpt>
      <trkpt lat="42.85014" lon="-0.48061">
        <ele>1882.8</ele>
        <time>2012-08-17T09:35:03Z</time>
      </trkpt>
      <trkpt lat="42.85013" lon="-0.48072">
        <ele>1885.4</ele>
        <time>2012-08-17T09:35:18Z</time>
      </trkpt>
      <trkpt lat="42.85012" lon="-0.48084">
        <ele>1887.9</ele>
        <time>2012-08-17T09:36:02Z</time>
      </trkpt>
      <trkpt lat="42.85012" lon="-0.48085">
        <ele>1888.2</ele>
        <time>2012-08-17T09:36:03Z</time>
      </trkpt>
      <trkpt lat="42.85004" lon="-0.48104">
        <ele>1897.9</ele>
        <time>2012-08-17T09:37:01Z</time>
      </trkpt>
      <trkpt lat="42.84996" lon="-0.48109">
        <ele>1899.9</ele>
        <time>2012-08-17T09:37:15Z</time>
      </trkpt>
      <trkpt lat="42.84996" lon="-0.48111">
        <ele>1900</ele>
        <time>2012-08-17T09:37:16Z</time>
      </trkpt>
      <trkpt lat="42.84998" lon="-0.48132">
        <ele>1904.6</ele>
        <time>2012-08-17T09:37:56Z</time>
      </trkpt>
      <trkpt lat="42.85005" lon="-0.48139">
        <ele>1906.7</ele>
        <time>2012-08-17T09:38:12Z</time>
      </trkpt>
      <trkpt lat="42.8501" lon="-0.48146">
        <ele>1907.7</ele>
        <time>2012-08-17T09:38:23Z</time>
      </trkpt>
      <trkpt lat="42.85012" lon="-0.48147">
        <ele>1907.9</ele>
        <time>2012-08-17T09:38:24Z</time>
      </trkpt>
      <trkpt lat="42.85023" lon="-0.48163">
        <ele>1910.1</ele>
        <time>2012-08-17T09:38:43Z</time>
      </trkpt>
      <trkpt lat="42.85026" lon="-0.48174">
        <ele>1911.7</ele>
        <time>2012-08-17T09:38:55Z</time>
      </trkpt>
      <trkpt lat="42.85029" lon="-0.48185">
        <ele>1913.7</ele>
        <time>2012-08-17T09:39:07Z</time>
      </trkpt>
      <trkpt lat="42.85035" lon="-0.48195">
        <ele>1915</ele>
        <time>2012-08-17T09:39:19Z</time>
      </trkpt>
      <trkpt lat="42.8504" lon="-0.48204">
        <ele>1916.3</ele>
        <time>2012-08-17T09:39:27Z</time>
      </trkpt>
      <trkpt lat="42.8504" lon="-0.48205">
        <ele>1916.4</ele>
        <time>2012-08-17T09:39:28Z</time>
      </trkpt>
      <trkpt lat="42.85049" lon="-0.48223">
        <ele>1916.6</ele>
        <time>2012-08-17T09:39:45Z</time>
      </trkpt>
      <trkpt lat="42.85054" lon="-0.48232">
        <ele>1919.2</ele>
        <time>2012-08-17T09:39:54Z</time>
      </trkpt>
      <trkpt lat="42.85055" lon="-0.48243">
        <ele>1920.7</ele>
        <time>2012-08-17T09:40:05Z</time>
      </trkpt>
      <trkpt lat="42.85053" lon="-0.48254">
        <ele>1920.9</ele>
        <time>2012-08-17T09:40:16Z</time>
      </trkpt>
      <trkpt lat="42.85047" lon="-0.48263">
        <ele>1922.4</ele>
        <time>2012-08-17T09:40:27Z</time>
      </trkpt>
      <trkpt lat="42.85045" lon="-0.48274">
        <ele>1923</ele>
        <time>2012-08-17T09:40:35Z</time>
      </trkpt>
      <trkpt lat="42.85045" lon="-0.48276">
        <ele>1923.1</ele>
        <time>2012-08-17T09:40:36Z</time>
      </trkpt>
      <trkpt lat="42.85041" lon="-0.48296">
        <ele>1924.3</ele>
        <time>2012-08-17T09:40:50Z</time>
      </trkpt>
      <trkpt lat="42.8504" lon="-0.48307">
        <ele>1924.7</ele>
        <time>2012-08-17T09:41:08Z</time>
      </trkpt>
      <trkpt lat="42.8504" lon="-0.48319">
        <ele>1925</ele>
        <time>2012-08-17T09:41:15Z</time>
      </trkpt>
      <trkpt lat="42.85038" lon="-0.4833">
        <ele>1925.2</ele>
        <time>2012-08-17T09:41:24Z</time>
      </trkpt>
      <trkpt lat="42.85034" lon="-0.48341">
        <ele>1926</ele>
        <time>2012-08-17T09:41:39Z</time>
      </trkpt>
      <trkpt lat="42.85033" lon="-0.48342">
        <ele>1925.7</ele>
        <time>2012-08-17T09:41:40Z</time>
      </trkpt>
      <trkpt lat="42.85023" lon="-0.48359">
        <ele>1926.8</ele>
        <time>2012-08-17T09:41:54Z</time>
      </trkpt>
      <trkpt lat="42.85018" lon="-0.48366">
        <ele>1928.1</ele>
        <time>2012-08-17T09:42:02Z</time>
      </trkpt>
      <trkpt lat="42.85017" lon="-0.48378">
        <ele>1929.5</ele>
        <time>2012-08-17T09:42:10Z</time>
      </trkpt>
      <trkpt lat="42.85019" lon="-0.48389">
        <ele>1930.9</ele>
        <time>2012-08-17T09:42:19Z</time>
      </trkpt>
      <trkpt lat="42.85019" lon="-0.48401">
        <ele>1931.1</ele>
        <time>2012-08-17T09:42:27Z</time>
      </trkpt>
      <trkpt lat="42.85018" lon="-0.48412">
        <ele>1933.2</ele>
        <time>2012-08-17T09:42:35Z</time>
      </trkpt>
      <trkpt lat="42.85014" lon="-0.48423">
        <ele>1933.5</ele>
        <time>2012-08-17T09:42:44Z</time>
      </trkpt>
      <trkpt lat="42.85014" lon="-0.48424">
        <ele>1933.6</ele>
        <time>2012-08-17T09:42:45Z</time>
      </trkpt>
      <trkpt lat="42.8501" lon="-0.48445">
        <ele>1935</ele>
        <time>2012-08-17T09:43:01Z</time>
      </trkpt>
      <trkpt lat="42.8501" lon="-0.48456">
        <ele>1936.4</ele>
        <time>2012-08-17T09:43:12Z</time>
      </trkpt>
      <trkpt lat="42.8501" lon="-0.48468">
        <ele>1938</ele>
        <time>2012-08-17T09:43:23Z</time>
      </trkpt>
      <trkpt lat="42.85014" lon="-0.48478">
        <ele>1937.7</ele>
        <time>2012-08-17T09:43:32Z</time>
      </trkpt>
      <trkpt lat="42.85018" lon="-0.48488">
        <ele>1937.6</ele>
        <time>2012-08-17T09:43:39Z</time>
      </trkpt>
      <trkpt lat="42.85022" lon="-0.48497">
        <ele>1937.7</ele>
        <time>2012-08-17T09:43:45Z</time>
      </trkpt>
      <trkpt lat="42.85023" lon="-0.48498">
        <ele>1937.6</ele>
        <time>2012-08-17T09:43:46Z</time>
      </trkpt>
      <trkpt lat="42.85029" lon="-0.48518">
        <ele>1936.3</ele>
        <time>2012-08-17T09:44:02Z</time>
      </trkpt>
      <trkpt lat="42.85036" lon="-0.48525">
        <ele>1935.9</ele>
        <time>2012-08-17T09:44:11Z</time>
      </trkpt>
      <trkpt lat="42.85043" lon="-0.4853">
        <ele>1935.5</ele>
        <time>2012-08-17T09:44:19Z</time>
      </trkpt>
      <trkpt lat="42.85051" lon="-0.48536">
        <ele>1934.1</ele>
        <time>2012-08-17T09:44:28Z</time>
      </trkpt>
      <trkpt lat="42.85054" lon="-0.48547">
        <ele>1931.7</ele>
        <time>2012-08-17T09:44:37Z</time>
      </trkpt>
      <trkpt lat="42.85055" lon="-0.48559">
        <ele>1932</ele>
        <time>2012-08-17T09:44:46Z</time>
      </trkpt>
      <trkpt lat="42.85055" lon="-0.4856">
        <ele>1932</ele>
        <time>2012-08-17T09:44:47Z</time>
      </trkpt>
      <trkpt lat="42.85048" lon="-0.4858">
        <ele>1933.6</ele>
        <time>2012-08-17T09:45:03Z</time>
      </trkpt>
      <trkpt lat="42.85045" lon="-0.48591">
        <ele>1933.8</ele>
        <time>2012-08-17T09:45:12Z</time>
      </trkpt>
      <trkpt lat="42.85042" lon="-0.48602">
        <ele>1936.3</ele>
        <time>2012-08-17T09:45:24Z</time>
      </trkpt>
      <trkpt lat="42.85038" lon="-0.48612">
        <ele>1937</ele>
        <time>2012-08-17T09:45:34Z</time>
      </trkpt>
      <trkpt lat="42.85031" lon="-0.4862">
        <ele>1939.3</ele>
        <time>2012-08-17T09:45:46Z</time>
      </trkpt>
      <trkpt lat="42.85025" lon="-0.48627">
        <ele>1941.7</ele>
        <time>2012-08-17T09:45:58Z</time>
      </trkpt>
      <trkpt lat="42.85024" lon="-0.48627">
        <ele>1942.1</ele>
        <time>2012-08-17T09:45:59Z</time>
      </trkpt>
      <trkpt lat="42.85015" lon="-0.48646">
        <ele>1945.2</ele>
        <time>2012-08-17T09:46:18Z</time>
      </trkpt>
      <trkpt lat="42.85011" lon="-0.48655">
        <ele>1945.4</ele>
        <time>2012-08-17T09:46:29Z</time>
      </trkpt>
      <trkpt lat="42.85005" lon="-0.48665">
        <ele>1945.8</ele>
        <time>2012-08-17T09:46:40Z</time>
      </trkpt>
      <trkpt lat="42.85" lon="-0.48674">
        <ele>1946.4</ele>
        <time>2012-08-17T09:46:52Z</time>
      </trkpt>
      <trkpt lat="42.84997" lon="-0.48686">
        <ele>1947.4</ele>
        <time>2012-08-17T09:47:03Z</time>
      </trkpt>
      <trkpt lat="42.84997" lon="-0.48687">
        <ele>1947.8</ele>
        <time>2012-08-17T09:47:04Z</time>
      </trkpt>
      <trkpt lat="42.84994" lon="-0.48709">
        <ele>1949.4</ele>
        <time>2012-08-17T09:47:24Z</time>
      </trkpt>
      <trkpt lat="42.84994" lon="-0.48721">
        <ele>1950.4</ele>
        <time>2012-08-17T09:47:45Z</time>
      </trkpt>
      <trkpt lat="42.85001" lon="-0.48727">
        <ele>1951</ele>
        <time>2012-08-17T09:48:11Z</time>
      </trkpt>
      <trkpt lat="42.85001" lon="-0.48728">
        <ele>1951.2</ele>
        <time>2012-08-17T09:48:12Z</time>
      </trkpt>
      <trkpt lat="42.85002" lon="-0.48739">
        <ele>1950.7</ele>
        <time>2012-08-17T09:49:39Z</time>
      </trkpt>
      <trkpt lat="42.84999" lon="-0.4876">
        <ele>1950.6</ele>
        <time>2012-08-17T09:49:56Z</time>
      </trkpt>
      <trkpt lat="42.84996" lon="-0.48771">
        <ele>1950</ele>
        <time>2012-08-17T09:50:04Z</time>
      </trkpt>
      <trkpt lat="42.84994" lon="-0.48783">
        <ele>1949</ele>
        <time>2012-08-17T09:50:12Z</time>
      </trkpt>
      <trkpt lat="42.84993" lon="-0.48794">
        <ele>1949.4</ele>
        <time>2012-08-17T09:50:22Z</time>
      </trkpt>
      <trkpt lat="42.84993" lon="-0.48805">
        <ele>1949.8</ele>
        <time>2012-08-17T09:50:29Z</time>
      </trkpt>
      <trkpt lat="42.84989" lon="-0.48815">
        <ele>1950.4</ele>
        <time>2012-08-17T09:50:38Z</time>
      </trkpt>
      <trkpt lat="42.84984" lon="-0.48824">
        <ele>1950.1</ele>
        <time>2012-08-17T09:50:46Z</time>
      </trkpt>
      <trkpt lat="42.84983" lon="-0.48825">
        <ele>1950</ele>
        <time>2012-08-17T09:50:47Z</time>
      </trkpt>
      <trkpt lat="42.84971" lon="-0.4884">
        <ele>1949</ele>
        <time>2012-08-17T09:51:03Z</time>
      </trkpt>
      <trkpt lat="42.84971" lon="-0.48852">
        <ele>1951.1</ele>
        <time>2012-08-17T09:51:47Z</time>
      </trkpt>
      <trkpt lat="42.8497" lon="-0.48853">
        <ele>1950.9</ele>
        <time>2012-08-17T09:51:48Z</time>
      </trkpt>
      <trkpt lat="42.84965" lon="-0.48873">
        <ele>1952.1</ele>
        <time>2012-08-17T09:52:16Z</time>
      </trkpt>
      <trkpt lat="42.8496" lon="-0.48883">
        <ele>1954.1</ele>
        <time>2012-08-17T09:52:28Z</time>
      </trkpt>
      <trkpt lat="42.84959" lon="-0.48894">
        <ele>1953.1</ele>
        <time>2012-08-17T09:52:46Z</time>
      </trkpt>
      <trkpt lat="42.8496" lon="-0.48905">
        <ele>1952.5</ele>
        <time>2012-08-17T09:52:54Z</time>
      </trkpt>
      <trkpt lat="42.84961" lon="-0.48907">
        <ele>1952.7</ele>
        <time>2012-08-17T09:52:55Z</time>
      </trkpt>
      <trkpt lat="42.84944" lon="-0.48913">
        <ele>1946.2</ele>
        <time>2012-08-17T09:53:28Z</time>
      </trkpt>
      <trkpt lat="42.84936" lon="-0.48908">
        <ele>1945.3</ele>
        <time>2012-08-17T09:53:55Z</time>
      </trkpt>
      <trkpt lat="42.84936" lon="-0.48907">
        <ele>1945.3</ele>
        <time>2012-08-17T09:53:56Z</time>
      </trkpt>
      <trkpt lat="42.84948" lon="-0.48925">
        <ele>1946.5</ele>
        <time>2012-08-17T09:54:30Z</time>
      </trkpt>
      <trkpt lat="42.84953" lon="-0.48935">
        <ele>1946.2</ele>
        <time>2012-08-17T09:54:38Z</time>
      </trkpt>
      <trkpt lat="42.84958" lon="-0.48945">
        <ele>1946.8</ele>
        <time>2012-08-17T09:54:46Z</time>
      </trkpt>
      <trkpt lat="42.84966" lon="-0.4895">
        <ele>1948.7</ele>
        <time>2012-08-17T09:54:55Z</time>
      </trkpt>
      <trkpt lat="42.84975" lon="-0.4895">
        <ele>1950.1</ele>
        <time>2012-08-17T09:55:06Z</time>
      </trkpt>
      <trkpt lat="42.84976" lon="-0.48951">
        <ele>1950.8</ele>
        <time>2012-08-17T09:55:07Z</time>
      </trkpt>
      <trkpt lat="42.84977" lon="-0.48973">
        <ele>1952.3</ele>
        <time>2012-08-17T09:55:30Z</time>
      </trkpt>
      <trkpt lat="42.84978" lon="-0.48984">
        <ele>1953</ele>
        <time>2012-08-17T09:55:41Z</time>
      </trkpt>
      <trkpt lat="42.84977" lon="-0.48995">
        <ele>1953.5</ele>
        <time>2012-08-17T09:55:50Z</time>
      </trkpt>
      <trkpt lat="42.84975" lon="-0.49007">
        <ele>1954.5</ele>
        <time>2012-08-17T09:55:58Z</time>
      </trkpt>
      <trkpt lat="42.84975" lon="-0.49018">
        <ele>1955.8</ele>
        <time>2012-08-17T09:56:09Z</time>
      </trkpt>
      <trkpt lat="42.84974" lon="-0.4902">
        <ele>1955.8</ele>
        <time>2012-08-17T09:56:10Z</time>
      </trkpt>
      <trkpt lat="42.84972" lon="-0.49041">
        <ele>1955.1</ele>
        <time>2012-08-17T09:56:30Z</time>
      </trkpt>
      <trkpt lat="42.84963" lon="-0.49044">
        <ele>1955.9</ele>
        <time>2012-08-17T09:56:43Z</time>
      </trkpt>
      <trkpt lat="42.84957" lon="-0.4905">
        <ele>1956.3</ele>
        <time>2012-08-17T09:56:53Z</time>
      </trkpt>
      <trkpt lat="42.84952" lon="-0.4906">
        <ele>1956.3</ele>
        <time>2012-08-17T09:57:02Z</time>
      </trkpt>
      <trkpt lat="42.8495" lon="-0.49072">
        <ele>1955.8</ele>
        <time>2012-08-17T09:57:11Z</time>
      </trkpt>
      <trkpt lat="42.8495" lon="-0.49073">
        <ele>1955.7</ele>
        <time>2012-08-17T09:57:12Z</time>
      </trkpt>
      <trkpt lat="42.84948" lon="-0.49095">
        <ele>1956.4</ele>
        <time>2012-08-17T09:57:34Z</time>
      </trkpt>
      <trkpt lat="42.84943" lon="-0.49104">
        <ele>1956.6</ele>
        <time>2012-08-17T09:57:43Z</time>
      </trkpt>
      <trkpt lat="42.84936" lon="-0.4911">
        <ele>1956.4</ele>
        <time>2012-08-17T09:57:52Z</time>
      </trkpt>
      <trkpt lat="42.84927" lon="-0.49112">
        <ele>1956.9</ele>
        <time>2012-08-17T09:59:23Z</time>
      </trkpt>
      <trkpt lat="42.84927" lon="-0.49112">
        <ele>1956.9</ele>
        <time>2012-08-17T09:59:24Z</time>
      </trkpt>
      <trkpt lat="42.84921" lon="-0.49121">
        <ele>1956.2</ele>
        <time>2012-08-17T10:00:41Z</time>
      </trkpt>
      <trkpt lat="42.84904" lon="-0.4912">
        <ele>1959.7</ele>
        <time>2012-08-17T10:01:31Z</time>
      </trkpt>
      <trkpt lat="42.84896" lon="-0.49117">
        <ele>1960.4</ele>
        <time>2012-08-17T10:01:52Z</time>
      </trkpt>
      <trkpt lat="42.84895" lon="-0.49117">
        <ele>1960.5</ele>
        <time>2012-08-17T10:01:53Z</time>
      </trkpt>
      <trkpt lat="42.84879" lon="-0.49124">
        <ele>1963.1</ele>
        <time>2012-08-17T10:02:31Z</time>
      </trkpt>
      <trkpt lat="42.84871" lon="-0.49121">
        <ele>1964.4</ele>
        <time>2012-08-17T10:02:43Z</time>
      </trkpt>
      <trkpt lat="42.84863" lon="-0.49116">
        <ele>1966.1</ele>
        <time>2012-08-17T10:02:57Z</time>
      </trkpt>
      <trkpt lat="42.84863" lon="-0.49116">
        <ele>1966.2</ele>
        <time>2012-08-17T10:02:58Z</time>
      </trkpt>
      <trkpt lat="42.84847" lon="-0.49113">
        <ele>1967.5</ele>
        <time>2012-08-17T10:03:47Z</time>
      </trkpt>
      <trkpt lat="42.84839" lon="-0.4911">
        <ele>1969.1</ele>
        <time>2012-08-17T10:03:58Z</time>
      </trkpt>
      <trkpt lat="42.84838" lon="-0.49109">
        <ele>1969.3</ele>
        <time>2012-08-17T10:03:59Z</time>
      </trkpt>
      <trkpt lat="42.8483" lon="-0.49109">
        <ele>1970.2</ele>
        <time>2012-08-17T10:05:18Z</time>
      </trkpt>
      <trkpt lat="42.84821" lon="-0.49109">
        <ele>1969.3</ele>
        <time>2012-08-17T10:07:55Z</time>
      </trkpt>
      <trkpt lat="42.84805" lon="-0.49112">
        <ele>1968.7</ele>
        <time>2012-08-17T10:08:23Z</time>
      </trkpt>
      <trkpt lat="42.84797" lon="-0.49114">
        <ele>1964.8</ele>
        <time>2012-08-17T10:08:47Z</time>
      </trkpt>
      <trkpt lat="42.84789" lon="-0.49119">
        <ele>1965.2</ele>
        <time>2012-08-17T10:08:56Z</time>
      </trkpt>
      <trkpt lat="42.84788" lon="-0.4912">
        <ele>1964.9</ele>
        <time>2012-08-17T10:08:57Z</time>
      </trkpt>
      <trkpt lat="42.84776" lon="-0.49134">
        <ele>1961.6</ele>
        <time>2012-08-17T10:09:46Z</time>
      </trkpt>
      <trkpt lat="42.84768" lon="-0.49136">
        <ele>1961.8</ele>
        <time>2012-08-17T10:09:58Z</time>
      </trkpt>
      <trkpt lat="42.84767" lon="-0.49136">
        <ele>1962.1</ele>
        <time>2012-08-17T10:09:59Z</time>
      </trkpt>
      <trkpt lat="42.84754" lon="-0.49149">
        <ele>1963.4</ele>
        <time>2012-08-17T10:10:25Z</time>
      </trkpt>
      <trkpt lat="42.84747" lon="-0.49157">
        <ele>1963.8</ele>
        <time>2012-08-17T10:10:51Z</time>
      </trkpt>
      <trkpt lat="42.84741" lon="-0.49165">
        <ele>1963.9</ele>
        <time>2012-08-17T10:11:01Z</time>
      </trkpt>
      <trkpt lat="42.8474" lon="-0.49166">
        <ele>1964.2</ele>
        <time>2012-08-17T10:11:02Z</time>
      </trkpt>
      <trkpt lat="42.84729" lon="-0.49181">
        <ele>1963.9</ele>
        <time>2012-08-17T10:11:33Z</time>
      </trkpt>
      <trkpt lat="42.84724" lon="-0.49191">
        <ele>1964.7</ele>
        <time>2012-08-17T10:11:43Z</time>
      </trkpt>
      <trkpt lat="42.84722" lon="-0.49202">
        <ele>1965.9</ele>
        <time>2012-08-17T10:11:59Z</time>
      </trkpt>
      <trkpt lat="42.84716" lon="-0.49211">
        <ele>1968.7</ele>
        <time>2012-08-17T10:12:37Z</time>
      </trkpt>
      <trkpt lat="42.84716" lon="-0.49212">
        <ele>1968.7</ele>
        <time>2012-08-17T10:12:38Z</time>
      </trkpt>
      <trkpt lat="42.84709" lon="-0.49232">
        <ele>1969.5</ele>
        <time>2012-08-17T10:13:01Z</time>
      </trkpt>
      <trkpt lat="42.84703" lon="-0.4924">
        <ele>1970.5</ele>
        <time>2012-08-17T10:13:13Z</time>
      </trkpt>
      <trkpt lat="42.84697" lon="-0.49248">
        <ele>1970.6</ele>
        <time>2012-08-17T10:13:26Z</time>
      </trkpt>
      <trkpt lat="42.84691" lon="-0.49256">
        <ele>1972</ele>
        <time>2012-08-17T10:13:38Z</time>
      </trkpt>
      <trkpt lat="42.8469" lon="-0.49256">
        <ele>1971.7</ele>
        <time>2012-08-17T10:13:39Z</time>
      </trkpt>
      <trkpt lat="42.84674" lon="-0.49262">
        <ele>1973.4</ele>
        <time>2012-08-17T10:14:08Z</time>
      </trkpt>
      <trkpt lat="42.84666" lon="-0.49268">
        <ele>1976.3</ele>
        <time>2012-08-17T10:14:47Z</time>
      </trkpt>
      <trkpt lat="42.84665" lon="-0.49268">
        <ele>1976.2</ele>
        <time>2012-08-17T10:14:48Z</time>
      </trkpt>
      <trkpt lat="42.84653" lon="-0.49283">
        <ele>1978.5</ele>
        <time>2012-08-17T10:15:09Z</time>
      </trkpt>
      <trkpt lat="42.84645" lon="-0.49287">
        <ele>1980.1</ele>
        <time>2012-08-17T10:15:22Z</time>
      </trkpt>
      <trkpt lat="42.84638" lon="-0.49294">
        <ele>1980.4</ele>
        <time>2012-08-17T10:15:37Z</time>
      </trkpt>
      <trkpt lat="42.84633" lon="-0.49305">
        <ele>1983.1</ele>
        <time>2012-08-17T10:15:55Z</time>
      </trkpt>
      <trkpt lat="42.84633" lon="-0.49305">
        <ele>1983.4</ele>
        <time>2012-08-17T10:15:56Z</time>
      </trkpt>
      <trkpt lat="42.84623" lon="-0.49303">
        <ele>1988.2</ele>
        <time>2012-08-17T10:16:54Z</time>
      </trkpt>
      <trkpt lat="42.84621" lon="-0.49314">
        <ele>1991.1</ele>
        <time>2012-08-17T10:17:50Z</time>
      </trkpt>
      <trkpt lat="42.8462" lon="-0.49315">
        <ele>1991.6</ele>
        <time>2012-08-17T10:17:51Z</time>
      </trkpt>
      <trkpt lat="42.84615" lon="-0.49318">
        <ele>1994.1</ele>
        <time>2012-08-17T10:18:42Z</time>
      </trkpt>
      <trkpt lat="42.84608" lon="-0.49311">
        <ele>1994.2</ele>
        <time>2012-08-17T10:18:49Z</time>
      </trkpt>
      <trkpt lat="42.846" lon="-0.49308">
        <ele>1993.8</ele>
        <time>2012-08-17T10:20:04Z</time>
      </trkpt>
      <trkpt lat="42.846" lon="-0.49308">
        <ele>1993.7</ele>
        <time>2012-08-17T10:20:05Z</time>
      </trkpt>
      <trkpt lat="42.84613" lon="-0.49305">
        <ele>1994</ele>
        <time>2012-08-17T10:20:42Z</time>
      </trkpt>
      <trkpt lat="42.84608" lon="-0.49314">
        <ele>1998</ele>
        <time>2012-08-17T10:21:10Z</time>
      </trkpt>
      <trkpt lat="42.84608" lon="-0.49316">
        <ele>1997.9</ele>
        <time>2012-08-17T10:21:11Z</time>
      </trkpt>
      <trkpt lat="42.84599" lon="-0.49335">
        <ele>2001.8</ele>
        <time>2012-08-17T10:21:35Z</time>
      </trkpt>
      <trkpt lat="42.84595" lon="-0.49346">
        <ele>2003.7</ele>
        <time>2012-08-17T10:21:49Z</time>
      </trkpt>
      <trkpt lat="42.8459" lon="-0.49354">
        <ele>2004.6</ele>
        <time>2012-08-17T10:22:02Z</time>
      </trkpt>
      <trkpt lat="42.84588" lon="-0.49366">
        <ele>2006.3</ele>
        <time>2012-08-17T10:22:17Z</time>
      </trkpt>
      <trkpt lat="42.84588" lon="-0.49367">
        <ele>2006.5</ele>
        <time>2012-08-17T10:22:18Z</time>
      </trkpt>
      <trkpt lat="42.84586" lon="-0.49342">
        <ele>2012.3</ele>
        <time>2012-08-17T10:23:01Z</time>
      </trkpt>
      <trkpt lat="42.84585" lon="-0.49331">
        <ele>2013.1</ele>
        <time>2012-08-17T10:23:12Z</time>
      </trkpt>
      <trkpt lat="42.8458" lon="-0.49323">
        <ele>2014.6</ele>
        <time>2012-08-17T10:23:23Z</time>
      </trkpt>
      <trkpt lat="42.84579" lon="-0.49322">
        <ele>2014.6</ele>
        <time>2012-08-17T10:23:24Z</time>
      </trkpt>
      <trkpt lat="42.84566" lon="-0.49309">
        <ele>2016.8</ele>
        <time>2012-08-17T10:23:45Z</time>
      </trkpt>
      <trkpt lat="42.84557" lon="-0.49307">
        <ele>2019.8</ele>
        <time>2012-08-17T10:24:02Z</time>
      </trkpt>
      <trkpt lat="42.84549" lon="-0.49308">
        <ele>2022.1</ele>
        <time>2012-08-17T10:24:15Z</time>
      </trkpt>
      <trkpt lat="42.84542" lon="-0.49302">
        <ele>2022.7</ele>
        <time>2012-08-17T10:24:27Z</time>
      </trkpt>
      <trkpt lat="42.84541" lon="-0.49301">
        <ele>2022.6</ele>
        <time>2012-08-17T10:24:28Z</time>
      </trkpt>
      <trkpt lat="42.84526" lon="-0.49295">
        <ele>2026</ele>
        <time>2012-08-17T10:24:54Z</time>
      </trkpt>
      <trkpt lat="42.84518" lon="-0.4929">
        <ele>2028.3</ele>
        <time>2012-08-17T10:25:06Z</time>
      </trkpt>
      <trkpt lat="42.84512" lon="-0.49282">
        <ele>2029.4</ele>
        <time>2012-08-17T10:25:17Z</time>
      </trkpt>
      <trkpt lat="42.84512" lon="-0.4927">
        <ele>2030.7</ele>
        <time>2012-08-17T10:25:34Z</time>
      </trkpt>
      <trkpt lat="42.84512" lon="-0.49269">
        <ele>2030.9</ele>
        <time>2012-08-17T10:25:35Z</time>
      </trkpt>
      <trkpt lat="42.84496" lon="-0.49273">
        <ele>2033.4</ele>
        <time>2012-08-17T10:26:36Z</time>
      </trkpt>
      <trkpt lat="42.84496" lon="-0.49273">
        <ele>2033.2</ele>
        <time>2012-08-17T10:26:37Z</time>
      </trkpt>
      <trkpt lat="42.84505" lon="-0.49273">
        <ele>2031.7</ele>
        <time>2012-08-17T10:27:44Z</time>
      </trkpt>
      <trkpt lat="42.84494" lon="-0.49257">
        <ele>2032.9</ele>
        <time>2012-08-17T10:28:09Z</time>
      </trkpt>
      <trkpt lat="42.84486" lon="-0.49252">
        <ele>2032.5</ele>
        <time>2012-08-17T10:28:19Z</time>
      </trkpt>
      <trkpt lat="42.84478" lon="-0.49248">
        <ele>2032.3</ele>
        <time>2012-08-17T10:28:28Z</time>
      </trkpt>
      <trkpt lat="42.8447" lon="-0.49244">
        <ele>2033.5</ele>
        <time>2012-08-17T10:28:39Z</time>
      </trkpt>
      <trkpt lat="42.84462" lon="-0.49246">
        <ele>2033.6</ele>
        <time>2012-08-17T10:28:54Z</time>
      </trkpt>
      <trkpt lat="42.84461" lon="-0.49245">
        <ele>2033.2</ele>
        <time>2012-08-17T10:28:55Z</time>
      </trkpt>
      <trkpt lat="42.84445" lon="-0.49241">
        <ele>2033.7</ele>
        <time>2012-08-17T10:29:17Z</time>
      </trkpt>
      <trkpt lat="42.84437" lon="-0.49237">
        <ele>2035.9</ele>
        <time>2012-08-17T10:29:32Z</time>
      </trkpt>
      <trkpt lat="42.84429" lon="-0.49232">
        <ele>2036.4</ele>
        <time>2012-08-17T10:29:44Z</time>
      </trkpt>
      <trkpt lat="42.8442" lon="-0.49231">
        <ele>2036.2</ele>
        <time>2012-08-17T10:29:56Z</time>
      </trkpt>
      <trkpt lat="42.8442" lon="-0.49231">
        <ele>2036.2</ele>
        <time>2012-08-17T10:29:57Z</time>
      </trkpt>
      <trkpt lat="42.84403" lon="-0.49231">
        <ele>2039.7</ele>
        <time>2012-08-17T10:30:17Z</time>
      </trkpt>
      <trkpt lat="42.84395" lon="-0.49233">
        <ele>2041.3</ele>
        <time>2012-08-17T10:30:29Z</time>
      </trkpt>
      <trkpt lat="42.84388" lon="-0.4924">
        <ele>2043.1</ele>
        <time>2012-08-17T10:30:44Z</time>
      </trkpt>
      <trkpt lat="42.8438" lon="-0.49246">
        <ele>2043</ele>
        <time>2012-08-17T10:31:29Z</time>
      </trkpt>
      <trkpt lat="42.8438" lon="-0.49246">
        <ele>2042.3</ele>
        <time>2012-08-17T10:31:30Z</time>
      </trkpt>
      <trkpt lat="42.84363" lon="-0.49247">
        <ele>2042.8</ele>
        <time>2012-08-17T10:31:52Z</time>
      </trkpt>
      <trkpt lat="42.84355" lon="-0.4925">
        <ele>2043.5</ele>
        <time>2012-08-17T10:32:01Z</time>
      </trkpt>
      <trkpt lat="42.84346" lon="-0.49252">
        <ele>2042</ele>
        <time>2012-08-17T10:34:22Z</time>
      </trkpt>
      <trkpt lat="42.84346" lon="-0.49252">
        <ele>2042.1</ele>
        <time>2012-08-17T10:34:23Z</time>
      </trkpt>
      <trkpt lat="42.84338" lon="-0.49246">
        <ele>2042.3</ele>
        <time>2012-08-17T10:38:21Z</time>
      </trkpt>
      <trkpt lat="42.84333" lon="-0.49259">
        <ele>2042.5</ele>
        <time>2012-08-17T10:41:36Z</time>
      </trkpt>
      <trkpt lat="42.84334" lon="-0.49259">
        <ele>2042.8</ele>
        <time>2012-08-17T10:41:37Z</time>
      </trkpt>
      <trkpt lat="42.84325" lon="-0.49253">
        <ele>2042.2</ele>
        <time>2012-08-17T10:43:20Z</time>
      </trkpt>
      <trkpt lat="42.84316" lon="-0.49249">
        <ele>2043.2</ele>
        <time>2012-08-17T10:45:16Z</time>
      </trkpt>
      <trkpt lat="42.84299" lon="-0.49247">
        <ele>2045</ele>
        <time>2012-08-17T10:45:36Z</time>
      </trkpt>
      <trkpt lat="42.84291" lon="-0.49246">
        <ele>2047.8</ele>
        <time>2012-08-17T10:45:54Z</time>
      </trkpt>
      <trkpt lat="42.84283" lon="-0.49241">
        <ele>2049.4</ele>
        <time>2012-08-17T10:46:05Z</time>
      </trkpt>
      <trkpt lat="42.84275" lon="-0.49236">
        <ele>2050.6</ele>
        <time>2012-08-17T10:46:14Z</time>
      </trkpt>
      <trkpt lat="42.84268" lon="-0.49242">
        <ele>2051.7</ele>
        <time>2012-08-17T10:46:25Z</time>
      </trkpt>
      <trkpt lat="42.84267" lon="-0.49242">
        <ele>2051.8</ele>
        <time>2012-08-17T10:46:26Z</time>
      </trkpt>
      <trkpt lat="42.84252" lon="-0.49252">
        <ele>2053.9</ele>
        <time>2012-08-17T10:46:42Z</time>
      </trkpt>
      <trkpt lat="42.84244" lon="-0.49258">
        <ele>2055.1</ele>
        <time>2012-08-17T10:46:51Z</time>
      </trkpt>
      <trkpt lat="42.84238" lon="-0.49266">
        <ele>2056.5</ele>
        <time>2012-08-17T10:47:01Z</time>
      </trkpt>
      <trkpt lat="42.84229" lon="-0.49265">
        <ele>2057.9</ele>
        <time>2012-08-17T10:47:17Z</time>
      </trkpt>
      <trkpt lat="42.84222" lon="-0.49272">
        <ele>2060.5</ele>
        <time>2012-08-17T10:47:44Z</time>
      </trkpt>
      <trkpt lat="42.84221" lon="-0.49272">
        <ele>2060.3</ele>
        <time>2012-08-17T10:47:45Z</time>
      </trkpt>
      <trkpt lat="42.84207" lon="-0.49282">
        <ele>2063.3</ele>
        <time>2012-08-17T10:48:17Z</time>
      </trkpt>
      <trkpt lat="42.84198" lon="-0.49282">
        <ele>2066.1</ele>
        <time>2012-08-17T10:48:30Z</time>
      </trkpt>
      <trkpt lat="42.8419" lon="-0.49285">
        <ele>2067.1</ele>
        <time>2012-08-17T10:48:43Z</time>
      </trkpt>
      <trkpt lat="42.84184" lon="-0.49294">
        <ele>2067.4</ele>
        <time>2012-08-17T10:48:56Z</time>
      </trkpt>
      <trkpt lat="42.84183" lon="-0.49294">
        <ele>2067.6</ele>
        <time>2012-08-17T10:48:57Z</time>
      </trkpt>
      <trkpt lat="42.84167" lon="-0.493">
        <ele>2070.9</ele>
        <time>2012-08-17T10:49:18Z</time>
      </trkpt>
      <trkpt lat="42.84159" lon="-0.49301">
        <ele>2070.9</ele>
        <time>2012-08-17T10:49:29Z</time>
      </trkpt>
      <trkpt lat="42.84151" lon="-0.49302">
        <ele>2070.5</ele>
        <time>2012-08-17T10:49:37Z</time>
      </trkpt>
      <trkpt lat="42.84143" lon="-0.49304">
        <ele>2070.9</ele>
        <time>2012-08-17T10:49:48Z</time>
      </trkpt>
      <trkpt lat="42.84135" lon="-0.49301">
        <ele>2070.6</ele>
        <time>2012-08-17T10:50:10Z</time>
      </trkpt>
      <trkpt lat="42.84134" lon="-0.49301">
        <ele>2070.6</ele>
        <time>2012-08-17T10:50:11Z</time>
      </trkpt>
      <trkpt lat="42.84121" lon="-0.49288">
        <ele>2068.7</ele>
        <time>2012-08-17T10:50:38Z</time>
      </trkpt>
      <trkpt lat="42.84113" lon="-0.49282">
        <ele>2068.9</ele>
        <time>2012-08-17T10:50:50Z</time>
      </trkpt>
      <trkpt lat="42.84106" lon="-0.49276">
        <ele>2068.9</ele>
        <time>2012-08-17T10:51:08Z</time>
      </trkpt>
      <trkpt lat="42.84101" lon="-0.49266">
        <ele>2069.4</ele>
        <time>2012-08-17T10:51:35Z</time>
      </trkpt>
      <trkpt lat="42.841" lon="-0.49265">
        <ele>2069.1</ele>
        <time>2012-08-17T10:51:36Z</time>
      </trkpt>
      <trkpt lat="42.84088" lon="-0.49252">
        <ele>2066.4</ele>
        <time>2012-08-17T10:51:55Z</time>
      </trkpt>
      <trkpt lat="42.84081" lon="-0.49246">
        <ele>2067.4</ele>
        <time>2012-08-17T10:52:03Z</time>
      </trkpt>
      <trkpt lat="42.84073" lon="-0.4924">
        <ele>2069</ele>
        <time>2012-08-17T10:52:12Z</time>
      </trkpt>
      <trkpt lat="42.84067" lon="-0.49233">
        <ele>2068.2</ele>
        <time>2012-08-17T10:52:27Z</time>
      </trkpt>
      <trkpt lat="42.8406" lon="-0.49226">
        <ele>2067.8</ele>
        <time>2012-08-17T10:52:35Z</time>
      </trkpt>
      <trkpt lat="42.84052" lon="-0.4922">
        <ele>2069.8</ele>
        <time>2012-08-17T10:52:43Z</time>
      </trkpt>
      <trkpt lat="42.84051" lon="-0.49219">
        <ele>2069.8</ele>
        <time>2012-08-17T10:52:44Z</time>
      </trkpt>
      <trkpt lat="42.84036" lon="-0.49212">
        <ele>2069.9</ele>
        <time>2012-08-17T10:52:58Z</time>
      </trkpt>
      <trkpt lat="42.84028" lon="-0.49214">
        <ele>2068.9</ele>
        <time>2012-08-17T10:53:06Z</time>
      </trkpt>
      <trkpt lat="42.8402" lon="-0.49219">
        <ele>2068.9</ele>
        <time>2012-08-17T10:53:15Z</time>
      </trkpt>
      <trkpt lat="42.84014" lon="-0.49228">
        <ele>2069.1</ele>
        <time>2012-08-17T10:53:25Z</time>
      </trkpt>
      <trkpt lat="42.84012" lon="-0.49239">
        <ele>2070.1</ele>
        <time>2012-08-17T10:53:36Z</time>
      </trkpt>
      <trkpt lat="42.84004" lon="-0.49244">
        <ele>2070.4</ele>
        <time>2012-08-17T10:53:44Z</time>
      </trkpt>
      <trkpt lat="42.84003" lon="-0.49244">
        <ele>2070.6</ele>
        <time>2012-08-17T10:53:45Z</time>
      </trkpt>
      <trkpt lat="42.83993" lon="-0.4926">
        <ele>2070.1</ele>
        <time>2012-08-17T10:53:58Z</time>
      </trkpt>
      <trkpt lat="42.83987" lon="-0.49269">
        <ele>2069.6</ele>
        <time>2012-08-17T10:54:06Z</time>
      </trkpt>
      <trkpt lat="42.83983" lon="-0.49278">
        <ele>2069.9</ele>
        <time>2012-08-17T10:54:18Z</time>
      </trkpt>
      <trkpt lat="42.83978" lon="-0.49287">
        <ele>2069.7</ele>
        <time>2012-08-17T10:54:27Z</time>
      </trkpt>
      <trkpt lat="42.83977" lon="-0.49299">
        <ele>2065.9</ele>
        <time>2012-08-17T10:54:38Z</time>
      </trkpt>
      <trkpt lat="42.83977" lon="-0.49311">
        <ele>2067.1</ele>
        <time>2012-08-17T10:54:54Z</time>
      </trkpt>
      <trkpt lat="42.83978" lon="-0.49312">
        <ele>2067.2</ele>
        <time>2012-08-17T10:54:55Z</time>
      </trkpt>
      <trkpt lat="42.83975" lon="-0.4931">
        <ele>2066.7</ele>
        <time>2012-08-17T10:56:57Z</time>
      </trkpt>
      <trkpt lat="42.83975" lon="-0.49309">
        <ele>2066.8</ele>
        <time>2012-08-17T10:56:58Z</time>
      </trkpt>
      <trkpt lat="42.83973" lon="-0.49322">
        <ele>2065.2</ele>
        <time>2012-08-17T11:04:23Z</time>
      </trkpt>
      <trkpt lat="42.83977" lon="-0.49311">
        <ele>2065.6</ele>
        <time>2012-08-17T11:07:49Z</time>
      </trkpt>
      <trkpt lat="42.83976" lon="-0.49324">
        <ele>2065.7</ele>
        <time>2012-08-17T11:09:17Z</time>
      </trkpt>
      <trkpt lat="42.83974" lon="-0.49311">
        <ele>2065.4</ele>
        <time>2012-08-17T11:11:37Z</time>
      </trkpt>
      <trkpt lat="42.83978" lon="-0.4931">
        <ele>2066.2</ele>
        <time>2012-08-17T11:17:21Z</time>
      </trkpt>
      <trkpt lat="42.83978" lon="-0.4931">
        <ele>2066.2</ele>
        <time>2012-08-17T11:17:22Z</time>
      </trkpt>
      <trkpt lat="42.83971" lon="-0.49318">
        <ele>2067.1</ele>
        <time>2012-08-17T11:29:45Z</time>
      </trkpt>
      <trkpt lat="42.83967" lon="-0.49328">
        <ele>2065.7</ele>
        <time>2012-08-17T11:32:07Z</time>
      </trkpt>
      <trkpt lat="42.83965" lon="-0.49317">
        <ele>2066.6</ele>
        <time>2012-08-17T11:41:26Z</time>
      </trkpt>
      <trkpt lat="42.83963" lon="-0.49317">
        <ele>2066.8</ele>
        <time>2012-08-17T11:41:27Z</time>
      </trkpt>
      <trkpt lat="42.83964" lon="-0.49317">
        <ele>2067.6</ele>
        <time>2012-08-17T11:43:01Z</time>
      </trkpt>
      <trkpt lat="42.83966" lon="-0.49317">
        <ele>2068.1</ele>
        <time>2012-08-17T11:43:02Z</time>
      </trkpt>
      <trkpt lat="42.83982" lon="-0.49313">
        <ele>2065.9</ele>
        <time>2012-08-17T11:43:41Z</time>
      </trkpt>
      <trkpt lat="42.83978" lon="-0.49304">
        <ele>2066.6</ele>
        <time>2012-08-17T11:45:16Z</time>
      </trkpt>
      <trkpt lat="42.83977" lon="-0.49302">
        <ele>2066.7</ele>
        <time>2012-08-17T11:45:17Z</time>
      </trkpt>
      <trkpt lat="42.83975" lon="-0.49281">
        <ele>2068.7</ele>
        <time>2012-08-17T11:45:46Z</time>
      </trkpt>
      <trkpt lat="42.8397" lon="-0.49271">
        <ele>2069</ele>
        <time>2012-08-17T11:45:57Z</time>
      </trkpt>
      <trkpt lat="42.83965" lon="-0.49263">
        <ele>2069.4</ele>
        <time>2012-08-17T11:46:06Z</time>
      </trkpt>
      <trkpt lat="42.8396" lon="-0.49253">
        <ele>2068.6</ele>
        <time>2012-08-17T11:46:14Z</time>
      </trkpt>
      <trkpt lat="42.83952" lon="-0.49251">
        <ele>2068</ele>
        <time>2012-08-17T11:46:24Z</time>
      </trkpt>
      <trkpt lat="42.83951" lon="-0.49251">
        <ele>2068</ele>
        <time>2012-08-17T11:46:25Z</time>
      </trkpt>
      <trkpt lat="42.83937" lon="-0.49262">
        <ele>2071</ele>
        <time>2012-08-17T11:46:56Z</time>
      </trkpt>
      <trkpt lat="42.83933" lon="-0.49273">
        <ele>2071</ele>
        <time>2012-08-17T11:47:05Z</time>
      </trkpt>
      <trkpt lat="42.83927" lon="-0.49281">
        <ele>2071.7</ele>
        <time>2012-08-17T11:47:15Z</time>
      </trkpt>
      <trkpt lat="42.83922" lon="-0.4929">
        <ele>2073.1</ele>
        <time>2012-08-17T11:47:25Z</time>
      </trkpt>
      <trkpt lat="42.83921" lon="-0.49291">
        <ele>2073.2</ele>
        <time>2012-08-17T11:47:26Z</time>
      </trkpt>
      <trkpt lat="42.83909" lon="-0.49303">
        <ele>2079</ele>
        <time>2012-08-17T11:47:59Z</time>
      </trkpt>
      <trkpt lat="42.83901" lon="-0.49307">
        <ele>2080.8</ele>
        <time>2012-08-17T11:48:09Z</time>
      </trkpt>
      <trkpt lat="42.83893" lon="-0.49305">
        <ele>2080</ele>
        <time>2012-08-17T11:48:16Z</time>
      </trkpt>
      <trkpt lat="42.83885" lon="-0.49299">
        <ele>2075.8</ele>
        <time>2012-08-17T11:48:24Z</time>
      </trkpt>
      <trkpt lat="42.83879" lon="-0.49293">
        <ele>2075.1</ele>
        <time>2012-08-17T11:48:31Z</time>
      </trkpt>
      <trkpt lat="42.83878" lon="-0.49292">
        <ele>2075</ele>
        <time>2012-08-17T11:48:32Z</time>
      </trkpt>
      <trkpt lat="42.83864" lon="-0.4928">
        <ele>2074.2</ele>
        <time>2012-08-17T11:48:49Z</time>
      </trkpt>
      <trkpt lat="42.83856" lon="-0.49277">
        <ele>2074.8</ele>
        <time>2012-08-17T11:48:56Z</time>
      </trkpt>
      <trkpt lat="42.83848" lon="-0.49275">
        <ele>2075.1</ele>
        <time>2012-08-17T11:49:04Z</time>
      </trkpt>
      <trkpt lat="42.83839" lon="-0.49275">
        <ele>2075.1</ele>
        <time>2012-08-17T11:49:12Z</time>
      </trkpt>
      <trkpt lat="42.8383" lon="-0.49277">
        <ele>2076.5</ele>
        <time>2012-08-17T11:49:20Z</time>
      </trkpt>
      <trkpt lat="42.83822" lon="-0.49276">
        <ele>2076.3</ele>
        <time>2012-08-17T11:49:28Z</time>
      </trkpt>
      <trkpt lat="42.83815" lon="-0.49271">
        <ele>2076.2</ele>
        <time>2012-08-17T11:49:36Z</time>
      </trkpt>
      <trkpt lat="42.83814" lon="-0.4927">
        <ele>2076.1</ele>
        <time>2012-08-17T11:49:37Z</time>
      </trkpt>
      <trkpt lat="42.83802" lon="-0.49256">
        <ele>2075.3</ele>
        <time>2012-08-17T11:49:50Z</time>
      </trkpt>
      <trkpt lat="42.83794" lon="-0.49252">
        <ele>2075.4</ele>
        <time>2012-08-17T11:49:58Z</time>
      </trkpt>
      <trkpt lat="42.83787" lon="-0.49247">
        <ele>2076.4</ele>
        <time>2012-08-17T11:50:05Z</time>
      </trkpt>
      <trkpt lat="42.83779" lon="-0.49244">
        <ele>2078.7</ele>
        <time>2012-08-17T11:50:12Z</time>
      </trkpt>
      <trkpt lat="42.83771" lon="-0.49238">
        <ele>2077.8</ele>
        <time>2012-08-17T11:50:20Z</time>
      </trkpt>
      <trkpt lat="42.83764" lon="-0.49232">
        <ele>2078.8</ele>
        <time>2012-08-17T11:50:29Z</time>
      </trkpt>
      <trkpt lat="42.83756" lon="-0.49228">
        <ele>2079.3</ele>
        <time>2012-08-17T11:50:37Z</time>
      </trkpt>
      <trkpt lat="42.83755" lon="-0.49227">
        <ele>2079.5</ele>
        <time>2012-08-17T11:50:38Z</time>
      </trkpt>
      <trkpt lat="42.8374" lon="-0.4922">
        <ele>2079.3</ele>
        <time>2012-08-17T11:50:52Z</time>
      </trkpt>
      <trkpt lat="42.83732" lon="-0.49216">
        <ele>2081.1</ele>
        <time>2012-08-17T11:50:59Z</time>
      </trkpt>
      <trkpt lat="42.83725" lon="-0.49208">
        <ele>2080.5</ele>
        <time>2012-08-17T11:51:15Z</time>
      </trkpt>
      <trkpt lat="42.8372" lon="-0.49199">
        <ele>2080.3</ele>
        <time>2012-08-17T11:51:24Z</time>
      </trkpt>
      <trkpt lat="42.83714" lon="-0.49191">
        <ele>2079.8</ele>
        <time>2012-08-17T11:51:31Z</time>
      </trkpt>
      <trkpt lat="42.83707" lon="-0.49185">
        <ele>2079.7</ele>
        <time>2012-08-17T11:51:38Z</time>
      </trkpt>
      <trkpt lat="42.83706" lon="-0.49185">
        <ele>2079.8</ele>
        <time>2012-08-17T11:51:39Z</time>
      </trkpt>
      <trkpt lat="42.83695" lon="-0.49173">
        <ele>2079.2</ele>
        <time>2012-08-17T11:52:08Z</time>
      </trkpt>
      <trkpt lat="42.8369" lon="-0.49163">
        <ele>2080</ele>
        <time>2012-08-17T11:52:17Z</time>
      </trkpt>
      <trkpt lat="42.83691" lon="-0.49151">
        <ele>2079.2</ele>
        <time>2012-08-17T11:52:35Z</time>
      </trkpt>
      <trkpt lat="42.83693" lon="-0.49139">
        <ele>2072.4</ele>
        <time>2012-08-17T11:53:07Z</time>
      </trkpt>
      <trkpt lat="42.83693" lon="-0.49139">
        <ele>2072.1</ele>
        <time>2012-08-17T11:53:08Z</time>
      </trkpt>
      <trkpt lat="42.83686" lon="-0.49121">
        <ele>2063.1</ele>
        <time>2012-08-17T11:54:14Z</time>
      </trkpt>
      <trkpt lat="42.83686" lon="-0.49121">
        <ele>2063.3</ele>
        <time>2012-08-17T11:54:15Z</time>
      </trkpt>
      <trkpt lat="42.83676" lon="-0.49102">
        <ele>2059.6</ele>
        <time>2012-08-17T11:54:44Z</time>
      </trkpt>
      <trkpt lat="42.8367" lon="-0.49094">
        <ele>2056</ele>
        <time>2012-08-17T11:54:56Z</time>
      </trkpt>
      <trkpt lat="42.83662" lon="-0.49089">
        <ele>2053.1</ele>
        <time>2012-08-17T11:55:10Z</time>
      </trkpt>
      <trkpt lat="42.83656" lon="-0.49097">
        <ele>2052.3</ele>
        <time>2012-08-17T11:55:20Z</time>
      </trkpt>
      <trkpt lat="42.83656" lon="-0.49098">
        <ele>2052.2</ele>
        <time>2012-08-17T11:55:21Z</time>
      </trkpt>
      <trkpt lat="42.83645" lon="-0.49116">
        <ele>2047.4</ele>
        <time>2012-08-17T11:55:41Z</time>
      </trkpt>
      <trkpt lat="42.83643" lon="-0.49105">
        <ele>2041.9</ele>
        <time>2012-08-17T11:56:04Z</time>
      </trkpt>
      <trkpt lat="42.83639" lon="-0.49095">
        <ele>2040.7</ele>
        <time>2012-08-17T11:56:14Z</time>
      </trkpt>
      <trkpt lat="42.83635" lon="-0.49085">
        <ele>2038.2</ele>
        <time>2012-08-17T11:56:26Z</time>
      </trkpt>
      <trkpt lat="42.83634" lon="-0.49085">
        <ele>2038.3</ele>
        <time>2012-08-17T11:56:27Z</time>
      </trkpt>
      <trkpt lat="42.83621" lon="-0.49089">
        <ele>2031.4</ele>
        <time>2012-08-17T11:56:57Z</time>
      </trkpt>
      <trkpt lat="42.83616" lon="-0.49098">
        <ele>2029.5</ele>
        <time>2012-08-17T11:57:05Z</time>
      </trkpt>
      <trkpt lat="42.8361" lon="-0.49106">
        <ele>2027.5</ele>
        <time>2012-08-17T11:57:14Z</time>
      </trkpt>
      <trkpt lat="42.83604" lon="-0.49115">
        <ele>2026.1</ele>
        <time>2012-08-17T11:57:39Z</time>
      </trkpt>
      <trkpt lat="42.83604" lon="-0.49115">
        <ele>2026.2</ele>
        <time>2012-08-17T11:57:40Z</time>
      </trkpt>
      <trkpt lat="42.83595" lon="-0.49118">
        <ele>2026</ele>
        <time>2012-08-17T11:58:43Z</time>
      </trkpt>
      <trkpt lat="42.83582" lon="-0.49133">
        <ele>2022.2</ele>
        <time>2012-08-17T11:59:05Z</time>
      </trkpt>
      <trkpt lat="42.83576" lon="-0.4914">
        <ele>2019.2</ele>
        <time>2012-08-17T11:59:15Z</time>
      </trkpt>
      <trkpt lat="42.83568" lon="-0.49145">
        <ele>2018.4</ele>
        <time>2012-08-17T11:59:25Z</time>
      </trkpt>
      <trkpt lat="42.8356" lon="-0.4915">
        <ele>2015.7</ele>
        <time>2012-08-17T11:59:37Z</time>
      </trkpt>
      <trkpt lat="42.83551" lon="-0.49151">
        <ele>2013.5</ele>
        <time>2012-08-17T11:59:45Z</time>
      </trkpt>
      <trkpt lat="42.8355" lon="-0.49152">
        <ele>2013.4</ele>
        <time>2012-08-17T11:59:46Z</time>
      </trkpt>
      <trkpt lat="42.83537" lon="-0.4916">
        <ele>2011.4</ele>
        <time>2012-08-17T11:59:58Z</time>
      </trkpt>
      <trkpt lat="42.8353" lon="-0.49167">
        <ele>2008.9</ele>
        <time>2012-08-17T12:00:04Z</time>
      </trkpt>
      <trkpt lat="42.83523" lon="-0.49171">
        <ele>2007.2</ele>
        <time>2012-08-17T12:00:10Z</time>
      </trkpt>
      <trkpt lat="42.83518" lon="-0.49181">
        <ele>2005.9</ele>
        <time>2012-08-17T12:00:24Z</time>
      </trkpt>
      <trkpt lat="42.83512" lon="-0.49189">
        <ele>2005</ele>
        <time>2012-08-17T12:00:33Z</time>
      </trkpt>
      <trkpt lat="42.83505" lon="-0.49193">
        <ele>2004.4</ele>
        <time>2012-08-17T12:00:40Z</time>
      </trkpt>
      <trkpt lat="42.83497" lon="-0.49195">
        <ele>2003.4</ele>
        <time>2012-08-17T12:00:47Z</time>
      </trkpt>
      <trkpt lat="42.83496" lon="-0.49196">
        <ele>2003.2</ele>
        <time>2012-08-17T12:00:48Z</time>
      </trkpt>
      <trkpt lat="42.83481" lon="-0.49204">
        <ele>2001.7</ele>
        <time>2012-08-17T12:01:03Z</time>
      </trkpt>
      <trkpt lat="42.83473" lon="-0.49201">
        <ele>2000.8</ele>
        <time>2012-08-17T12:01:12Z</time>
      </trkpt>
      <trkpt lat="42.83465" lon="-0.49194">
        <ele>2000</ele>
        <time>2012-08-17T12:01:21Z</time>
      </trkpt>
      <trkpt lat="42.83458" lon="-0.4919">
        <ele>1998.9</ele>
        <time>2012-08-17T12:01:28Z</time>
      </trkpt>
      <trkpt lat="42.8345" lon="-0.49186">
        <ele>1998</ele>
        <time>2012-08-17T12:01:35Z</time>
      </trkpt>
      <trkpt lat="42.83442" lon="-0.49181">
        <ele>1997.6</ele>
        <time>2012-08-17T12:01:48Z</time>
      </trkpt>
      <trkpt lat="42.83442" lon="-0.49181">
        <ele>1997.7</ele>
        <time>2012-08-17T12:01:49Z</time>
      </trkpt>
      <trkpt lat="42.83426" lon="-0.49175">
        <ele>1995.5</ele>
        <time>2012-08-17T12:02:15Z</time>
      </trkpt>
      <trkpt lat="42.8342" lon="-0.49166">
        <ele>1994.4</ele>
        <time>2012-08-17T12:02:26Z</time>
      </trkpt>
      <trkpt lat="42.83415" lon="-0.49157">
        <ele>1993.2</ele>
        <time>2012-08-17T12:02:34Z</time>
      </trkpt>
      <trkpt lat="42.83412" lon="-0.49146">
        <ele>1991.1</ele>
        <time>2012-08-17T12:02:42Z</time>
      </trkpt>
      <trkpt lat="42.83413" lon="-0.49135">
        <ele>1990.5</ele>
        <time>2012-08-17T12:02:50Z</time>
      </trkpt>
      <trkpt lat="42.83414" lon="-0.49134">
        <ele>1990.5</ele>
        <time>2012-08-17T12:02:51Z</time>
      </trkpt>
      <trkpt lat="42.83418" lon="-0.49114">
        <ele>1985.9</ele>
        <time>2012-08-17T12:03:05Z</time>
      </trkpt>
      <trkpt lat="42.83419" lon="-0.49102">
        <ele>1985.2</ele>
        <time>2012-08-17T12:03:13Z</time>
      </trkpt>
      <trkpt lat="42.83421" lon="-0.49091">
        <ele>1984.2</ele>
        <time>2012-08-17T12:03:22Z</time>
      </trkpt>
      <trkpt lat="42.83427" lon="-0.49083">
        <ele>1982.2</ele>
        <time>2012-08-17T12:03:39Z</time>
      </trkpt>
      <trkpt lat="42.83433" lon="-0.49073">
        <ele>1980.6</ele>
        <time>2012-08-17T12:03:49Z</time>
      </trkpt>
      <trkpt lat="42.83437" lon="-0.49062">
        <ele>1979.8</ele>
        <time>2012-08-17T12:04:01Z</time>
      </trkpt>
      <trkpt lat="42.83437" lon="-0.49061">
        <ele>1979.4</ele>
        <time>2012-08-17T12:04:02Z</time>
      </trkpt>
      <trkpt lat="42.83446" lon="-0.49043">
        <ele>1973.8</ele>
        <time>2012-08-17T12:04:25Z</time>
      </trkpt>
      <trkpt lat="42.83452" lon="-0.49035">
        <ele>1973.1</ele>
        <time>2012-08-17T12:04:35Z</time>
      </trkpt>
      <trkpt lat="42.83457" lon="-0.49026">
        <ele>1969.8</ele>
        <time>2012-08-17T12:04:49Z</time>
      </trkpt>
      <trkpt lat="42.8346" lon="-0.49015">
        <ele>1969.1</ele>
        <time>2012-08-17T12:04:57Z</time>
      </trkpt>
      <trkpt lat="42.8346" lon="-0.49004">
        <ele>1968</ele>
        <time>2012-08-17T12:05:05Z</time>
      </trkpt>
      <trkpt lat="42.8346" lon="-0.49003">
        <ele>1967.7</ele>
        <time>2012-08-17T12:05:06Z</time>
      </trkpt>
      <trkpt lat="42.83461" lon="-0.48982">
        <ele>1964.9</ele>
        <time>2012-08-17T12:05:22Z</time>
      </trkpt>
      <trkpt lat="42.83464" lon="-0.48972">
        <ele>1963.4</ele>
        <time>2012-08-17T12:05:29Z</time>
      </trkpt>
      <trkpt lat="42.83469" lon="-0.48962">
        <ele>1962.8</ele>
        <time>2012-08-17T12:05:38Z</time>
      </trkpt>
      <trkpt lat="42.83474" lon="-0.48953">
        <ele>1961.4</ele>
        <time>2012-08-17T12:05:46Z</time>
      </trkpt>
      <trkpt lat="42.83479" lon="-0.48943">
        <ele>1959.6</ele>
        <time>2012-08-17T12:05:56Z</time>
      </trkpt>
      <trkpt lat="42.83481" lon="-0.48931">
        <ele>1958.3</ele>
        <time>2012-08-17T12:06:06Z</time>
      </trkpt>
      <trkpt lat="42.83482" lon="-0.4893">
        <ele>1958.4</ele>
        <time>2012-08-17T12:06:07Z</time>
      </trkpt>
      <trkpt lat="42.83485" lon="-0.48909">
        <ele>1956.1</ele>
        <time>2012-08-17T12:06:22Z</time>
      </trkpt>
      <trkpt lat="42.83486" lon="-0.48897">
        <ele>1955</ele>
        <time>2012-08-17T12:06:29Z</time>
      </trkpt>
      <trkpt lat="42.83488" lon="-0.48887">
        <ele>1955</ele>
        <time>2012-08-17T12:06:38Z</time>
      </trkpt>
      <trkpt lat="42.83486" lon="-0.48875">
        <ele>1954.6</ele>
        <time>2012-08-17T12:06:47Z</time>
      </trkpt>
      <trkpt lat="42.83486" lon="-0.48863">
        <ele>1954.2</ele>
        <time>2012-08-17T12:06:56Z</time>
      </trkpt>
      <trkpt lat="42.83488" lon="-0.48851">
        <ele>1952.6</ele>
        <time>2012-08-17T12:07:06Z</time>
      </trkpt>
      <trkpt lat="42.83493" lon="-0.48841">
        <ele>1951.5</ele>
        <time>2012-08-17T12:07:16Z</time>
      </trkpt>
      <trkpt lat="42.83493" lon="-0.4884">
        <ele>1951.4</ele>
        <time>2012-08-17T12:07:17Z</time>
      </trkpt>
      <trkpt lat="42.83494" lon="-0.48818">
        <ele>1948.4</ele>
        <time>2012-08-17T12:07:35Z</time>
      </trkpt>
      <trkpt lat="42.83492" lon="-0.48807">
        <ele>1945.8</ele>
        <time>2012-08-17T12:07:47Z</time>
      </trkpt>
      <trkpt lat="42.8349" lon="-0.48796">
        <ele>1943.5</ele>
        <time>2012-08-17T12:07:57Z</time>
      </trkpt>
      <trkpt lat="42.83489" lon="-0.48785">
        <ele>1944.3</ele>
        <time>2012-08-17T12:08:06Z</time>
      </trkpt>
      <trkpt lat="42.83486" lon="-0.48775">
        <ele>1943.2</ele>
        <time>2012-08-17T12:08:14Z</time>
      </trkpt>
      <trkpt lat="42.83483" lon="-0.48764">
        <ele>1944.7</ele>
        <time>2012-08-17T12:08:23Z</time>
      </trkpt>
      <trkpt lat="42.83483" lon="-0.48763">
        <ele>1944.7</ele>
        <time>2012-08-17T12:08:24Z</time>
      </trkpt>
      <trkpt lat="42.83478" lon="-0.48742">
        <ele>1944.1</ele>
        <time>2012-08-17T12:08:52Z</time>
      </trkpt>
      <trkpt lat="42.83483" lon="-0.48731">
        <ele>1944.6</ele>
        <time>2012-08-17T12:09:25Z</time>
      </trkpt>
      <trkpt lat="42.83483" lon="-0.4873">
        <ele>1944.5</ele>
        <time>2012-08-17T12:09:26Z</time>
      </trkpt>
      <trkpt lat="42.83484" lon="-0.48708">
        <ele>1943.2</ele>
        <time>2012-08-17T12:09:43Z</time>
      </trkpt>
      <trkpt lat="42.83483" lon="-0.48696">
        <ele>1943.2</ele>
        <time>2012-08-17T12:09:51Z</time>
      </trkpt>
      <trkpt lat="42.83482" lon="-0.48684">
        <ele>1942.1</ele>
        <time>2012-08-17T12:09:58Z</time>
      </trkpt>
      <trkpt lat="42.83482" lon="-0.48673">
        <ele>1941.1</ele>
        <time>2012-08-17T12:10:05Z</time>
      </trkpt>
      <trkpt lat="42.83482" lon="-0.48661">
        <ele>1940.7</ele>
        <time>2012-08-17T12:10:13Z</time>
      </trkpt>
      <trkpt lat="42.83482" lon="-0.4865">
        <ele>1942</ele>
        <time>2012-08-17T12:10:22Z</time>
      </trkpt>
      <trkpt lat="42.83478" lon="-0.4864">
        <ele>1942.7</ele>
        <time>2012-08-17T12:10:34Z</time>
      </trkpt>
      <trkpt lat="42.83478" lon="-0.48639">
        <ele>1942.8</ele>
        <time>2012-08-17T12:10:35Z</time>
      </trkpt>
      <trkpt lat="42.83476" lon="-0.48618">
        <ele>1937.8</ele>
        <time>2012-08-17T12:10:56Z</time>
      </trkpt>
      <trkpt lat="42.83472" lon="-0.48608">
        <ele>1936.4</ele>
        <time>2012-08-17T12:11:04Z</time>
      </trkpt>
      <trkpt lat="42.83468" lon="-0.48597">
        <ele>1937.1</ele>
        <time>2012-08-17T12:11:26Z</time>
      </trkpt>
      <trkpt lat="42.83465" lon="-0.48586">
        <ele>1936.8</ele>
        <time>2012-08-17T12:11:37Z</time>
      </trkpt>
      <trkpt lat="42.83465" lon="-0.48585">
        <ele>1936.8</ele>
        <time>2012-08-17T12:11:38Z</time>
      </trkpt>
      <trkpt lat="42.83458" lon="-0.48566">
        <ele>1934.4</ele>
        <time>2012-08-17T12:12:12Z</time>
      </trkpt>
      <trkpt lat="42.83455" lon="-0.48555">
        <ele>1935.8</ele>
        <time>2012-08-17T12:12:20Z</time>
      </trkpt>
      <trkpt lat="42.83454" lon="-0.48544">
        <ele>1935.6</ele>
        <time>2012-08-17T12:12:29Z</time>
      </trkpt>
      <trkpt lat="42.83453" lon="-0.48533">
        <ele>1934.8</ele>
        <time>2012-08-17T12:12:37Z</time>
      </trkpt>
      <trkpt lat="42.83457" lon="-0.48522">
        <ele>1935.4</ele>
        <time>2012-08-17T12:12:45Z</time>
      </trkpt>
      <trkpt lat="42.83457" lon="-0.48521">
        <ele>1935.3</ele>
        <time>2012-08-17T12:12:46Z</time>
      </trkpt>
      <trkpt lat="42.83463" lon="-0.485">
        <ele>1934.9</ele>
        <time>2012-08-17T12:13:02Z</time>
      </trkpt>
      <trkpt lat="42.8347" lon="-0.48493">
        <ele>1935.3</ele>
        <time>2012-08-17T12:13:10Z</time>
      </trkpt>
      <trkpt lat="42.83477" lon="-0.48486">
        <ele>1935.1</ele>
        <time>2012-08-17T12:13:21Z</time>
      </trkpt>
      <trkpt lat="42.83483" lon="-0.48478">
        <ele>1935.5</ele>
        <time>2012-08-17T12:13:29Z</time>
      </trkpt>
      <trkpt lat="42.83485" lon="-0.48467">
        <ele>1936.7</ele>
        <time>2012-08-17T12:13:38Z</time>
      </trkpt>
      <trkpt lat="42.83487" lon="-0.48456">
        <ele>1936.5</ele>
        <time>2012-08-17T12:13:47Z</time>
      </trkpt>
      <trkpt lat="42.83487" lon="-0.48454">
        <ele>1936.5</ele>
        <time>2012-08-17T12:13:48Z</time>
      </trkpt>
      <trkpt lat="42.83496" lon="-0.48436">
        <ele>1938.9</ele>
        <time>2012-08-17T12:14:04Z</time>
      </trkpt>
      <trkpt lat="42.83503" lon="-0.48428">
        <ele>1939.3</ele>
        <time>2012-08-17T12:14:13Z</time>
      </trkpt>
      <trkpt lat="42.83509" lon="-0.48419">
        <ele>1941.2</ele>
        <time>2012-08-17T12:14:28Z</time>
      </trkpt>
      <trkpt lat="42.83515" lon="-0.48411">
        <ele>1943.4</ele>
        <time>2012-08-17T12:14:41Z</time>
      </trkpt>
      <trkpt lat="42.8352" lon="-0.48402">
        <ele>1943.2</ele>
        <time>2012-08-17T12:14:51Z</time>
      </trkpt>
      <trkpt lat="42.83521" lon="-0.48402">
        <ele>1943.6</ele>
        <time>2012-08-17T12:14:52Z</time>
      </trkpt>
      <trkpt lat="42.83534" lon="-0.48389">
        <ele>1946.6</ele>
        <time>2012-08-17T12:15:11Z</time>
      </trkpt>
      <trkpt lat="42.83542" lon="-0.48384">
        <ele>1947.9</ele>
        <time>2012-08-17T12:15:23Z</time>
      </trkpt>
      <trkpt lat="42.83549" lon="-0.48377">
        <ele>1948.8</ele>
        <time>2012-08-17T12:15:33Z</time>
      </trkpt>
      <trkpt lat="42.83557" lon="-0.48371">
        <ele>1951.1</ele>
        <time>2012-08-17T12:15:46Z</time>
      </trkpt>
      <trkpt lat="42.83563" lon="-0.48366">
        <ele>1952.2</ele>
        <time>2012-08-17T12:15:54Z</time>
      </trkpt>
      <trkpt lat="42.83565" lon="-0.48365">
        <ele>1952.3</ele>
        <time>2012-08-17T12:15:55Z</time>
      </trkpt>
      <trkpt lat="42.83577" lon="-0.48354">
        <ele>1950.4</ele>
        <time>2012-08-17T12:16:07Z</time>
      </trkpt>
      <trkpt lat="42.83582" lon="-0.48346">
        <ele>1950.8</ele>
        <time>2012-08-17T12:16:15Z</time>
      </trkpt>
      <trkpt lat="42.83587" lon="-0.48336">
        <ele>1951.2</ele>
        <time>2012-08-17T12:16:51Z</time>
      </trkpt>
      <trkpt lat="42.83587" lon="-0.48325">
        <ele>1949.7</ele>
        <time>2012-08-17T12:17:07Z</time>
      </trkpt>
      <trkpt lat="42.83587" lon="-0.48323">
        <ele>1949.7</ele>
        <time>2012-08-17T12:17:08Z</time>
      </trkpt>
      <trkpt lat="42.83593" lon="-0.48315">
        <ele>1951.5</ele>
        <time>2012-08-17T12:18:19Z</time>
      </trkpt>
      <trkpt lat="42.83595" lon="-0.48315">
        <ele>1951.4</ele>
        <time>2012-08-17T12:18:20Z</time>
      </trkpt>
      <trkpt lat="42.8361" lon="-0.48319">
        <ele>1946.7</ele>
        <time>2012-08-17T12:18:34Z</time>
      </trkpt>
      <trkpt lat="42.8361" lon="-0.48307">
        <ele>1942</ele>
        <time>2012-08-17T12:18:49Z</time>
      </trkpt>
      <trkpt lat="42.83607" lon="-0.48296">
        <ele>1939.9</ele>
        <time>2012-08-17T12:19:00Z</time>
      </trkpt>
      <trkpt lat="42.83604" lon="-0.48286">
        <ele>1938</ele>
        <time>2012-08-17T12:19:09Z</time>
      </trkpt>
      <trkpt lat="42.83599" lon="-0.48276">
        <ele>1936.6</ele>
        <time>2012-08-17T12:19:16Z</time>
      </trkpt>
      <trkpt lat="42.83607" lon="-0.4827">
        <ele>1931</ele>
        <time>2012-08-17T12:19:34Z</time>
      </trkpt>
      <trkpt lat="42.83608" lon="-0.4827">
        <ele>1930.4</ele>
        <time>2012-08-17T12:19:35Z</time>
      </trkpt>
      <trkpt lat="42.83623" lon="-0.48273">
        <ele>1927.3</ele>
        <time>2012-08-17T12:19:53Z</time>
      </trkpt>
      <trkpt lat="42.83631" lon="-0.48279">
        <ele>1924.7</ele>
        <time>2012-08-17T12:20:04Z</time>
      </trkpt>
      <trkpt lat="42.83639" lon="-0.48284">
        <ele>1922.2</ele>
        <time>2012-08-17T12:20:15Z</time>
      </trkpt>
      <trkpt lat="42.83647" lon="-0.48289">
        <ele>1919.3</ele>
        <time>2012-08-17T12:20:32Z</time>
      </trkpt>
      <trkpt lat="42.83655" lon="-0.48293">
        <ele>1917.2</ele>
        <time>2012-08-17T12:20:46Z</time>
      </trkpt>
      <trkpt lat="42.83656" lon="-0.48293">
        <ele>1917</ele>
        <time>2012-08-17T12:20:47Z</time>
      </trkpt>
      <trkpt lat="42.83672" lon="-0.48299">
        <ele>1914.4</ele>
        <time>2012-08-17T12:21:10Z</time>
      </trkpt>
      <trkpt lat="42.83679" lon="-0.48292">
        <ele>1909.7</ele>
        <time>2012-08-17T12:21:25Z</time>
      </trkpt>
      <trkpt lat="42.83686" lon="-0.48284">
        <ele>1908.7</ele>
        <time>2012-08-17T12:21:38Z</time>
      </trkpt>
      <trkpt lat="42.83689" lon="-0.48273">
        <ele>1905.2</ele>
        <time>2012-08-17T12:21:54Z</time>
      </trkpt>
      <trkpt lat="42.8369" lon="-0.48272">
        <ele>1904.6</ele>
        <time>2012-08-17T12:21:55Z</time>
      </trkpt>
      <trkpt lat="42.83683" lon="-0.48255">
        <ele>1899.9</ele>
        <time>2012-08-17T12:22:26Z</time>
      </trkpt>
      <trkpt lat="42.83681" lon="-0.48244">
        <ele>1897.6</ele>
        <time>2012-08-17T12:22:43Z</time>
      </trkpt>
      <trkpt lat="42.83678" lon="-0.48233">
        <ele>1894.4</ele>
        <time>2012-08-17T12:22:57Z</time>
      </trkpt>
      <trkpt lat="42.83677" lon="-0.48232">
        <ele>1894.2</ele>
        <time>2012-08-17T12:22:58Z</time>
      </trkpt>
      <trkpt lat="42.83678" lon="-0.48209">
        <ele>1890.4</ele>
        <time>2012-08-17T12:23:19Z</time>
      </trkpt>
      <trkpt lat="42.83669" lon="-0.48207">
        <ele>1886.7</ele>
        <time>2012-08-17T12:23:43Z</time>
      </trkpt>
      <trkpt lat="42.83664" lon="-0.48197">
        <ele>1884</ele>
        <time>2012-08-17T12:24:04Z</time>
      </trkpt>
      <trkpt lat="42.83665" lon="-0.48196">
        <ele>1883.4</ele>
        <time>2012-08-17T12:24:05Z</time>
      </trkpt>
      <trkpt lat="42.83658" lon="-0.48178">
        <ele>1877.6</ele>
        <time>2012-08-17T12:24:30Z</time>
      </trkpt>
      <trkpt lat="42.83652" lon="-0.48169">
        <ele>1873.4</ele>
        <time>2012-08-17T12:24:50Z</time>
      </trkpt>
      <trkpt lat="42.83649" lon="-0.48158">
        <ele>1871.2</ele>
        <time>2012-08-17T12:25:03Z</time>
      </trkpt>
      <trkpt lat="42.83654" lon="-0.48147">
        <ele>1867.3</ele>
        <time>2012-08-17T12:25:26Z</time>
      </trkpt>
      <trkpt lat="42.83655" lon="-0.48147">
        <ele>1867.3</ele>
        <time>2012-08-17T12:25:27Z</time>
      </trkpt>
      <trkpt lat="42.83653" lon="-0.48125">
        <ele>1860.1</ele>
        <time>2012-08-17T12:25:51Z</time>
      </trkpt>
      <trkpt lat="42.83652" lon="-0.48114">
        <ele>1858.3</ele>
        <time>2012-08-17T12:26:09Z</time>
      </trkpt>
      <trkpt lat="42.83654" lon="-0.48102">
        <ele>1855.5</ele>
        <time>2012-08-17T12:26:20Z</time>
      </trkpt>
      <trkpt lat="42.83659" lon="-0.48092">
        <ele>1853.5</ele>
        <time>2012-08-17T12:26:28Z</time>
      </trkpt>
      <trkpt lat="42.83659" lon="-0.48091">
        <ele>1853.4</ele>
        <time>2012-08-17T12:26:29Z</time>
      </trkpt>
      <trkpt lat="42.83674" lon="-0.48085">
        <ele>1850</ele>
        <time>2012-08-17T12:26:44Z</time>
      </trkpt>
      <trkpt lat="42.83682" lon="-0.48082">
        <ele>1848.2</ele>
        <time>2012-08-17T12:26:52Z</time>
      </trkpt>
      <trkpt lat="42.83689" lon="-0.48075">
        <ele>1845.5</ele>
        <time>2012-08-17T12:27:01Z</time>
      </trkpt>
      <trkpt lat="42.83693" lon="-0.48065">
        <ele>1844.8</ele>
        <time>2012-08-17T12:27:08Z</time>
      </trkpt>
      <trkpt lat="42.83696" lon="-0.48055">
        <ele>1841.6</ele>
        <time>2012-08-17T12:27:18Z</time>
      </trkpt>
      <trkpt lat="42.837" lon="-0.48045">
        <ele>1840.3</ele>
        <time>2012-08-17T12:27:25Z</time>
      </trkpt>
      <trkpt lat="42.83707" lon="-0.48037">
        <ele>1838.7</ele>
        <time>2012-08-17T12:27:33Z</time>
      </trkpt>
      <trkpt lat="42.83708" lon="-0.48037">
        <ele>1838.9</ele>
        <time>2012-08-17T12:27:34Z</time>
      </trkpt>
      <trkpt lat="42.83722" lon="-0.48032">
        <ele>1837.2</ele>
        <time>2012-08-17T12:28:00Z</time>
      </trkpt>
      <trkpt lat="42.83731" lon="-0.48028">
        <ele>1835</ele>
        <time>2012-08-17T12:28:11Z</time>
      </trkpt>
      <trkpt lat="42.83739" lon="-0.48025">
        <ele>1833.8</ele>
        <time>2012-08-17T12:28:27Z</time>
      </trkpt>
      <trkpt lat="42.83741" lon="-0.48014">
        <ele>1830.7</ele>
        <time>2012-08-17T12:28:43Z</time>
      </trkpt>
      <trkpt lat="42.83742" lon="-0.48013">
        <ele>1830.6</ele>
        <time>2012-08-17T12:28:44Z</time>
      </trkpt>
      <trkpt lat="42.83746" lon="-0.47991">
        <ele>1824.8</ele>
        <time>2012-08-17T12:29:34Z</time>
      </trkpt>
      <trkpt lat="42.83747" lon="-0.47979">
        <ele>1821.2</ele>
        <time>2012-08-17T12:29:53Z</time>
      </trkpt>
      <trkpt lat="42.83747" lon="-0.47978">
        <ele>1821.1</ele>
        <time>2012-08-17T12:29:54Z</time>
      </trkpt>
      <trkpt lat="42.8375" lon="-0.47956">
        <ele>1817.7</ele>
        <time>2012-08-17T12:30:19Z</time>
      </trkpt>
      <trkpt lat="42.83758" lon="-0.4795">
        <ele>1814.6</ele>
        <time>2012-08-17T12:30:40Z</time>
      </trkpt>
      <trkpt lat="42.83764" lon="-0.47957">
        <ele>1812.7</ele>
        <time>2012-08-17T12:30:52Z</time>
      </trkpt>
      <trkpt lat="42.83772" lon="-0.47961">
        <ele>1810.4</ele>
        <time>2012-08-17T12:31:07Z</time>
      </trkpt>
      <trkpt lat="42.83773" lon="-0.47962">
        <ele>1810.3</ele>
        <time>2012-08-17T12:31:08Z</time>
      </trkpt>
      <trkpt lat="42.83789" lon="-0.47968">
        <ele>1807.1</ele>
        <time>2012-08-17T12:31:31Z</time>
      </trkpt>
      <trkpt lat="42.83795" lon="-0.47974">
        <ele>1804.3</ele>
        <time>2012-08-17T12:31:41Z</time>
      </trkpt>
      <trkpt lat="42.83797" lon="-0.47962">
        <ele>1802.1</ele>
        <time>2012-08-17T12:32:37Z</time>
      </trkpt>
      <trkpt lat="42.83797" lon="-0.47962">
        <ele>1802.2</ele>
        <time>2012-08-17T12:32:38Z</time>
      </trkpt>
      <trkpt lat="42.8379" lon="-0.47943">
        <ele>1793.1</ele>
        <time>2012-08-17T12:33:26Z</time>
      </trkpt>
      <trkpt lat="42.83785" lon="-0.47934">
        <ele>1790.7</ele>
        <time>2012-08-17T12:33:39Z</time>
      </trkpt>
      <trkpt lat="42.83785" lon="-0.47933">
        <ele>1790.6</ele>
        <time>2012-08-17T12:33:40Z</time>
      </trkpt>
      <trkpt lat="42.83793" lon="-0.47918">
        <ele>1782.3</ele>
        <time>2012-08-17T12:34:12Z</time>
      </trkpt>
      <trkpt lat="42.8379" lon="-0.47906">
        <ele>1778.8</ele>
        <time>2012-08-17T12:34:26Z</time>
      </trkpt>
      <trkpt lat="42.83787" lon="-0.47895">
        <ele>1777</ele>
        <time>2012-08-17T12:34:34Z</time>
      </trkpt>
      <trkpt lat="42.83782" lon="-0.47885">
        <ele>1775.3</ele>
        <time>2012-08-17T12:34:44Z</time>
      </trkpt>
      <trkpt lat="42.83781" lon="-0.47884">
        <ele>1774.9</ele>
        <time>2012-08-17T12:34:45Z</time>
      </trkpt>
      <trkpt lat="42.83777" lon="-0.47863">
        <ele>1771.5</ele>
        <time>2012-08-17T12:35:20Z</time>
      </trkpt>
      <trkpt lat="42.83775" lon="-0.47852">
        <ele>1771.1</ele>
        <time>2012-08-17T12:35:27Z</time>
      </trkpt>
      <trkpt lat="42.83771" lon="-0.47841">
        <ele>1770.4</ele>
        <time>2012-08-17T12:35:35Z</time>
      </trkpt>
      <trkpt lat="42.83769" lon="-0.47831">
        <ele>1770.4</ele>
        <time>2012-08-17T12:35:44Z</time>
      </trkpt>
      <trkpt lat="42.83768" lon="-0.47818">
        <ele>1769.2</ele>
        <time>2012-08-17T12:35:53Z</time>
      </trkpt>
      <trkpt lat="42.83767" lon="-0.47817">
        <ele>1768.8</ele>
        <time>2012-08-17T12:35:54Z</time>
      </trkpt>
      <trkpt lat="42.83766" lon="-0.47797">
        <ele>1767.5</ele>
        <time>2012-08-17T12:36:07Z</time>
      </trkpt>
      <trkpt lat="42.83768" lon="-0.47786">
        <ele>1766.2</ele>
        <time>2012-08-17T12:36:16Z</time>
      </trkpt>
      <trkpt lat="42.83772" lon="-0.47777">
        <ele>1763.3</ele>
        <time>2012-08-17T12:36:26Z</time>
      </trkpt>
      <trkpt lat="42.83777" lon="-0.47767">
        <ele>1762.3</ele>
        <time>2012-08-17T12:36:34Z</time>
      </trkpt>
      <trkpt lat="42.83778" lon="-0.47755">
        <ele>1760.4</ele>
        <time>2012-08-17T12:36:42Z</time>
      </trkpt>
      <trkpt lat="42.83779" lon="-0.47743">
        <ele>1759.3</ele>
        <time>2012-08-17T12:36:52Z</time>
      </trkpt>
      <trkpt lat="42.83781" lon="-0.47732">
        <ele>1758.8</ele>
        <time>2012-08-17T12:37:00Z</time>
      </trkpt>
      <trkpt lat="42.83781" lon="-0.4773">
        <ele>1758.5</ele>
        <time>2012-08-17T12:37:01Z</time>
      </trkpt>
      <trkpt lat="42.83788" lon="-0.4771">
        <ele>1756.1</ele>
        <time>2012-08-17T12:37:17Z</time>
      </trkpt>
      <trkpt lat="42.83793" lon="-0.477">
        <ele>1754.1</ele>
        <time>2012-08-17T12:37:28Z</time>
      </trkpt>
      <trkpt lat="42.83799" lon="-0.47691">
        <ele>1753.3</ele>
        <time>2012-08-17T12:37:35Z</time>
      </trkpt>
      <trkpt lat="42.83804" lon="-0.47682">
        <ele>1752.6</ele>
        <time>2012-08-17T12:37:42Z</time>
      </trkpt>
      <trkpt lat="42.83801" lon="-0.47672">
        <ele>1745.9</ele>
        <time>2012-08-17T12:37:58Z</time>
      </trkpt>
      <trkpt lat="42.83793" lon="-0.47672">
        <ele>1743.8</ele>
        <time>2012-08-17T12:38:16Z</time>
      </trkpt>
      <trkpt lat="42.83791" lon="-0.47672">
        <ele>1743.6</ele>
        <time>2012-08-17T12:38:17Z</time>
      </trkpt>
      <trkpt lat="42.83776" lon="-0.4767">
        <ele>1738.3</ele>
        <time>2012-08-17T12:38:35Z</time>
      </trkpt>
      <trkpt lat="42.8377" lon="-0.47662">
        <ele>1735.5</ele>
        <time>2012-08-17T12:38:47Z</time>
      </trkpt>
      <trkpt lat="42.83768" lon="-0.4765">
        <ele>1735.4</ele>
        <time>2012-08-17T12:39:15Z</time>
      </trkpt>
      <trkpt lat="42.83771" lon="-0.4764">
        <ele>1734.1</ele>
        <time>2012-08-17T12:39:22Z</time>
      </trkpt>
      <trkpt lat="42.83772" lon="-0.47638">
        <ele>1733.7</ele>
        <time>2012-08-17T12:39:23Z</time>
      </trkpt>
      <trkpt lat="42.83784" lon="-0.47625">
        <ele>1729.7</ele>
        <time>2012-08-17T12:39:43Z</time>
      </trkpt>
      <trkpt lat="42.8379" lon="-0.47616">
        <ele>1729</ele>
        <time>2012-08-17T12:39:52Z</time>
      </trkpt>
      <trkpt lat="42.83798" lon="-0.47613">
        <ele>1726.9</ele>
        <time>2012-08-17T12:40:10Z</time>
      </trkpt>
      <trkpt lat="42.83806" lon="-0.47608">
        <ele>1725.8</ele>
        <time>2012-08-17T12:40:18Z</time>
      </trkpt>
      <trkpt lat="42.83808" lon="-0.47597">
        <ele>1719.6</ele>
        <time>2012-08-17T12:40:47Z</time>
      </trkpt>
      <trkpt lat="42.83809" lon="-0.47596">
        <ele>1719.3</ele>
        <time>2012-08-17T12:40:48Z</time>
      </trkpt>
      <trkpt lat="42.83822" lon="-0.47581">
        <ele>1715.6</ele>
        <time>2012-08-17T12:41:20Z</time>
      </trkpt>
      <trkpt lat="42.83826" lon="-0.47571">
        <ele>1714.2</ele>
        <time>2012-08-17T12:41:40Z</time>
      </trkpt>
      <trkpt lat="42.83829" lon="-0.4756">
        <ele>1710.9</ele>
        <time>2012-08-17T12:41:57Z</time>
      </trkpt>
      <trkpt lat="42.83829" lon="-0.47559">
        <ele>1710.8</ele>
        <time>2012-08-17T12:41:58Z</time>
      </trkpt>
      <trkpt lat="42.83832" lon="-0.47537">
        <ele>1703.9</ele>
        <time>2012-08-17T12:42:27Z</time>
      </trkpt>
      <trkpt lat="42.83833" lon="-0.47525">
        <ele>1700.5</ele>
        <time>2012-08-17T12:42:38Z</time>
      </trkpt>
      <trkpt lat="42.83834" lon="-0.47514">
        <ele>1697.9</ele>
        <time>2012-08-17T12:42:48Z</time>
      </trkpt>
      <trkpt lat="42.83834" lon="-0.47502">
        <ele>1696</ele>
        <time>2012-08-17T12:42:57Z</time>
      </trkpt>
      <trkpt lat="42.83838" lon="-0.47492">
        <ele>1694.9</ele>
        <time>2012-08-17T12:43:05Z</time>
      </trkpt>
      <trkpt lat="42.83839" lon="-0.47491">
        <ele>1694.8</ele>
        <time>2012-08-17T12:43:06Z</time>
      </trkpt>
      <trkpt lat="42.83848" lon="-0.47476">
        <ele>1690.3</ele>
        <time>2012-08-17T12:43:21Z</time>
      </trkpt>
      <trkpt lat="42.83853" lon="-0.47467">
        <ele>1689</ele>
        <time>2012-08-17T12:43:28Z</time>
      </trkpt>
      <trkpt lat="42.83858" lon="-0.47458">
        <ele>1686.7</ele>
        <time>2012-08-17T12:43:39Z</time>
      </trkpt>
      <trkpt lat="42.83864" lon="-0.4745">
        <ele>1683.7</ele>
        <time>2012-08-17T12:43:52Z</time>
      </trkpt>
      <trkpt lat="42.83873" lon="-0.47446">
        <ele>1681.9</ele>
        <time>2012-08-17T12:44:03Z</time>
      </trkpt>
      <trkpt lat="42.83875" lon="-0.47434">
        <ele>1677.1</ele>
        <time>2012-08-17T12:44:22Z</time>
      </trkpt>
      <trkpt lat="42.83875" lon="-0.47434">
        <ele>1676.8</ele>
        <time>2012-08-17T12:44:23Z</time>
      </trkpt>
      <trkpt lat="42.83889" lon="-0.47422">
        <ele>1672.3</ele>
        <time>2012-08-17T12:44:55Z</time>
      </trkpt>
      <trkpt lat="42.83894" lon="-0.47413">
        <ele>1670.9</ele>
        <time>2012-08-17T12:45:05Z</time>
      </trkpt>
      <trkpt lat="42.83897" lon="-0.47401">
        <ele>1668.2</ele>
        <time>2012-08-17T12:45:18Z</time>
      </trkpt>
      <trkpt lat="42.839" lon="-0.4739">
        <ele>1666.6</ele>
        <time>2012-08-17T12:45:30Z</time>
      </trkpt>
      <trkpt lat="42.839" lon="-0.47389">
        <ele>1666.3</ele>
        <time>2012-08-17T12:45:31Z</time>
      </trkpt>
      <trkpt lat="42.83906" lon="-0.47367">
        <ele>1663.8</ele>
        <time>2012-08-17T12:45:48Z</time>
      </trkpt>
      <trkpt lat="42.83911" lon="-0.47358">
        <ele>1662</ele>
        <time>2012-08-17T12:45:56Z</time>
      </trkpt>
      <trkpt lat="42.83914" lon="-0.47347">
        <ele>1660.5</ele>
        <time>2012-08-17T12:46:11Z</time>
      </trkpt>
      <trkpt lat="42.83915" lon="-0.47335">
        <ele>1660.4</ele>
        <time>2012-08-17T12:46:25Z</time>
      </trkpt>
      <trkpt lat="42.83918" lon="-0.47325">
        <ele>1660.5</ele>
        <time>2012-08-17T12:46:33Z</time>
      </trkpt>
      <trkpt lat="42.83918" lon="-0.47323">
        <ele>1660.5</ele>
        <time>2012-08-17T12:46:34Z</time>
      </trkpt>
      <trkpt lat="42.83925" lon="-0.47306">
        <ele>1660.6</ele>
        <time>2012-08-17T12:46:48Z</time>
      </trkpt>
      <trkpt lat="42.83931" lon="-0.47299">
        <ele>1660.3</ele>
        <time>2012-08-17T12:46:56Z</time>
      </trkpt>
      <trkpt lat="42.83939" lon="-0.47294">
        <ele>1660.1</ele>
        <time>2012-08-17T12:47:14Z</time>
      </trkpt>
      <trkpt lat="42.83946" lon="-0.47288">
        <ele>1659.5</ele>
        <time>2012-08-17T12:47:21Z</time>
      </trkpt>
      <trkpt lat="42.83952" lon="-0.4728">
        <ele>1659.2</ele>
        <time>2012-08-17T12:47:29Z</time>
      </trkpt>
      <trkpt lat="42.83958" lon="-0.47272">
        <ele>1659</ele>
        <time>2012-08-17T12:47:37Z</time>
      </trkpt>
      <trkpt lat="42.83959" lon="-0.47271">
        <ele>1658.8</ele>
        <time>2012-08-17T12:47:38Z</time>
      </trkpt>
      <trkpt lat="42.83968" lon="-0.47276">
        <ele>1657.5</ele>
        <time>2012-08-17T12:48:51Z</time>
      </trkpt>
      <trkpt lat="42.83969" lon="-0.47277">
        <ele>1657.5</ele>
        <time>2012-08-17T12:48:52Z</time>
      </trkpt>
      <trkpt lat="42.83975" lon="-0.47255">
        <ele>1658.1</ele>
        <time>2012-08-17T12:49:21Z</time>
      </trkpt>
      <trkpt lat="42.83979" lon="-0.47245">
        <ele>1658.6</ele>
        <time>2012-08-17T12:49:27Z</time>
      </trkpt>
      <trkpt lat="42.83984" lon="-0.47236">
        <ele>1658.6</ele>
        <time>2012-08-17T12:49:33Z</time>
      </trkpt>
      <trkpt lat="42.83988" lon="-0.47226">
        <ele>1658.1</ele>
        <time>2012-08-17T12:49:39Z</time>
      </trkpt>
      <trkpt lat="42.83992" lon="-0.47216">
        <ele>1658.3</ele>
        <time>2012-08-17T12:49:46Z</time>
      </trkpt>
      <trkpt lat="42.83995" lon="-0.47206">
        <ele>1657.4</ele>
        <time>2012-08-17T12:49:52Z</time>
      </trkpt>
      <trkpt lat="42.83996" lon="-0.47205">
        <ele>1657.3</ele>
        <time>2012-08-17T12:49:53Z</time>
      </trkpt>
      <trkpt lat="42.84004" lon="-0.47187">
        <ele>1656.7</ele>
        <time>2012-08-17T12:50:07Z</time>
      </trkpt>
      <trkpt lat="42.84005" lon="-0.47175">
        <ele>1657.6</ele>
        <time>2012-08-17T12:50:16Z</time>
      </trkpt>
      <trkpt lat="42.84005" lon="-0.47164">
        <ele>1657.2</ele>
        <time>2012-08-17T12:50:25Z</time>
      </trkpt>
      <trkpt lat="42.84008" lon="-0.47153">
        <ele>1656.8</ele>
        <time>2012-08-17T12:50:43Z</time>
      </trkpt>
      <trkpt lat="42.84012" lon="-0.47142">
        <ele>1656.6</ele>
        <time>2012-08-17T12:50:58Z</time>
      </trkpt>
      <trkpt lat="42.84012" lon="-0.47142">
        <ele>1656.3</ele>
        <time>2012-08-17T12:50:59Z</time>
      </trkpt>
      <trkpt lat="42.8402" lon="-0.47121">
        <ele>1655.2</ele>
        <time>2012-08-17T12:52:09Z</time>
      </trkpt>
      <trkpt lat="42.8402" lon="-0.4712">
        <ele>1655</ele>
        <time>2012-08-17T12:52:10Z</time>
      </trkpt>
      <trkpt lat="42.84027" lon="-0.47101">
        <ele>1654.7</ele>
        <time>2012-08-17T12:52:26Z</time>
      </trkpt>
      <trkpt lat="42.84031" lon="-0.4709">
        <ele>1654.2</ele>
        <time>2012-08-17T12:52:34Z</time>
      </trkpt>
      <trkpt lat="42.84035" lon="-0.4708">
        <ele>1654.8</ele>
        <time>2012-08-17T12:52:40Z</time>
      </trkpt>
      <trkpt lat="42.84039" lon="-0.4707">
        <ele>1653.4</ele>
        <time>2012-08-17T12:52:47Z</time>
      </trkpt>
      <trkpt lat="42.84044" lon="-0.4706">
        <ele>1654.1</ele>
        <time>2012-08-17T12:52:54Z</time>
      </trkpt>
      <trkpt lat="42.84048" lon="-0.47049">
        <ele>1653.8</ele>
        <time>2012-08-17T12:53:01Z</time>
      </trkpt>
      <trkpt lat="42.84053" lon="-0.47039">
        <ele>1653.7</ele>
        <time>2012-08-17T12:53:07Z</time>
      </trkpt>
      <trkpt lat="42.84057" lon="-0.47029">
        <ele>1653.8</ele>
        <time>2012-08-17T12:53:14Z</time>
      </trkpt>
      <trkpt lat="42.84058" lon="-0.47028">
        <ele>1653.8</ele>
        <time>2012-08-17T12:53:15Z</time>
      </trkpt>
      <trkpt lat="42.84065" lon="-0.47009">
        <ele>1655.2</ele>
        <time>2012-08-17T12:53:28Z</time>
      </trkpt>
      <trkpt lat="42.84069" lon="-0.47">
        <ele>1655.7</ele>
        <time>2012-08-17T12:53:36Z</time>
      </trkpt>
      <trkpt lat="42.84073" lon="-0.4699">
        <ele>1657.7</ele>
        <time>2012-08-17T12:53:46Z</time>
      </trkpt>
      <trkpt lat="42.84075" lon="-0.46979">
        <ele>1658.4</ele>
        <time>2012-08-17T12:53:56Z</time>
      </trkpt>
      <trkpt lat="42.84083" lon="-0.46973">
        <ele>1657.9</ele>
        <time>2012-08-17T12:54:04Z</time>
      </trkpt>
      <trkpt lat="42.8409" lon="-0.46968">
        <ele>1657.4</ele>
        <time>2012-08-17T12:54:11Z</time>
      </trkpt>
      <trkpt lat="42.84098" lon="-0.46963">
        <ele>1655</ele>
        <time>2012-08-17T12:54:21Z</time>
      </trkpt>
      <trkpt lat="42.84098" lon="-0.46963">
        <ele>1654.6</ele>
        <time>2012-08-17T12:54:22Z</time>
      </trkpt>
      <trkpt lat="42.84115" lon="-0.46961">
        <ele>1656</ele>
        <time>2012-08-17T12:54:40Z</time>
      </trkpt>
      <trkpt lat="42.84123" lon="-0.46957">
        <ele>1657.5</ele>
        <time>2012-08-17T12:54:50Z</time>
      </trkpt>
      <trkpt lat="42.8413" lon="-0.46952">
        <ele>1657.7</ele>
        <time>2012-08-17T12:55:00Z</time>
      </trkpt>
      <trkpt lat="42.84136" lon="-0.46947">
        <ele>1657.3</ele>
        <time>2012-08-17T12:55:08Z</time>
      </trkpt>
      <trkpt lat="42.84144" lon="-0.46944">
        <ele>1656.7</ele>
        <time>2012-08-17T12:55:14Z</time>
      </trkpt>
      <trkpt lat="42.84152" lon="-0.46939">
        <ele>1657.2</ele>
        <time>2012-08-17T12:55:30Z</time>
      </trkpt>
      <trkpt lat="42.84153" lon="-0.46939">
        <ele>1657.3</ele>
        <time>2012-08-17T12:55:31Z</time>
      </trkpt>
      <trkpt lat="42.84168" lon="-0.46932">
        <ele>1659.9</ele>
        <time>2012-08-17T12:55:48Z</time>
      </trkpt>
      <trkpt lat="42.84175" lon="-0.46925">
        <ele>1658.4</ele>
        <time>2012-08-17T12:55:57Z</time>
      </trkpt>
      <trkpt lat="42.84183" lon="-0.46921">
        <ele>1657.3</ele>
        <time>2012-08-17T12:56:07Z</time>
      </trkpt>
      <trkpt lat="42.84191" lon="-0.46921">
        <ele>1656.2</ele>
        <time>2012-08-17T12:56:15Z</time>
      </trkpt>
      <trkpt lat="42.842" lon="-0.4692">
        <ele>1655.6</ele>
        <time>2012-08-17T12:56:26Z</time>
      </trkpt>
      <trkpt lat="42.84209" lon="-0.46921">
        <ele>1655</ele>
        <time>2012-08-17T12:56:38Z</time>
      </trkpt>
      <trkpt lat="42.8421" lon="-0.46921">
        <ele>1654.9</ele>
        <time>2012-08-17T12:56:39Z</time>
      </trkpt>
      <trkpt lat="42.84223" lon="-0.46932">
        <ele>1652.6</ele>
        <time>2012-08-17T12:56:57Z</time>
      </trkpt>
      <trkpt lat="42.84226" lon="-0.46944">
        <ele>1649.6</ele>
        <time>2012-08-17T12:57:14Z</time>
      </trkpt>
      <trkpt lat="42.84217" lon="-0.46946">
        <ele>1645.9</ele>
        <time>2012-08-17T12:57:26Z</time>
      </trkpt>
      <trkpt lat="42.84209" lon="-0.46942">
        <ele>1644.9</ele>
        <time>2012-08-17T12:57:33Z</time>
      </trkpt>
      <trkpt lat="42.84201" lon="-0.46941">
        <ele>1643.3</ele>
        <time>2012-08-17T12:57:41Z</time>
      </trkpt>
      <trkpt lat="42.842" lon="-0.46942">
        <ele>1643.5</ele>
        <time>2012-08-17T12:57:42Z</time>
      </trkpt>
      <trkpt lat="42.84198" lon="-0.46939">
        <ele>1642.1</ele>
        <time>2012-08-17T12:59:17Z</time>
      </trkpt>
      <trkpt lat="42.84198" lon="-0.46938">
        <ele>1642.1</ele>
        <time>2012-08-17T12:59:18Z</time>
      </trkpt>
      <trkpt lat="42.84214" lon="-0.46946">
        <ele>1644.1</ele>
        <time>2012-08-17T12:59:40Z</time>
      </trkpt>
      <trkpt lat="42.84222" lon="-0.46947">
        <ele>1645.9</ele>
        <time>2012-08-17T12:59:50Z</time>
      </trkpt>
      <trkpt lat="42.8423" lon="-0.4695">
        <ele>1648.4</ele>
        <time>2012-08-17T13:00:09Z</time>
      </trkpt>
      <trkpt lat="42.84238" lon="-0.46946">
        <ele>1650.2</ele>
        <time>2012-08-17T13:00:20Z</time>
      </trkpt>
      <trkpt lat="42.84239" lon="-0.46946">
        <ele>1650.1</ele>
        <time>2012-08-17T13:00:21Z</time>
      </trkpt>
      <trkpt lat="42.84254" lon="-0.46939">
        <ele>1649.5</ele>
        <time>2012-08-17T13:00:36Z</time>
      </trkpt>
      <trkpt lat="42.84261" lon="-0.46936">
        <ele>1648.8</ele>
        <time>2012-08-17T13:00:44Z</time>
      </trkpt>
      <trkpt lat="42.8427" lon="-0.46932">
        <ele>1646.9</ele>
        <time>2012-08-17T13:00:54Z</time>
      </trkpt>
      <trkpt lat="42.84275" lon="-0.46922">
        <ele>1646.5</ele>
        <time>2012-08-17T13:01:15Z</time>
      </trkpt>
      <trkpt lat="42.84283" lon="-0.46918">
        <ele>1645.8</ele>
        <time>2012-08-17T13:01:36Z</time>
      </trkpt>
      <trkpt lat="42.84284" lon="-0.46918">
        <ele>1645.5</ele>
        <time>2012-08-17T13:01:37Z</time>
      </trkpt>
      <trkpt lat="42.84299" lon="-0.46912">
        <ele>1643.2</ele>
        <time>2012-08-17T13:01:54Z</time>
      </trkpt>
      <trkpt lat="42.84307" lon="-0.46911">
        <ele>1641.5</ele>
        <time>2012-08-17T13:02:05Z</time>
      </trkpt>
      <trkpt lat="42.84315" lon="-0.46914">
        <ele>1638.5</ele>
        <time>2012-08-17T13:02:21Z</time>
      </trkpt>
      <trkpt lat="42.84324" lon="-0.46911">
        <ele>1637.8</ele>
        <time>2012-08-17T13:02:32Z</time>
      </trkpt>
      <trkpt lat="42.84332" lon="-0.4691">
        <ele>1635.6</ele>
        <time>2012-08-17T13:02:44Z</time>
      </trkpt>
      <trkpt lat="42.84333" lon="-0.4691">
        <ele>1635.5</ele>
        <time>2012-08-17T13:02:45Z</time>
      </trkpt>
      <trkpt lat="42.84344" lon="-0.46895">
        <ele>1633.2</ele>
        <time>2012-08-17T13:03:02Z</time>
      </trkpt>
      <trkpt lat="42.84351" lon="-0.46889">
        <ele>1632.2</ele>
        <time>2012-08-17T13:03:09Z</time>
      </trkpt>
      <trkpt lat="42.84358" lon="-0.46882">
        <ele>1631.5</ele>
        <time>2012-08-17T13:03:19Z</time>
      </trkpt>
      <trkpt lat="42.84365" lon="-0.46876">
        <ele>1631.1</ele>
        <time>2012-08-17T13:03:33Z</time>
      </trkpt>
      <trkpt lat="42.84373" lon="-0.46874">
        <ele>1629.1</ele>
        <time>2012-08-17T13:03:55Z</time>
      </trkpt>
      <trkpt lat="42.84374" lon="-0.46875">
        <ele>1629</ele>
        <time>2012-08-17T13:03:56Z</time>
      </trkpt>
      <trkpt lat="42.84388" lon="-0.46887">
        <ele>1628.1</ele>
        <time>2012-08-17T13:04:17Z</time>
      </trkpt>
      <trkpt lat="42.84396" lon="-0.46889">
        <ele>1625.4</ele>
        <time>2012-08-17T13:04:29Z</time>
      </trkpt>
      <trkpt lat="42.84404" lon="-0.46894">
        <ele>1624.6</ele>
        <time>2012-08-17T13:04:44Z</time>
      </trkpt>
      <trkpt lat="42.84407" lon="-0.46905">
        <ele>1622.1</ele>
        <time>2012-08-17T13:05:07Z</time>
      </trkpt>
      <trkpt lat="42.84408" lon="-0.46905">
        <ele>1622</ele>
        <time>2012-08-17T13:05:08Z</time>
      </trkpt>
      <trkpt lat="42.84415" lon="-0.46901">
        <ele>1616.5</ele>
        <time>2012-08-17T13:05:32Z</time>
      </trkpt>
      <trkpt lat="42.84413" lon="-0.46889">
        <ele>1614.1</ele>
        <time>2012-08-17T13:05:43Z</time>
      </trkpt>
      <trkpt lat="42.84414" lon="-0.46877">
        <ele>1611.5</ele>
        <time>2012-08-17T13:05:58Z</time>
      </trkpt>
      <trkpt lat="42.84417" lon="-0.46866">
        <ele>1610.6</ele>
        <time>2012-08-17T13:07:00Z</time>
      </trkpt>
      <trkpt lat="42.84417" lon="-0.46866">
        <ele>1610.6</ele>
        <time>2012-08-17T13:07:01Z</time>
      </trkpt>
      <trkpt lat="42.84422" lon="-0.46855">
        <ele>1608.3</ele>
        <time>2012-08-17T13:09:30Z</time>
      </trkpt>
      <trkpt lat="42.84423" lon="-0.46833">
        <ele>1607</ele>
        <time>2012-08-17T13:09:50Z</time>
      </trkpt>
      <trkpt lat="42.84424" lon="-0.4682">
        <ele>1605</ele>
        <time>2012-08-17T13:10:04Z</time>
      </trkpt>
      <trkpt lat="42.8443" lon="-0.46812">
        <ele>1604.7</ele>
        <time>2012-08-17T13:10:15Z</time>
      </trkpt>
      <trkpt lat="42.84437" lon="-0.46805">
        <ele>1604.7</ele>
        <time>2012-08-17T13:10:31Z</time>
      </trkpt>
      <trkpt lat="42.84437" lon="-0.46804">
        <ele>1604.5</ele>
        <time>2012-08-17T13:10:32Z</time>
      </trkpt>
      <trkpt lat="42.84446" lon="-0.46786">
        <ele>1603.8</ele>
        <time>2012-08-17T13:10:54Z</time>
      </trkpt>
      <trkpt lat="42.84454" lon="-0.46782">
        <ele>1603.2</ele>
        <time>2012-08-17T13:11:02Z</time>
      </trkpt>
      <trkpt lat="42.84461" lon="-0.46776">
        <ele>1602.7</ele>
        <time>2012-08-17T13:11:12Z</time>
      </trkpt>
      <trkpt lat="42.84466" lon="-0.46767">
        <ele>1602.1</ele>
        <time>2012-08-17T13:11:21Z</time>
      </trkpt>
      <trkpt lat="42.84473" lon="-0.4676">
        <ele>1599.9</ele>
        <time>2012-08-17T13:11:31Z</time>
      </trkpt>
      <trkpt lat="42.84467" lon="-0.46751">
        <ele>1599.3</ele>
        <time>2012-08-17T13:12:13Z</time>
      </trkpt>
      <trkpt lat="42.84467" lon="-0.46749">
        <ele>1599.4</ele>
        <time>2012-08-17T13:12:14Z</time>
      </trkpt>
      <trkpt lat="42.84474" lon="-0.46728">
        <ele>1598.1</ele>
        <time>2012-08-17T13:12:31Z</time>
      </trkpt>
      <trkpt lat="42.84479" lon="-0.46719">
        <ele>1598.3</ele>
        <time>2012-08-17T13:12:42Z</time>
      </trkpt>
      <trkpt lat="42.84487" lon="-0.46715">
        <ele>1598.1</ele>
        <time>2012-08-17T13:12:55Z</time>
      </trkpt>
      <trkpt lat="42.84496" lon="-0.46715">
        <ele>1598.2</ele>
        <time>2012-08-17T13:13:04Z</time>
      </trkpt>
      <trkpt lat="42.84504" lon="-0.46712">
        <ele>1598.3</ele>
        <time>2012-08-17T13:13:18Z</time>
      </trkpt>
      <trkpt lat="42.84505" lon="-0.46712">
        <ele>1598.3</ele>
        <time>2012-08-17T13:13:19Z</time>
      </trkpt>
      <trkpt lat="42.84521" lon="-0.46705">
        <ele>1598.8</ele>
        <time>2012-08-17T13:13:36Z</time>
      </trkpt>
      <trkpt lat="42.84528" lon="-0.467">
        <ele>1597.9</ele>
        <time>2012-08-17T13:13:44Z</time>
      </trkpt>
      <trkpt lat="42.84535" lon="-0.46693">
        <ele>1597.9</ele>
        <time>2012-08-17T13:13:51Z</time>
      </trkpt>
      <trkpt lat="42.84542" lon="-0.46687">
        <ele>1597.9</ele>
        <time>2012-08-17T13:13:58Z</time>
      </trkpt>
      <trkpt lat="42.84549" lon="-0.46679">
        <ele>1598</ele>
        <time>2012-08-17T13:14:06Z</time>
      </trkpt>
      <trkpt lat="42.84555" lon="-0.46672">
        <ele>1596.9</ele>
        <time>2012-08-17T13:14:14Z</time>
      </trkpt>
      <trkpt lat="42.84563" lon="-0.46667">
        <ele>1597</ele>
        <time>2012-08-17T13:14:31Z</time>
      </trkpt>
      <trkpt lat="42.84564" lon="-0.46666">
        <ele>1597.1</ele>
        <time>2012-08-17T13:14:32Z</time>
      </trkpt>
      <trkpt lat="42.84577" lon="-0.46656">
        <ele>1593.8</ele>
        <time>2012-08-17T13:14:46Z</time>
      </trkpt>
      <trkpt lat="42.84584" lon="-0.4665">
        <ele>1593.1</ele>
        <time>2012-08-17T13:14:53Z</time>
      </trkpt>
      <trkpt lat="42.8459" lon="-0.46641">
        <ele>1592.4</ele>
        <time>2012-08-17T13:15:03Z</time>
      </trkpt>
      <trkpt lat="42.84596" lon="-0.46634">
        <ele>1589.9</ele>
        <time>2012-08-17T13:15:13Z</time>
      </trkpt>
      <trkpt lat="42.84602" lon="-0.46626">
        <ele>1589.8</ele>
        <time>2012-08-17T13:15:22Z</time>
      </trkpt>
      <trkpt lat="42.8461" lon="-0.46619">
        <ele>1590.1</ele>
        <time>2012-08-17T13:15:31Z</time>
      </trkpt>
      <trkpt lat="42.84617" lon="-0.46614">
        <ele>1590.2</ele>
        <time>2012-08-17T13:15:40Z</time>
      </trkpt>
      <trkpt lat="42.84618" lon="-0.46613">
        <ele>1590.1</ele>
        <time>2012-08-17T13:15:41Z</time>
      </trkpt>
      <trkpt lat="42.84631" lon="-0.46603">
        <ele>1589.8</ele>
        <time>2012-08-17T13:15:55Z</time>
      </trkpt>
      <trkpt lat="42.84637" lon="-0.46595">
        <ele>1589.2</ele>
        <time>2012-08-17T13:16:02Z</time>
      </trkpt>
      <trkpt lat="42.84643" lon="-0.46586">
        <ele>1588.7</ele>
        <time>2012-08-17T13:16:10Z</time>
      </trkpt>
      <trkpt lat="42.8465" lon="-0.46581">
        <ele>1588.1</ele>
        <time>2012-08-17T13:16:20Z</time>
      </trkpt>
      <trkpt lat="42.84657" lon="-0.46573">
        <ele>1588.4</ele>
        <time>2012-08-17T13:16:31Z</time>
      </trkpt>
      <trkpt lat="42.84662" lon="-0.46565">
        <ele>1587.7</ele>
        <time>2012-08-17T13:16:38Z</time>
      </trkpt>
      <trkpt lat="42.84669" lon="-0.46558">
        <ele>1586.6</ele>
        <time>2012-08-17T13:16:46Z</time>
      </trkpt>
      <trkpt lat="42.8467" lon="-0.46557">
        <ele>1586.5</ele>
        <time>2012-08-17T13:16:47Z</time>
      </trkpt>
      <trkpt lat="42.84682" lon="-0.46542">
        <ele>1586.9</ele>
        <time>2012-08-17T13:17:12Z</time>
      </trkpt>
      <trkpt lat="42.84689" lon="-0.46536">
        <ele>1586.5</ele>
        <time>2012-08-17T13:17:20Z</time>
      </trkpt>
      <trkpt lat="42.84695" lon="-0.46528">
        <ele>1586.4</ele>
        <time>2012-08-17T13:17:28Z</time>
      </trkpt>
      <trkpt lat="42.84701" lon="-0.46521">
        <ele>1586.5</ele>
        <time>2012-08-17T13:17:35Z</time>
      </trkpt>
      <trkpt lat="42.84707" lon="-0.46512">
        <ele>1585.4</ele>
        <time>2012-08-17T13:17:44Z</time>
      </trkpt>
      <trkpt lat="42.84713" lon="-0.46504">
        <ele>1586.1</ele>
        <time>2012-08-17T13:17:52Z</time>
      </trkpt>
      <trkpt lat="42.84715" lon="-0.46504">
        <ele>1586</ele>
        <time>2012-08-17T13:17:53Z</time>
      </trkpt>
      <trkpt lat="42.84729" lon="-0.46496">
        <ele>1585.3</ele>
        <time>2012-08-17T13:18:07Z</time>
      </trkpt>
      <trkpt lat="42.84737" lon="-0.46493">
        <ele>1586.3</ele>
        <time>2012-08-17T13:18:14Z</time>
      </trkpt>
      <trkpt lat="42.84745" lon="-0.4649">
        <ele>1585.5</ele>
        <time>2012-08-17T13:18:20Z</time>
      </trkpt>
      <trkpt lat="42.84752" lon="-0.46484">
        <ele>1584.4</ele>
        <time>2012-08-17T13:18:28Z</time>
      </trkpt>
      <trkpt lat="42.8476" lon="-0.46479">
        <ele>1584.4</ele>
        <time>2012-08-17T13:18:35Z</time>
      </trkpt>
      <trkpt lat="42.84768" lon="-0.46477">
        <ele>1583.2</ele>
        <time>2012-08-17T13:18:44Z</time>
      </trkpt>
      <trkpt lat="42.84777" lon="-0.46474">
        <ele>1583.5</ele>
        <time>2012-08-17T13:18:51Z</time>
      </trkpt>
      <trkpt lat="42.84785" lon="-0.46471">
        <ele>1582.7</ele>
        <time>2012-08-17T13:18:58Z</time>
      </trkpt>
      <trkpt lat="42.84786" lon="-0.4647">
        <ele>1582.6</ele>
        <time>2012-08-17T13:18:59Z</time>
      </trkpt>
      <trkpt lat="42.848" lon="-0.46462">
        <ele>1580.9</ele>
        <time>2012-08-17T13:19:20Z</time>
      </trkpt>
      <trkpt lat="42.84808" lon="-0.46458">
        <ele>1578.7</ele>
        <time>2012-08-17T13:19:30Z</time>
      </trkpt>
      <trkpt lat="42.84816" lon="-0.46455">
        <ele>1577.3</ele>
        <time>2012-08-17T13:20:05Z</time>
      </trkpt>
      <trkpt lat="42.84817" lon="-0.46454">
        <ele>1577.5</ele>
        <time>2012-08-17T13:20:06Z</time>
      </trkpt>
      <trkpt lat="42.8483" lon="-0.46441">
        <ele>1576.6</ele>
        <time>2012-08-17T13:21:02Z</time>
      </trkpt>
      <trkpt lat="42.84836" lon="-0.46433">
        <ele>1575.5</ele>
        <time>2012-08-17T13:21:11Z</time>
      </trkpt>
      <trkpt lat="42.84836" lon="-0.46432">
        <ele>1575</ele>
        <time>2012-08-17T13:21:12Z</time>
      </trkpt>
      <trkpt lat="42.84849" lon="-0.46417">
        <ele>1574</ele>
        <time>2012-08-17T13:21:28Z</time>
      </trkpt>
      <trkpt lat="42.84855" lon="-0.46408">
        <ele>1572.3</ele>
        <time>2012-08-17T13:21:37Z</time>
      </trkpt>
      <trkpt lat="42.84862" lon="-0.46402">
        <ele>1571</ele>
        <time>2012-08-17T13:21:46Z</time>
      </trkpt>
      <trkpt lat="42.84866" lon="-0.46391">
        <ele>1568.6</ele>
        <time>2012-08-17T13:21:56Z</time>
      </trkpt>
      <trkpt lat="42.84873" lon="-0.46385">
        <ele>1567.3</ele>
        <time>2012-08-17T13:22:04Z</time>
      </trkpt>
      <trkpt lat="42.8488" lon="-0.46378">
        <ele>1566.4</ele>
        <time>2012-08-17T13:22:11Z</time>
      </trkpt>
      <trkpt lat="42.84885" lon="-0.46367">
        <ele>1565.3</ele>
        <time>2012-08-17T13:22:19Z</time>
      </trkpt>
      <trkpt lat="42.84885" lon="-0.46366">
        <ele>1565.2</ele>
        <time>2012-08-17T13:22:20Z</time>
      </trkpt>
      <trkpt lat="42.84893" lon="-0.46347">
        <ele>1564.5</ele>
        <time>2012-08-17T13:22:38Z</time>
      </trkpt>
      <trkpt lat="42.84898" lon="-0.46339">
        <ele>1564.9</ele>
        <time>2012-08-17T13:22:46Z</time>
      </trkpt>
      <trkpt lat="42.84903" lon="-0.46329">
        <ele>1565</ele>
        <time>2012-08-17T13:22:53Z</time>
      </trkpt>
      <trkpt lat="42.84909" lon="-0.46322">
        <ele>1564.6</ele>
        <time>2012-08-17T13:23:00Z</time>
      </trkpt>
      <trkpt lat="42.84914" lon="-0.46313">
        <ele>1564.2</ele>
        <time>2012-08-17T13:23:07Z</time>
      </trkpt>
      <trkpt lat="42.84919" lon="-0.46305">
        <ele>1564.9</ele>
        <time>2012-08-17T13:23:14Z</time>
      </trkpt>
      <trkpt lat="42.84925" lon="-0.46297">
        <ele>1564.9</ele>
        <time>2012-08-17T13:23:21Z</time>
      </trkpt>
      <trkpt lat="42.84926" lon="-0.46296">
        <ele>1565</ele>
        <time>2012-08-17T13:23:22Z</time>
      </trkpt>
      <trkpt lat="42.84937" lon="-0.46281">
        <ele>1564.3</ele>
        <time>2012-08-17T13:23:34Z</time>
      </trkpt>
      <trkpt lat="42.84943" lon="-0.46273">
        <ele>1564.5</ele>
        <time>2012-08-17T13:23:40Z</time>
      </trkpt>
      <trkpt lat="42.8495" lon="-0.46268">
        <ele>1564.3</ele>
        <time>2012-08-17T13:23:45Z</time>
      </trkpt>
      <trkpt lat="42.84957" lon="-0.46262">
        <ele>1564.1</ele>
        <time>2012-08-17T13:23:51Z</time>
      </trkpt>
      <trkpt lat="42.84962" lon="-0.46252">
        <ele>1564.3</ele>
        <time>2012-08-17T13:23:59Z</time>
      </trkpt>
      <trkpt lat="42.84965" lon="-0.46241">
        <ele>1564.3</ele>
        <time>2012-08-17T13:24:07Z</time>
      </trkpt>
      <trkpt lat="42.8497" lon="-0.46233">
        <ele>1563.6</ele>
        <time>2012-08-17T13:24:15Z</time>
      </trkpt>
      <trkpt lat="42.84977" lon="-0.46226">
        <ele>1563.3</ele>
        <time>2012-08-17T13:24:22Z</time>
      </trkpt>
      <trkpt lat="42.84978" lon="-0.46225">
        <ele>1563.4</ele>
        <time>2012-08-17T13:24:23Z</time>
      </trkpt>
      <trkpt lat="42.84991" lon="-0.46214">
        <ele>1563.7</ele>
        <time>2012-08-17T13:24:35Z</time>
      </trkpt>
      <trkpt lat="42.84998" lon="-0.46207">
        <ele>1564.3</ele>
        <time>2012-08-17T13:24:43Z</time>
      </trkpt>
      <trkpt lat="42.85003" lon="-0.46198">
        <ele>1563.3</ele>
        <time>2012-08-17T13:24:51Z</time>
      </trkpt>
      <trkpt lat="42.85009" lon="-0.46191">
        <ele>1563.9</ele>
        <time>2012-08-17T13:24:58Z</time>
      </trkpt>
      <trkpt lat="42.85016" lon="-0.46185">
        <ele>1563.7</ele>
        <time>2012-08-17T13:25:05Z</time>
      </trkpt>
      <trkpt lat="42.85021" lon="-0.46175">
        <ele>1563.6</ele>
        <time>2012-08-17T13:25:13Z</time>
      </trkpt>
      <trkpt lat="42.85028" lon="-0.46168">
        <ele>1562.7</ele>
        <time>2012-08-17T13:25:20Z</time>
      </trkpt>
      <trkpt lat="42.85035" lon="-0.46162">
        <ele>1562.9</ele>
        <time>2012-08-17T13:25:27Z</time>
      </trkpt>
      <trkpt lat="42.85036" lon="-0.46161">
        <ele>1562.9</ele>
        <time>2012-08-17T13:25:28Z</time>
      </trkpt>
      <trkpt lat="42.85049" lon="-0.4615">
        <ele>1563.6</ele>
        <time>2012-08-17T13:25:42Z</time>
      </trkpt>
      <trkpt lat="42.85057" lon="-0.46146">
        <ele>1563.7</ele>
        <time>2012-08-17T13:25:51Z</time>
      </trkpt>
      <trkpt lat="42.85066" lon="-0.46148">
        <ele>1563</ele>
        <time>2012-08-17T13:26:20Z</time>
      </trkpt>
      <trkpt lat="42.85075" lon="-0.46148">
        <ele>1562.6</ele>
        <time>2012-08-17T13:27:08Z</time>
      </trkpt>
      <trkpt lat="42.85075" lon="-0.46147">
        <ele>1562.5</ele>
        <time>2012-08-17T13:27:09Z</time>
      </trkpt>
      <trkpt lat="42.85087" lon="-0.46131">
        <ele>1563</ele>
        <time>2012-08-17T13:27:32Z</time>
      </trkpt>
      <trkpt lat="42.85093" lon="-0.46124">
        <ele>1563.3</ele>
        <time>2012-08-17T13:27:41Z</time>
      </trkpt>
      <trkpt lat="42.851" lon="-0.46117">
        <ele>1562.6</ele>
        <time>2012-08-17T13:27:51Z</time>
      </trkpt>
      <trkpt lat="42.85108" lon="-0.46111">
        <ele>1561.3</ele>
        <time>2012-08-17T13:27:58Z</time>
      </trkpt>
      <trkpt lat="42.85115" lon="-0.46103">
        <ele>1561.3</ele>
        <time>2012-08-17T13:28:06Z</time>
      </trkpt>
      <trkpt lat="42.85122" lon="-0.46097">
        <ele>1561.1</ele>
        <time>2012-08-17T13:28:13Z</time>
      </trkpt>
      <trkpt lat="42.85123" lon="-0.46096">
        <ele>1561.2</ele>
        <time>2012-08-17T13:28:14Z</time>
      </trkpt>
      <trkpt lat="42.85136" lon="-0.46083">
        <ele>1560.5</ele>
        <time>2012-08-17T13:28:28Z</time>
      </trkpt>
      <trkpt lat="42.85143" lon="-0.46077">
        <ele>1561.1</ele>
        <time>2012-08-17T13:28:35Z</time>
      </trkpt>
      <trkpt lat="42.85149" lon="-0.4607">
        <ele>1559.9</ele>
        <time>2012-08-17T13:28:42Z</time>
      </trkpt>
      <trkpt lat="42.85156" lon="-0.46064">
        <ele>1560.1</ele>
        <time>2012-08-17T13:28:50Z</time>
      </trkpt>
      <trkpt lat="42.85163" lon="-0.46056">
        <ele>1560.8</ele>
        <time>2012-08-17T13:29:00Z</time>
      </trkpt>
      <trkpt lat="42.85171" lon="-0.4605">
        <ele>1560.4</ele>
        <time>2012-08-17T13:29:07Z</time>
      </trkpt>
      <trkpt lat="42.85178" lon="-0.46043">
        <ele>1560.3</ele>
        <time>2012-08-17T13:29:15Z</time>
      </trkpt>
      <trkpt lat="42.85179" lon="-0.46042">
        <ele>1560</ele>
        <time>2012-08-17T13:29:16Z</time>
      </trkpt>
      <trkpt lat="42.8519" lon="-0.46028">
        <ele>1558.6</ele>
        <time>2012-08-17T13:29:30Z</time>
      </trkpt>
      <trkpt lat="42.85197" lon="-0.46021">
        <ele>1559</ele>
        <time>2012-08-17T13:29:37Z</time>
      </trkpt>
      <trkpt lat="42.85203" lon="-0.46013">
        <ele>1559.6</ele>
        <time>2012-08-17T13:29:44Z</time>
      </trkpt>
      <trkpt lat="42.85209" lon="-0.46006">
        <ele>1558.4</ele>
        <time>2012-08-17T13:29:50Z</time>
      </trkpt>
      <trkpt lat="42.85216" lon="-0.46">
        <ele>1558.2</ele>
        <time>2012-08-17T13:29:56Z</time>
      </trkpt>
      <trkpt lat="42.85221" lon="-0.45992">
        <ele>1558.7</ele>
        <time>2012-08-17T13:30:03Z</time>
      </trkpt>
      <trkpt lat="42.85227" lon="-0.45986">
        <ele>1558.5</ele>
        <time>2012-08-17T13:30:09Z</time>
      </trkpt>
      <trkpt lat="42.85235" lon="-0.4598">
        <ele>1558.7</ele>
        <time>2012-08-17T13:30:17Z</time>
      </trkpt>
      <trkpt lat="42.85235" lon="-0.45979">
        <ele>1558.4</ele>
        <time>2012-08-17T13:30:18Z</time>
      </trkpt>
      <trkpt lat="42.85244" lon="-0.45962">
        <ele>1558.2</ele>
        <time>2012-08-17T13:30:32Z</time>
      </trkpt>
      <trkpt lat="42.8525" lon="-0.45953">
        <ele>1558.4</ele>
        <time>2012-08-17T13:30:40Z</time>
      </trkpt>
      <trkpt lat="42.85256" lon="-0.45946">
        <ele>1557.7</ele>
        <time>2012-08-17T13:30:47Z</time>
      </trkpt>
      <trkpt lat="42.85261" lon="-0.45937">
        <ele>1558.1</ele>
        <time>2012-08-17T13:30:54Z</time>
      </trkpt>
      <trkpt lat="42.85267" lon="-0.45929">
        <ele>1557.9</ele>
        <time>2012-08-17T13:31:01Z</time>
      </trkpt>
      <trkpt lat="42.85272" lon="-0.45919">
        <ele>1557.4</ele>
        <time>2012-08-17T13:31:08Z</time>
      </trkpt>
      <trkpt lat="42.85278" lon="-0.45912">
        <ele>1556.9</ele>
        <time>2012-08-17T13:31:13Z</time>
      </trkpt>
      <trkpt lat="42.85284" lon="-0.45905">
        <ele>1557</ele>
        <time>2012-08-17T13:31:19Z</time>
      </trkpt>
      <trkpt lat="42.85285" lon="-0.45904">
        <ele>1557.1</ele>
        <time>2012-08-17T13:31:20Z</time>
      </trkpt>
      <trkpt lat="42.85295" lon="-0.45889">
        <ele>1557.3</ele>
        <time>2012-08-17T13:31:33Z</time>
      </trkpt>
      <trkpt lat="42.85299" lon="-0.45878">
        <ele>1556.5</ele>
        <time>2012-08-17T13:31:41Z</time>
      </trkpt>
      <trkpt lat="42.85305" lon="-0.4587">
        <ele>1557.4</ele>
        <time>2012-08-17T13:31:47Z</time>
      </trkpt>
      <trkpt lat="42.85311" lon="-0.45865">
        <ele>1557.3</ele>
        <time>2012-08-17T13:31:53Z</time>
      </trkpt>
      <trkpt lat="42.85318" lon="-0.45858">
        <ele>1556.9</ele>
        <time>2012-08-17T13:32:00Z</time>
      </trkpt>
      <trkpt lat="42.85324" lon="-0.45849">
        <ele>1556.4</ele>
        <time>2012-08-17T13:32:08Z</time>
      </trkpt>
      <trkpt lat="42.8533" lon="-0.45842">
        <ele>1557</ele>
        <time>2012-08-17T13:32:15Z</time>
      </trkpt>
      <trkpt lat="42.85335" lon="-0.45834">
        <ele>1556.4</ele>
        <time>2012-08-17T13:32:22Z</time>
      </trkpt>
      <trkpt lat="42.85336" lon="-0.45833">
        <ele>1556.5</ele>
        <time>2012-08-17T13:32:23Z</time>
      </trkpt>
      <trkpt lat="42.85348" lon="-0.45819">
        <ele>1556.7</ele>
        <time>2012-08-17T13:32:34Z</time>
      </trkpt>
      <trkpt lat="42.85355" lon="-0.45813">
        <ele>1556.1</ele>
        <time>2012-08-17T13:32:41Z</time>
      </trkpt>
      <trkpt lat="42.85363" lon="-0.45806">
        <ele>1555.6</ele>
        <time>2012-08-17T13:32:48Z</time>
      </trkpt>
      <trkpt lat="42.85368" lon="-0.45798">
        <ele>1555.7</ele>
        <time>2012-08-17T13:32:55Z</time>
      </trkpt>
      <trkpt lat="42.85376" lon="-0.45798">
        <ele>1555.2</ele>
        <time>2012-08-17T13:33:02Z</time>
      </trkpt>
      <trkpt lat="42.85385" lon="-0.45801">
        <ele>1556.7</ele>
        <time>2012-08-17T13:33:11Z</time>
      </trkpt>
      <trkpt lat="42.85393" lon="-0.45802">
        <ele>1556</ele>
        <time>2012-08-17T13:33:21Z</time>
      </trkpt>
      <trkpt lat="42.85401" lon="-0.45796">
        <ele>1554.5</ele>
        <time>2012-08-17T13:33:28Z</time>
      </trkpt>
      <trkpt lat="42.85402" lon="-0.45796">
        <ele>1554.6</ele>
        <time>2012-08-17T13:33:29Z</time>
      </trkpt>
      <trkpt lat="42.85412" lon="-0.45781">
        <ele>1555</ele>
        <time>2012-08-17T13:33:42Z</time>
      </trkpt>
      <trkpt lat="42.8542" lon="-0.45775">
        <ele>1555.8</ele>
        <time>2012-08-17T13:33:52Z</time>
      </trkpt>
      <trkpt lat="42.85427" lon="-0.4577">
        <ele>1555.3</ele>
        <time>2012-08-17T13:33:58Z</time>
      </trkpt>
      <trkpt lat="42.85432" lon="-0.4576">
        <ele>1555.7</ele>
        <time>2012-08-17T13:34:06Z</time>
      </trkpt>
      <trkpt lat="42.85437" lon="-0.4575">
        <ele>1557.1</ele>
        <time>2012-08-17T13:34:29Z</time>
      </trkpt>
      <trkpt lat="42.85438" lon="-0.4575">
        <ele>1557.2</ele>
        <time>2012-08-17T13:34:30Z</time>
      </trkpt>
      <trkpt lat="42.85453" lon="-0.45758">
        <ele>1557.4</ele>
        <time>2012-08-17T13:34:51Z</time>
      </trkpt>
      <trkpt lat="42.85461" lon="-0.45754">
        <ele>1559</ele>
        <time>2012-08-17T13:35:13Z</time>
      </trkpt>
      <trkpt lat="42.85467" lon="-0.45744">
        <ele>1557.9</ele>
        <time>2012-08-17T13:35:24Z</time>
      </trkpt>
      <trkpt lat="42.85474" lon="-0.4574">
        <ele>1557.4</ele>
        <time>2012-08-17T13:35:32Z</time>
      </trkpt>
      <trkpt lat="42.85475" lon="-0.45739">
        <ele>1557.4</ele>
        <time>2012-08-17T13:35:33Z</time>
      </trkpt>
      <trkpt lat="42.85484" lon="-0.45722">
        <ele>1557.4</ele>
        <time>2012-08-17T13:35:50Z</time>
      </trkpt>
      <trkpt lat="42.85492" lon="-0.45717">
        <ele>1556.2</ele>
        <time>2012-08-17T13:35:58Z</time>
      </trkpt>
      <trkpt lat="42.85496" lon="-0.45707">
        <ele>1555</ele>
        <time>2012-08-17T13:36:05Z</time>
      </trkpt>
      <trkpt lat="42.85502" lon="-0.45699">
        <ele>1553.9</ele>
        <time>2012-08-17T13:36:12Z</time>
      </trkpt>
      <trkpt lat="42.85505" lon="-0.45687">
        <ele>1552.7</ele>
        <time>2012-08-17T13:36:20Z</time>
      </trkpt>
      <trkpt lat="42.85509" lon="-0.45677">
        <ele>1551.6</ele>
        <time>2012-08-17T13:36:34Z</time>
      </trkpt>
      <trkpt lat="42.85509" lon="-0.45676">
        <ele>1551.7</ele>
        <time>2012-08-17T13:36:35Z</time>
      </trkpt>
      <trkpt lat="42.85522" lon="-0.45663">
        <ele>1550.5</ele>
        <time>2012-08-17T13:36:51Z</time>
      </trkpt>
      <trkpt lat="42.85528" lon="-0.45656">
        <ele>1549.3</ele>
        <time>2012-08-17T13:36:57Z</time>
      </trkpt>
      <trkpt lat="42.85535" lon="-0.4565">
        <ele>1549.5</ele>
        <time>2012-08-17T13:37:02Z</time>
      </trkpt>
      <trkpt lat="42.85541" lon="-0.45644">
        <ele>1548.5</ele>
        <time>2012-08-17T13:37:08Z</time>
      </trkpt>
      <trkpt lat="42.85549" lon="-0.45638">
        <ele>1547</ele>
        <time>2012-08-17T13:37:14Z</time>
      </trkpt>
      <trkpt lat="42.85554" lon="-0.4563">
        <ele>1545.6</ele>
        <time>2012-08-17T13:37:20Z</time>
      </trkpt>
      <trkpt lat="42.8556" lon="-0.45621">
        <ele>1543.4</ele>
        <time>2012-08-17T13:37:28Z</time>
      </trkpt>
      <trkpt lat="42.85564" lon="-0.45611">
        <ele>1542.2</ele>
        <time>2012-08-17T13:37:40Z</time>
      </trkpt>
      <trkpt lat="42.85565" lon="-0.4561">
        <ele>1542.2</ele>
        <time>2012-08-17T13:37:41Z</time>
      </trkpt>
      <trkpt lat="42.85579" lon="-0.456">
        <ele>1537.4</ele>
        <time>2012-08-17T13:38:00Z</time>
      </trkpt>
      <trkpt lat="42.85587" lon="-0.456">
        <ele>1536.9</ele>
        <time>2012-08-17T13:38:05Z</time>
      </trkpt>
      <trkpt lat="42.85595" lon="-0.45597">
        <ele>1535.6</ele>
        <time>2012-08-17T13:38:11Z</time>
      </trkpt>
      <trkpt lat="42.85603" lon="-0.45593">
        <ele>1535.1</ele>
        <time>2012-08-17T13:38:22Z</time>
      </trkpt>
      <trkpt lat="42.85612" lon="-0.45591">
        <ele>1532.9</ele>
        <time>2012-08-17T13:38:39Z</time>
      </trkpt>
      <trkpt lat="42.8562" lon="-0.45592">
        <ele>1532</ele>
        <time>2012-08-17T13:38:45Z</time>
      </trkpt>
      <trkpt lat="42.85621" lon="-0.45592">
        <ele>1532</ele>
        <time>2012-08-17T13:38:46Z</time>
      </trkpt>
      <trkpt lat="42.85635" lon="-0.45587">
        <ele>1527.7</ele>
        <time>2012-08-17T13:39:00Z</time>
      </trkpt>
      <trkpt lat="42.85644" lon="-0.45584">
        <ele>1525.8</ele>
        <time>2012-08-17T13:39:10Z</time>
      </trkpt>
      <trkpt lat="42.85652" lon="-0.45582">
        <ele>1523.4</ele>
        <time>2012-08-17T13:39:17Z</time>
      </trkpt>
      <trkpt lat="42.8566" lon="-0.45579">
        <ele>1521.9</ele>
        <time>2012-08-17T13:39:23Z</time>
      </trkpt>
      <trkpt lat="42.85669" lon="-0.45577">
        <ele>1520.7</ele>
        <time>2012-08-17T13:39:29Z</time>
      </trkpt>
      <trkpt lat="42.85677" lon="-0.45573">
        <ele>1518.1</ele>
        <time>2012-08-17T13:39:39Z</time>
      </trkpt>
      <trkpt lat="42.85684" lon="-0.45568">
        <ele>1515.6</ele>
        <time>2012-08-17T13:39:50Z</time>
      </trkpt>
      <trkpt lat="42.85686" lon="-0.45568">
        <ele>1515.4</ele>
        <time>2012-08-17T13:39:51Z</time>
      </trkpt>
      <trkpt lat="42.857" lon="-0.45561">
        <ele>1511.8</ele>
        <time>2012-08-17T13:40:02Z</time>
      </trkpt>
      <trkpt lat="42.85707" lon="-0.45555">
        <ele>1509.4</ele>
        <time>2012-08-17T13:40:10Z</time>
      </trkpt>
      <trkpt lat="42.85714" lon="-0.45548">
        <ele>1506.2</ele>
        <time>2012-08-17T13:40:25Z</time>
      </trkpt>
      <trkpt lat="42.85722" lon="-0.45546">
        <ele>1504.5</ele>
        <time>2012-08-17T13:40:33Z</time>
      </trkpt>
      <trkpt lat="42.85731" lon="-0.45544">
        <ele>1503.4</ele>
        <time>2012-08-17T13:40:40Z</time>
      </trkpt>
      <trkpt lat="42.85739" lon="-0.4554">
        <ele>1503.3</ele>
        <time>2012-08-17T13:40:48Z</time>
      </trkpt>
      <trkpt lat="42.85746" lon="-0.45534">
        <ele>1502.6</ele>
        <time>2012-08-17T13:40:55Z</time>
      </trkpt>
      <trkpt lat="42.85747" lon="-0.45533">
        <ele>1502.4</ele>
        <time>2012-08-17T13:40:56Z</time>
      </trkpt>
      <trkpt lat="42.85759" lon="-0.45518">
        <ele>1502.1</ele>
        <time>2012-08-17T13:41:10Z</time>
      </trkpt>
      <trkpt lat="42.85765" lon="-0.4551">
        <ele>1501.9</ele>
        <time>2012-08-17T13:41:17Z</time>
      </trkpt>
      <trkpt lat="42.85772" lon="-0.45505">
        <ele>1502</ele>
        <time>2012-08-17T13:41:23Z</time>
      </trkpt>
      <trkpt lat="42.85777" lon="-0.45495">
        <ele>1501.9</ele>
        <time>2012-08-17T13:41:30Z</time>
      </trkpt>
      <trkpt lat="42.85784" lon="-0.45487">
        <ele>1501.9</ele>
        <time>2012-08-17T13:41:36Z</time>
      </trkpt>
      <trkpt lat="42.85789" lon="-0.4548">
        <ele>1501.7</ele>
        <time>2012-08-17T13:41:42Z</time>
      </trkpt>
      <trkpt lat="42.85793" lon="-0.4547">
        <ele>1500.9</ele>
        <time>2012-08-17T13:41:50Z</time>
      </trkpt>
      <trkpt lat="42.85799" lon="-0.4546">
        <ele>1501.2</ele>
        <time>2012-08-17T13:42:00Z</time>
      </trkpt>
      <trkpt lat="42.85799" lon="-0.45459">
        <ele>1500.7</ele>
        <time>2012-08-17T13:42:01Z</time>
      </trkpt>
      <trkpt lat="42.85815" lon="-0.45454">
        <ele>1499.8</ele>
        <time>2012-08-17T13:42:18Z</time>
      </trkpt>
      <trkpt lat="42.85823" lon="-0.45456">
        <ele>1500.3</ele>
        <time>2012-08-17T13:42:24Z</time>
      </trkpt>
      <trkpt lat="42.85831" lon="-0.45457">
        <ele>1500.4</ele>
        <time>2012-08-17T13:42:28Z</time>
      </trkpt>
      <trkpt lat="42.85838" lon="-0.4546">
        <ele>1500.2</ele>
        <time>2012-08-17T13:42:32Z</time>
      </trkpt>
      <trkpt lat="42.85846" lon="-0.45467">
        <ele>1499.3</ele>
        <time>2012-08-17T13:42:37Z</time>
      </trkpt>
      <trkpt lat="42.85852" lon="-0.45474">
        <ele>1497.7</ele>
        <time>2012-08-17T13:42:43Z</time>
      </trkpt>
      <trkpt lat="42.85858" lon="-0.45481">
        <ele>1497.5</ele>
        <time>2012-08-17T13:42:48Z</time>
      </trkpt>
      <trkpt lat="42.85866" lon="-0.45486">
        <ele>1497</ele>
        <time>2012-08-17T13:42:55Z</time>
      </trkpt>
      <trkpt lat="42.85873" lon="-0.45482">
        <ele>1495.1</ele>
        <time>2012-08-17T13:43:04Z</time>
      </trkpt>
      <trkpt lat="42.85874" lon="-0.45481">
        <ele>1495.3</ele>
        <time>2012-08-17T13:43:05Z</time>
      </trkpt>
      <trkpt lat="42.85886" lon="-0.4547">
        <ele>1494.3</ele>
        <time>2012-08-17T13:43:17Z</time>
      </trkpt>
      <trkpt lat="42.85894" lon="-0.45467">
        <ele>1493.3</ele>
        <time>2012-08-17T13:43:23Z</time>
      </trkpt>
      <trkpt lat="42.85901" lon="-0.4546">
        <ele>1493.8</ele>
        <time>2012-08-17T13:43:29Z</time>
      </trkpt>
      <trkpt lat="42.85908" lon="-0.45455">
        <ele>1492.4</ele>
        <time>2012-08-17T13:43:35Z</time>
      </trkpt>
      <trkpt lat="42.85915" lon="-0.45453">
        <ele>1492.1</ele>
        <time>2012-08-17T13:43:40Z</time>
      </trkpt>
      <trkpt lat="42.85924" lon="-0.45451">
        <ele>1490.1</ele>
        <time>2012-08-17T13:43:47Z</time>
      </trkpt>
      <trkpt lat="42.85932" lon="-0.45453">
        <ele>1489</ele>
        <time>2012-08-17T13:43:53Z</time>
      </trkpt>
      <trkpt lat="42.85941" lon="-0.45454">
        <ele>1487.3</ele>
        <time>2012-08-17T13:43:59Z</time>
      </trkpt>
      <trkpt lat="42.85949" lon="-0.45458">
        <ele>1485.9</ele>
        <time>2012-08-17T13:44:05Z</time>
      </trkpt>
      <trkpt lat="42.8595" lon="-0.45459">
        <ele>1485.7</ele>
        <time>2012-08-17T13:44:06Z</time>
      </trkpt>
      <trkpt lat="42.85965" lon="-0.45461">
        <ele>1484.4</ele>
        <time>2012-08-17T13:44:17Z</time>
      </trkpt>
      <trkpt lat="42.85973" lon="-0.45458">
        <ele>1482.9</ele>
        <time>2012-08-17T13:44:23Z</time>
      </trkpt>
      <trkpt lat="42.8598" lon="-0.45453">
        <ele>1481.2</ele>
        <time>2012-08-17T13:44:30Z</time>
      </trkpt>
      <trkpt lat="42.85988" lon="-0.45449">
        <ele>1479.7</ele>
        <time>2012-08-17T13:44:37Z</time>
      </trkpt>
      <trkpt lat="42.85996" lon="-0.45445">
        <ele>1479.6</ele>
        <time>2012-08-17T13:44:44Z</time>
      </trkpt>
      <trkpt lat="42.86003" lon="-0.45443">
        <ele>1479.1</ele>
        <time>2012-08-17T13:44:49Z</time>
      </trkpt>
      <trkpt lat="42.86011" lon="-0.45439">
        <ele>1478</ele>
        <time>2012-08-17T13:44:56Z</time>
      </trkpt>
      <trkpt lat="42.86019" lon="-0.45436">
        <ele>1476.8</ele>
        <time>2012-08-17T13:45:02Z</time>
      </trkpt>
      <trkpt lat="42.86027" lon="-0.45432">
        <ele>1475.1</ele>
        <time>2012-08-17T13:45:08Z</time>
      </trkpt>
      <trkpt lat="42.86028" lon="-0.45431">
        <ele>1475</ele>
        <time>2012-08-17T13:45:09Z</time>
      </trkpt>
      <trkpt lat="42.86044" lon="-0.45428">
        <ele>1473.4</ele>
        <time>2012-08-17T13:45:22Z</time>
      </trkpt>
      <trkpt lat="42.8605" lon="-0.45424">
        <ele>1472</ele>
        <time>2012-08-17T13:45:28Z</time>
      </trkpt>
      <trkpt lat="42.86057" lon="-0.45418">
        <ele>1470.8</ele>
        <time>2012-08-17T13:45:35Z</time>
      </trkpt>
      <trkpt lat="42.86065" lon="-0.45414">
        <ele>1468.6</ele>
        <time>2012-08-17T13:45:43Z</time>
      </trkpt>
      <trkpt lat="42.86073" lon="-0.45417">
        <ele>1467.3</ele>
        <time>2012-08-17T13:45:51Z</time>
      </trkpt>
      <trkpt lat="42.86081" lon="-0.45414">
        <ele>1465.6</ele>
        <time>2012-08-17T13:46:01Z</time>
      </trkpt>
      <trkpt lat="42.8609" lon="-0.45415">
        <ele>1462.8</ele>
        <time>2012-08-17T13:46:12Z</time>
      </trkpt>
      <trkpt lat="42.86091" lon="-0.45415">
        <ele>1462.8</ele>
        <time>2012-08-17T13:46:13Z</time>
      </trkpt>
      <trkpt lat="42.86106" lon="-0.45409">
        <ele>1460.7</ele>
        <time>2012-08-17T13:46:26Z</time>
      </trkpt>
      <trkpt lat="42.86114" lon="-0.45407">
        <ele>1458.6</ele>
        <time>2012-08-17T13:46:32Z</time>
      </trkpt>
      <trkpt lat="42.86122" lon="-0.45402">
        <ele>1457.8</ele>
        <time>2012-08-17T13:46:38Z</time>
      </trkpt>
      <trkpt lat="42.86129" lon="-0.45398">
        <ele>1457.2</ele>
        <time>2012-08-17T13:46:45Z</time>
      </trkpt>
      <trkpt lat="42.86137" lon="-0.45393">
        <ele>1455.7</ele>
        <time>2012-08-17T13:46:52Z</time>
      </trkpt>
      <trkpt lat="42.86144" lon="-0.45385">
        <ele>1455.5</ele>
        <time>2012-08-17T13:47:00Z</time>
      </trkpt>
      <trkpt lat="42.8615" lon="-0.45377">
        <ele>1453.7</ele>
        <time>2012-08-17T13:47:09Z</time>
      </trkpt>
      <trkpt lat="42.86156" lon="-0.45371">
        <ele>1452.4</ele>
        <time>2012-08-17T13:47:17Z</time>
      </trkpt>
      <trkpt lat="42.86158" lon="-0.4537">
        <ele>1452.3</ele>
        <time>2012-08-17T13:47:18Z</time>
      </trkpt>
      <trkpt lat="42.86171" lon="-0.45362">
        <ele>1450.3</ele>
        <time>2012-08-17T13:47:30Z</time>
      </trkpt>
      <trkpt lat="42.86177" lon="-0.45354">
        <ele>1449.3</ele>
        <time>2012-08-17T13:47:37Z</time>
      </trkpt>
      <trkpt lat="42.86182" lon="-0.45345">
        <ele>1448.9</ele>
        <time>2012-08-17T13:47:44Z</time>
      </trkpt>
      <trkpt lat="42.86186" lon="-0.45335">
        <ele>1449.2</ele>
        <time>2012-08-17T13:47:51Z</time>
      </trkpt>
      <trkpt lat="42.86191" lon="-0.45324">
        <ele>1449.4</ele>
        <time>2012-08-17T13:47:57Z</time>
      </trkpt>
      <trkpt lat="42.86193" lon="-0.45313">
        <ele>1448.2</ele>
        <time>2012-08-17T13:48:03Z</time>
      </trkpt>
      <trkpt lat="42.86198" lon="-0.45305">
        <ele>1448.3</ele>
        <time>2012-08-17T13:48:08Z</time>
      </trkpt>
      <trkpt lat="42.86204" lon="-0.45296">
        <ele>1447.6</ele>
        <time>2012-08-17T13:48:14Z</time>
      </trkpt>
      <trkpt lat="42.8621" lon="-0.45288">
        <ele>1447.4</ele>
        <time>2012-08-17T13:48:20Z</time>
      </trkpt>
      <trkpt lat="42.86212" lon="-0.45287">
        <ele>1447.6</ele>
        <time>2012-08-17T13:48:21Z</time>
      </trkpt>
      <trkpt lat="42.86223" lon="-0.45275">
        <ele>1448</ele>
        <time>2012-08-17T13:48:33Z</time>
      </trkpt>
      <trkpt lat="42.86229" lon="-0.45267">
        <ele>1448.4</ele>
        <time>2012-08-17T13:48:40Z</time>
      </trkpt>
      <trkpt lat="42.86236" lon="-0.4526">
        <ele>1448.3</ele>
        <time>2012-08-17T13:48:47Z</time>
      </trkpt>
      <trkpt lat="42.86241" lon="-0.45252">
        <ele>1448</ele>
        <time>2012-08-17T13:48:54Z</time>
      </trkpt>
      <trkpt lat="42.86246" lon="-0.45243">
        <ele>1447</ele>
        <time>2012-08-17T13:49:01Z</time>
      </trkpt>
      <trkpt lat="42.86252" lon="-0.45234">
        <ele>1446.9</ele>
        <time>2012-08-17T13:49:08Z</time>
      </trkpt>
      <trkpt lat="42.8626" lon="-0.45229">
        <ele>1446.5</ele>
        <time>2012-08-17T13:49:15Z</time>
      </trkpt>
      <trkpt lat="42.86269" lon="-0.45228">
        <ele>1446</ele>
        <time>2012-08-17T13:49:24Z</time>
      </trkpt>
      <trkpt lat="42.8627" lon="-0.45228">
        <ele>1446.1</ele>
        <time>2012-08-17T13:49:25Z</time>
      </trkpt>
      <trkpt lat="42.86285" lon="-0.45231">
        <ele>1446.1</ele>
        <time>2012-08-17T13:49:38Z</time>
      </trkpt>
      <trkpt lat="42.86294" lon="-0.45232">
        <ele>1445.3</ele>
        <time>2012-08-17T13:49:43Z</time>
      </trkpt>
      <trkpt lat="42.86303" lon="-0.45233">
        <ele>1445.4</ele>
        <time>2012-08-17T13:49:49Z</time>
      </trkpt>
      <trkpt lat="42.86311" lon="-0.45232">
        <ele>1445.1</ele>
        <time>2012-08-17T13:49:55Z</time>
      </trkpt>
      <trkpt lat="42.86318" lon="-0.45228">
        <ele>1445.1</ele>
        <time>2012-08-17T13:50:01Z</time>
      </trkpt>
      <trkpt lat="42.86324" lon="-0.4522">
        <ele>1445.8</ele>
        <time>2012-08-17T13:50:11Z</time>
      </trkpt>
      <trkpt lat="42.86331" lon="-0.45214">
        <ele>1445.3</ele>
        <time>2012-08-17T13:50:18Z</time>
      </trkpt>
      <trkpt lat="42.86339" lon="-0.45211">
        <ele>1445.1</ele>
        <time>2012-08-17T13:50:26Z</time>
      </trkpt>
      <trkpt lat="42.8634" lon="-0.4521">
        <ele>1445.3</ele>
        <time>2012-08-17T13:50:27Z</time>
      </trkpt>
      <trkpt lat="42.86351" lon="-0.452">
        <ele>1446.1</ele>
        <time>2012-08-17T13:50:35Z</time>
      </trkpt>
      <trkpt lat="42.86357" lon="-0.45193">
        <ele>1445.5</ele>
        <time>2012-08-17T13:50:40Z</time>
      </trkpt>
      <trkpt lat="42.86364" lon="-0.45186">
        <ele>1445.2</ele>
        <time>2012-08-17T13:50:46Z</time>
      </trkpt>
      <trkpt lat="42.86371" lon="-0.45179">
        <ele>1444.9</ele>
        <time>2012-08-17T13:50:52Z</time>
      </trkpt>
      <trkpt lat="42.86376" lon="-0.45171">
        <ele>1445.4</ele>
        <time>2012-08-17T13:50:58Z</time>
      </trkpt>
      <trkpt lat="42.86381" lon="-0.45161">
        <ele>1445.4</ele>
        <time>2012-08-17T13:51:05Z</time>
      </trkpt>
      <trkpt lat="42.86388" lon="-0.45154">
        <ele>1444.9</ele>
        <time>2012-08-17T13:51:12Z</time>
      </trkpt>
      <trkpt lat="42.86395" lon="-0.45148">
        <ele>1444.4</ele>
        <time>2012-08-17T13:51:18Z</time>
      </trkpt>
      <trkpt lat="42.86402" lon="-0.45141">
        <ele>1443.8</ele>
        <time>2012-08-17T13:51:23Z</time>
      </trkpt>
      <trkpt lat="42.86408" lon="-0.45133">
        <ele>1444.2</ele>
        <time>2012-08-17T13:51:29Z</time>
      </trkpt>
      <trkpt lat="42.86409" lon="-0.45132">
        <ele>1444.3</ele>
        <time>2012-08-17T13:51:30Z</time>
      </trkpt>
      <trkpt lat="42.86418" lon="-0.45115">
        <ele>1443.7</ele>
        <time>2012-08-17T13:51:41Z</time>
      </trkpt>
      <trkpt lat="42.86419" lon="-0.45103">
        <ele>1442.7</ele>
        <time>2012-08-17T13:51:48Z</time>
      </trkpt>
      <trkpt lat="42.86418" lon="-0.45092">
        <ele>1440.3</ele>
        <time>2012-08-17T13:51:58Z</time>
      </trkpt>
      <trkpt lat="42.86419" lon="-0.45081">
        <ele>1439.6</ele>
        <time>2012-08-17T13:52:06Z</time>
      </trkpt>
      <trkpt lat="42.86422" lon="-0.4507">
        <ele>1439.2</ele>
        <time>2012-08-17T13:52:12Z</time>
      </trkpt>
      <trkpt lat="42.86425" lon="-0.4506">
        <ele>1437.4</ele>
        <time>2012-08-17T13:52:19Z</time>
      </trkpt>
      <trkpt lat="42.86427" lon="-0.45049">
        <ele>1436.4</ele>
        <time>2012-08-17T13:52:25Z</time>
      </trkpt>
      <trkpt lat="42.86432" lon="-0.45039">
        <ele>1436</ele>
        <time>2012-08-17T13:52:31Z</time>
      </trkpt>
      <trkpt lat="42.86432" lon="-0.45037">
        <ele>1435.9</ele>
        <time>2012-08-17T13:52:32Z</time>
      </trkpt>
      <trkpt lat="42.86433" lon="-0.45016">
        <ele>1432.9</ele>
        <time>2012-08-17T13:52:44Z</time>
      </trkpt>
      <trkpt lat="42.86435" lon="-0.45005">
        <ele>1431.8</ele>
        <time>2012-08-17T13:52:50Z</time>
      </trkpt>
      <trkpt lat="42.86439" lon="-0.44995">
        <ele>1430.8</ele>
        <time>2012-08-17T13:52:56Z</time>
      </trkpt>
      <trkpt lat="42.86444" lon="-0.44986">
        <ele>1429.8</ele>
        <time>2012-08-17T13:53:03Z</time>
      </trkpt>
      <trkpt lat="42.86452" lon="-0.44986">
        <ele>1429.4</ele>
        <time>2012-08-17T13:53:10Z</time>
      </trkpt>
      <trkpt lat="42.8646" lon="-0.4499">
        <ele>1430.1</ele>
        <time>2012-08-17T13:53:16Z</time>
      </trkpt>
      <trkpt lat="42.86468" lon="-0.44995">
        <ele>1430.9</ele>
        <time>2012-08-17T13:53:22Z</time>
      </trkpt>
      <trkpt lat="42.86475" lon="-0.45002">
        <ele>1430.6</ele>
        <time>2012-08-17T13:53:29Z</time>
      </trkpt>
      <trkpt lat="42.86482" lon="-0.4501">
        <ele>1430.8</ele>
        <time>2012-08-17T13:53:37Z</time>
      </trkpt>
      <trkpt lat="42.86483" lon="-0.45011">
        <ele>1431</ele>
        <time>2012-08-17T13:53:38Z</time>
      </trkpt>
      <trkpt lat="42.86496" lon="-0.4502">
        <ele>1430.5</ele>
        <time>2012-08-17T13:53:53Z</time>
      </trkpt>
      <trkpt lat="42.86504" lon="-0.45025">
        <ele>1429.9</ele>
        <time>2012-08-17T13:53:58Z</time>
      </trkpt>
      <trkpt lat="42.86511" lon="-0.45029">
        <ele>1429.7</ele>
        <time>2012-08-17T13:54:04Z</time>
      </trkpt>
      <trkpt lat="42.86518" lon="-0.45034">
        <ele>1429.5</ele>
        <time>2012-08-17T13:54:10Z</time>
      </trkpt>
      <trkpt lat="42.86527" lon="-0.45037">
        <ele>1430.8</ele>
        <time>2012-08-17T13:54:19Z</time>
      </trkpt>
      <trkpt lat="42.86535" lon="-0.45037">
        <ele>1429.6</ele>
        <time>2012-08-17T13:54:28Z</time>
      </trkpt>
      <trkpt lat="42.86542" lon="-0.45033">
        <ele>1430.6</ele>
        <time>2012-08-17T13:54:36Z</time>
      </trkpt>
      <trkpt lat="42.86549" lon="-0.45031">
        <ele>1431.1</ele>
        <time>2012-08-17T13:54:42Z</time>
      </trkpt>
      <trkpt lat="42.86551" lon="-0.45031">
        <ele>1431.2</ele>
        <time>2012-08-17T13:54:43Z</time>
      </trkpt>
      <trkpt lat="42.86567" lon="-0.45029">
        <ele>1432</ele>
        <time>2012-08-17T13:54:58Z</time>
      </trkpt>
      <trkpt lat="42.86574" lon="-0.45026">
        <ele>1431.2</ele>
        <time>2012-08-17T13:55:17Z</time>
      </trkpt>
      <trkpt lat="42.86581" lon="-0.45019">
        <ele>1430</ele>
        <time>2012-08-17T13:55:24Z</time>
      </trkpt>
      <trkpt lat="42.86586" lon="-0.45009">
        <ele>1430.9</ele>
        <time>2012-08-17T13:55:32Z</time>
      </trkpt>
      <trkpt lat="42.86593" lon="-0.45002">
        <ele>1431.7</ele>
        <time>2012-08-17T13:55:40Z</time>
      </trkpt>
      <trkpt lat="42.86601" lon="-0.44996">
        <ele>1430.9</ele>
        <time>2012-08-17T13:55:48Z</time>
      </trkpt>
      <trkpt lat="42.86602" lon="-0.44996">
        <ele>1430.9</ele>
        <time>2012-08-17T13:55:49Z</time>
      </trkpt>
      <trkpt lat="42.86616" lon="-0.44993">
        <ele>1431.5</ele>
        <time>2012-08-17T13:56:01Z</time>
      </trkpt>
      <trkpt lat="42.86625" lon="-0.44992">
        <ele>1431.7</ele>
        <time>2012-08-17T13:56:08Z</time>
      </trkpt>
      <trkpt lat="42.86634" lon="-0.4499">
        <ele>1431.2</ele>
        <time>2012-08-17T13:56:16Z</time>
      </trkpt>
      <trkpt lat="42.86642" lon="-0.44992">
        <ele>1432.1</ele>
        <time>2012-08-17T13:56:23Z</time>
      </trkpt>
      <trkpt lat="42.86651" lon="-0.44993">
        <ele>1431.4</ele>
        <time>2012-08-17T13:56:30Z</time>
      </trkpt>
      <trkpt lat="42.86658" lon="-0.44996">
        <ele>1431.4</ele>
        <time>2012-08-17T13:56:34Z</time>
      </trkpt>
      <trkpt lat="42.86666" lon="-0.45">
        <ele>1431.3</ele>
        <time>2012-08-17T13:56:40Z</time>
      </trkpt>
      <trkpt lat="42.86674" lon="-0.45003">
        <ele>1430.7</ele>
        <time>2012-08-17T13:56:46Z</time>
      </trkpt>
      <trkpt lat="42.86683" lon="-0.45006">
        <ele>1429.8</ele>
        <time>2012-08-17T13:56:54Z</time>
      </trkpt>
      <trkpt lat="42.86684" lon="-0.45005">
        <ele>1429.7</ele>
        <time>2012-08-17T13:56:55Z</time>
      </trkpt>
      <trkpt lat="42.86698" lon="-0.45011">
        <ele>1428.8</ele>
        <time>2012-08-17T13:57:07Z</time>
      </trkpt>
      <trkpt lat="42.86705" lon="-0.45015">
        <ele>1428.9</ele>
        <time>2012-08-17T13:57:13Z</time>
      </trkpt>
      <trkpt lat="42.86713" lon="-0.45018">
        <ele>1429.5</ele>
        <time>2012-08-17T13:57:19Z</time>
      </trkpt>
      <trkpt lat="42.86721" lon="-0.45022">
        <ele>1430</ele>
        <time>2012-08-17T13:57:26Z</time>
      </trkpt>
      <trkpt lat="42.86729" lon="-0.45027">
        <ele>1429.3</ele>
        <time>2012-08-17T13:57:45Z</time>
      </trkpt>
      <trkpt lat="42.86738" lon="-0.45023">
        <ele>1428.7</ele>
        <time>2012-08-17T13:57:59Z</time>
      </trkpt>
      <trkpt lat="42.86738" lon="-0.45023">
        <ele>1428</ele>
        <time>2012-08-17T13:58:00Z</time>
      </trkpt>
      <trkpt lat="42.86753" lon="-0.45014">
        <ele>1427.2</ele>
        <time>2012-08-17T13:58:13Z</time>
      </trkpt>
      <trkpt lat="42.86759" lon="-0.45005">
        <ele>1427.4</ele>
        <time>2012-08-17T13:58:21Z</time>
      </trkpt>
      <trkpt lat="42.86767" lon="-0.45">
        <ele>1426.8</ele>
        <time>2012-08-17T13:58:28Z</time>
      </trkpt>
      <trkpt lat="42.86772" lon="-0.4499">
        <ele>1427.7</ele>
        <time>2012-08-17T13:58:38Z</time>
      </trkpt>
      <trkpt lat="42.86778" lon="-0.44982">
        <ele>1428.6</ele>
        <time>2012-08-17T13:58:44Z</time>
      </trkpt>
      <trkpt lat="42.86784" lon="-0.44974">
        <ele>1428.1</ele>
        <time>2012-08-17T13:58:51Z</time>
      </trkpt>
      <trkpt lat="42.8679" lon="-0.44966">
        <ele>1429.2</ele>
        <time>2012-08-17T13:59:02Z</time>
      </trkpt>
      <trkpt lat="42.8679" lon="-0.44965">
        <ele>1429.1</ele>
        <time>2012-08-17T13:59:03Z</time>
      </trkpt>
      <trkpt lat="42.86803" lon="-0.44955">
        <ele>1427.6</ele>
        <time>2012-08-17T13:59:16Z</time>
      </trkpt>
      <trkpt lat="42.86807" lon="-0.44944">
        <ele>1427.4</ele>
        <time>2012-08-17T13:59:23Z</time>
      </trkpt>
      <trkpt lat="42.86813" lon="-0.44936">
        <ele>1426.9</ele>
        <time>2012-08-17T13:59:29Z</time>
      </trkpt>
      <trkpt lat="42.86818" lon="-0.44928">
        <ele>1425.7</ele>
        <time>2012-08-17T13:59:35Z</time>
      </trkpt>
      <trkpt lat="42.86823" lon="-0.44918">
        <ele>1425.2</ele>
        <time>2012-08-17T13:59:43Z</time>
      </trkpt>
      <trkpt lat="42.86825" lon="-0.44906">
        <ele>1424.8</ele>
        <time>2012-08-17T13:59:51Z</time>
      </trkpt>
      <trkpt lat="42.86829" lon="-0.44895">
        <ele>1424.7</ele>
        <time>2012-08-17T14:00:00Z</time>
      </trkpt>
      <trkpt lat="42.86832" lon="-0.44886">
        <ele>1425.1</ele>
        <time>2012-08-17T14:00:07Z</time>
      </trkpt>
      <trkpt lat="42.86833" lon="-0.44884">
        <ele>1425.1</ele>
        <time>2012-08-17T14:00:08Z</time>
      </trkpt>
      <trkpt lat="42.86837" lon="-0.44865">
        <ele>1425.5</ele>
        <time>2012-08-17T14:00:25Z</time>
      </trkpt>
      <trkpt lat="42.86836" lon="-0.44854">
        <ele>1425.3</ele>
        <time>2012-08-17T14:00:35Z</time>
      </trkpt>
      <trkpt lat="42.8684" lon="-0.44844">
        <ele>1426</ele>
        <time>2012-08-17T14:00:43Z</time>
      </trkpt>
      <trkpt lat="42.86846" lon="-0.44837">
        <ele>1426.1</ele>
        <time>2012-08-17T14:00:49Z</time>
      </trkpt>
      <trkpt lat="42.86853" lon="-0.44829">
        <ele>1426</ele>
        <time>2012-08-17T14:00:59Z</time>
      </trkpt>
      <trkpt lat="42.8686" lon="-0.44822">
        <ele>1425.9</ele>
        <time>2012-08-17T14:01:07Z</time>
      </trkpt>
      <trkpt lat="42.86868" lon="-0.44821">
        <ele>1426.4</ele>
        <time>2012-08-17T14:01:21Z</time>
      </trkpt>
      <trkpt lat="42.86869" lon="-0.44821">
        <ele>1426.4</ele>
        <time>2012-08-17T14:01:22Z</time>
      </trkpt>
      <trkpt lat="42.86869" lon="-0.44821">
        <ele>1426.3</ele>
        <time>2012-08-17T14:01:24Z</time>
      </trkpt>
    </trkseg>
  </trk>
</gpx>